<?xml version="1.0" encoding="UTF-8" standalone="no" ?>
<gpx xmlns="http://www.topografix.com/GPX/1/1" xmlns:xsi="http://www.w3.org/2001/XMLSchema-instance" xsi:schemaLocation="http://www.topografix.com/GPX/1/1 http://www.topografix.com/GPX/1/1/gpx.xsd" version="1.1" creator="VisuGPX - https://www.visugpx.com">
  <metadata>
    <name>550_Circuit 92 km Les Herbiers_Les Herbiers édité par cth85.com</name>
    <desc><![CDATA[Circuit de 92 km passsant par:
Les Herbiers
D755 la croix bara
D79 Le Boupère
D13, D960BIS Pouzauges
D49 Montournais
D49 Menomblet
D49 Saint Pierre du Chemin
D938T La Tardière
La Chataigneraie
D19 Saint Maurice le Girard
D19 la croix renard
D89 Mouilleron en Pareds
D89 Chavagnes les Redoux
D117 Sigournais
D39 Saint Germain de Prinçay
D97 Rochetrejoux
la jonchère, D48 Les Herbiers
]]></desc>
  </metadata>
  <trk>
    <name><![CDATA[92_550-cth85.com]]></name>
    <extensions>
      <line xmlns="http://www.topografix.com/GPX/gpx_style/0/2">
        <color>0000FF</color>
        <width>4</width>
      </line>
    </extensions>
    <trkseg>
      <trkpt lat="46.86375" lon="-1.00571">
        <ele>120</ele>
        <time>2023-06-02T21:24:57Z</time>
      </trkpt>
      <trkpt lat="46.86367" lon="-1.00581">
        <ele>120</ele>
        <time>2023-06-02T21:24:59Z</time>
      </trkpt>
      <trkpt lat="46.86316" lon="-1.00633">
        <ele>119</ele>
        <time>2023-06-02T21:25:10Z</time>
      </trkpt>
      <trkpt lat="46.86271" lon="-1.00663">
        <ele>118</ele>
        <time>2023-06-02T21:25:19Z</time>
      </trkpt>
      <trkpt lat="46.86234" lon="-1.00681">
        <ele>117</ele>
        <time>2023-06-02T21:25:26Z</time>
      </trkpt>
      <trkpt lat="46.86231" lon="-1.00661">
        <ele>117</ele>
        <time>2023-06-02T21:25:28Z</time>
      </trkpt>
      <trkpt lat="46.86209" lon="-1.00577">
        <ele>116</ele>
        <time>2023-06-02T21:25:39Z</time>
      </trkpt>
      <trkpt lat="46.86189" lon="-1.00515">
        <ele>115</ele>
        <time>2023-06-02T21:25:47Z</time>
      </trkpt>
      <trkpt lat="46.86181" lon="-1.00502">
        <ele>115</ele>
        <time>2023-06-02T21:25:50Z</time>
      </trkpt>
      <trkpt lat="46.8617" lon="-1.00489">
        <ele>115</ele>
        <time>2023-06-02T21:25:52Z</time>
      </trkpt>
      <trkpt lat="46.8614" lon="-1.00467">
        <ele>116</ele>
        <time>2023-06-02T21:25:58Z</time>
      </trkpt>
      <trkpt lat="46.86041" lon="-1.00409">
        <ele>115</ele>
        <time>2023-06-02T21:26:17Z</time>
      </trkpt>
      <trkpt lat="46.86052" lon="-1.00363">
        <ele>115</ele>
        <time>2023-06-02T21:26:23Z</time>
      </trkpt>
      <trkpt lat="46.86171" lon="-0.99914">
        <ele>118</ele>
        <time>2023-06-02T21:27:22Z</time>
      </trkpt>
      <trkpt lat="46.86212" lon="-0.99771">
        <ele>120</ele>
        <time>2023-06-02T21:27:40Z</time>
      </trkpt>
      <trkpt lat="46.86221" lon="-0.99734">
        <ele>120</ele>
        <time>2023-06-02T21:27:45Z</time>
      </trkpt>
      <trkpt lat="46.86312" lon="-0.99257">
        <ele>125</ele>
        <time>2023-06-02T21:28:45Z</time>
      </trkpt>
      <trkpt lat="46.86335" lon="-0.99141">
        <ele>128</ele>
        <time>2023-06-02T21:29:00Z</time>
      </trkpt>
      <trkpt lat="46.86345" lon="-0.99102">
        <ele>129</ele>
        <time>2023-06-02T21:29:05Z</time>
      </trkpt>
      <trkpt lat="46.86362" lon="-0.9905">
        <ele>131</ele>
        <time>2023-06-02T21:29:12Z</time>
      </trkpt>
      <trkpt lat="46.86373" lon="-0.99021">
        <ele>132</ele>
        <time>2023-06-02T21:29:16Z</time>
      </trkpt>
      <trkpt lat="46.86399" lon="-0.98966">
        <ele>134</ele>
        <time>2023-06-02T21:29:24Z</time>
      </trkpt>
      <trkpt lat="46.86448" lon="-0.98872">
        <ele>139</ele>
        <time>2023-06-02T21:29:39Z</time>
      </trkpt>
      <trkpt lat="46.86514" lon="-0.98737">
        <ele>145</ele>
        <time>2023-06-02T21:29:59Z</time>
      </trkpt>
      <trkpt lat="46.86527" lon="-0.98706">
        <ele>145</ele>
        <time>2023-06-02T21:30:03Z</time>
      </trkpt>
      <trkpt lat="46.86563" lon="-0.98597">
        <ele>148</ele>
        <time>2023-06-02T21:30:18Z</time>
      </trkpt>
      <trkpt lat="46.86601" lon="-0.98456">
        <ele>149</ele>
        <time>2023-06-02T21:30:37Z</time>
      </trkpt>
      <trkpt lat="46.86608" lon="-0.98423">
        <ele>149</ele>
        <time>2023-06-02T21:30:41Z</time>
      </trkpt>
      <trkpt lat="46.86614" lon="-0.98397">
        <ele>148</ele>
        <time>2023-06-02T21:30:44Z</time>
      </trkpt>
      <trkpt lat="46.86619" lon="-0.98385">
        <ele>147</ele>
        <time>2023-06-02T21:30:46Z</time>
      </trkpt>
      <trkpt lat="46.86629" lon="-0.9837">
        <ele>146</ele>
        <time>2023-06-02T21:30:48Z</time>
      </trkpt>
      <trkpt lat="46.86629" lon="-0.98233">
        <ele>147</ele>
        <time>2023-06-02T21:31:05Z</time>
      </trkpt>
      <trkpt lat="46.86626" lon="-0.9816">
        <ele>149</ele>
        <time>2023-06-02T21:31:14Z</time>
      </trkpt>
      <trkpt lat="46.86618" lon="-0.98076">
        <ele>151</ele>
        <time>2023-06-02T21:31:24Z</time>
      </trkpt>
      <trkpt lat="46.86608" lon="-0.98008">
        <ele>152</ele>
        <time>2023-06-02T21:31:33Z</time>
      </trkpt>
      <trkpt lat="46.86596" lon="-0.97947">
        <ele>152</ele>
        <time>2023-06-02T21:31:40Z</time>
      </trkpt>
      <trkpt lat="46.86572" lon="-0.97844">
        <ele>151</ele>
        <time>2023-06-02T21:31:54Z</time>
      </trkpt>
      <trkpt lat="46.86545" lon="-0.97754">
        <ele>149</ele>
        <time>2023-06-02T21:32:06Z</time>
      </trkpt>
      <trkpt lat="46.8653" lon="-0.97712">
        <ele>149</ele>
        <time>2023-06-02T21:32:11Z</time>
      </trkpt>
      <trkpt lat="46.86498" lon="-0.9763">
        <ele>148</ele>
        <time>2023-06-02T21:32:23Z</time>
      </trkpt>
      <trkpt lat="46.8647" lon="-0.97569">
        <ele>146</ele>
        <time>2023-06-02T21:32:32Z</time>
      </trkpt>
      <trkpt lat="46.86454" lon="-0.97538">
        <ele>144</ele>
        <time>2023-06-02T21:32:37Z</time>
      </trkpt>
      <trkpt lat="46.863" lon="-0.97267">
        <ele>137</ele>
        <time>2023-06-02T21:33:19Z</time>
      </trkpt>
      <trkpt lat="46.86289" lon="-0.97252">
        <ele>137</ele>
        <time>2023-06-02T21:33:22Z</time>
      </trkpt>
      <trkpt lat="46.86269" lon="-0.97238">
        <ele>137</ele>
        <time>2023-06-02T21:33:26Z</time>
      </trkpt>
      <trkpt lat="46.86262" lon="-0.97236">
        <ele>136</ele>
        <time>2023-06-02T21:33:27Z</time>
      </trkpt>
      <trkpt lat="46.86253" lon="-0.9724">
        <ele>136</ele>
        <time>2023-06-02T21:33:29Z</time>
      </trkpt>
      <trkpt lat="46.86247" lon="-0.97239">
        <ele>136</ele>
        <time>2023-06-02T21:33:30Z</time>
      </trkpt>
      <trkpt lat="46.86236" lon="-0.97232">
        <ele>136</ele>
        <time>2023-06-02T21:33:32Z</time>
      </trkpt>
      <trkpt lat="46.86231" lon="-0.97223">
        <ele>136</ele>
        <time>2023-06-02T21:33:34Z</time>
      </trkpt>
      <trkpt lat="46.86227" lon="-0.97213">
        <ele>136</ele>
        <time>2023-06-02T21:33:35Z</time>
      </trkpt>
      <trkpt lat="46.86226" lon="-0.97201">
        <ele>136</ele>
        <time>2023-06-02T21:33:36Z</time>
      </trkpt>
      <trkpt lat="46.86227" lon="-0.97186">
        <ele>136</ele>
        <time>2023-06-02T21:33:38Z</time>
      </trkpt>
      <trkpt lat="46.8623" lon="-0.97179">
        <ele>137</ele>
        <time>2023-06-02T21:33:39Z</time>
      </trkpt>
      <trkpt lat="46.86229" lon="-0.97161">
        <ele>137</ele>
        <time>2023-06-02T21:33:41Z</time>
      </trkpt>
      <trkpt lat="46.86221" lon="-0.97131">
        <ele>137</ele>
        <time>2023-06-02T21:33:45Z</time>
      </trkpt>
      <trkpt lat="46.86183" lon="-0.9706">
        <ele>137</ele>
        <time>2023-06-02T21:33:56Z</time>
      </trkpt>
      <trkpt lat="46.85593" lon="-0.96019">
        <ele>109</ele>
        <time>2023-06-02T21:36:41Z</time>
      </trkpt>
      <trkpt lat="46.85521" lon="-0.95899">
        <ele>108</ele>
        <time>2023-06-02T21:37:00Z</time>
      </trkpt>
      <trkpt lat="46.85483" lon="-0.95841">
        <ele>108</ele>
        <time>2023-06-02T21:37:10Z</time>
      </trkpt>
      <trkpt lat="46.85455" lon="-0.95802">
        <ele>107</ele>
        <time>2023-06-02T21:37:17Z</time>
      </trkpt>
      <trkpt lat="46.85428" lon="-0.95768">
        <ele>106</ele>
        <time>2023-06-02T21:37:23Z</time>
      </trkpt>
      <trkpt lat="46.85397" lon="-0.95734">
        <ele>104</ele>
        <time>2023-06-02T21:37:30Z</time>
      </trkpt>
      <trkpt lat="46.85289" lon="-0.95626">
        <ele>105</ele>
        <time>2023-06-02T21:37:53Z</time>
      </trkpt>
      <trkpt lat="46.85255" lon="-0.95588">
        <ele>108</ele>
        <time>2023-06-02T21:38:01Z</time>
      </trkpt>
      <trkpt lat="46.85238" lon="-0.95565">
        <ele>110</ele>
        <time>2023-06-02T21:38:05Z</time>
      </trkpt>
      <trkpt lat="46.85165" lon="-0.95452">
        <ele>117</ele>
        <time>2023-06-02T21:38:24Z</time>
      </trkpt>
      <trkpt lat="46.85131" lon="-0.95388">
        <ele>120</ele>
        <time>2023-06-02T21:38:34Z</time>
      </trkpt>
      <trkpt lat="46.85103" lon="-0.95322">
        <ele>120</ele>
        <time>2023-06-02T21:38:43Z</time>
      </trkpt>
      <trkpt lat="46.8507" lon="-0.95223">
        <ele>121</ele>
        <time>2023-06-02T21:38:57Z</time>
      </trkpt>
      <trkpt lat="46.85054" lon="-0.95155">
        <ele>121</ele>
        <time>2023-06-02T21:39:06Z</time>
      </trkpt>
      <trkpt lat="46.85049" lon="-0.95118">
        <ele>121</ele>
        <time>2023-06-02T21:39:10Z</time>
      </trkpt>
      <trkpt lat="46.85046" lon="-0.95081">
        <ele>121</ele>
        <time>2023-06-02T21:39:15Z</time>
      </trkpt>
      <trkpt lat="46.85044" lon="-0.95044">
        <ele>122</ele>
        <time>2023-06-02T21:39:19Z</time>
      </trkpt>
      <trkpt lat="46.85045" lon="-0.95008">
        <ele>124</ele>
        <time>2023-06-02T21:39:24Z</time>
      </trkpt>
      <trkpt lat="46.85047" lon="-0.94956">
        <ele>125</ele>
        <time>2023-06-02T21:39:30Z</time>
      </trkpt>
      <trkpt lat="46.85057" lon="-0.94862">
        <ele>128</ele>
        <time>2023-06-02T21:39:42Z</time>
      </trkpt>
      <trkpt lat="46.8507" lon="-0.94787">
        <ele>129</ele>
        <time>2023-06-02T21:39:51Z</time>
      </trkpt>
      <trkpt lat="46.85079" lon="-0.94748">
        <ele>129</ele>
        <time>2023-06-02T21:39:56Z</time>
      </trkpt>
      <trkpt lat="46.85112" lon="-0.94638">
        <ele>131</ele>
        <time>2023-06-02T21:40:11Z</time>
      </trkpt>
      <trkpt lat="46.85125" lon="-0.94585">
        <ele>132</ele>
        <time>2023-06-02T21:40:17Z</time>
      </trkpt>
      <trkpt lat="46.85153" lon="-0.94435">
        <ele>137</ele>
        <time>2023-06-02T21:40:36Z</time>
      </trkpt>
      <trkpt lat="46.85165" lon="-0.94357">
        <ele>139</ele>
        <time>2023-06-02T21:40:46Z</time>
      </trkpt>
      <trkpt lat="46.85174" lon="-0.9428">
        <ele>142</ele>
        <time>2023-06-02T21:40:56Z</time>
      </trkpt>
      <trkpt lat="46.8518" lon="-0.94152">
        <ele>145</ele>
        <time>2023-06-02T21:41:11Z</time>
      </trkpt>
      <trkpt lat="46.85181" lon="-0.94024">
        <ele>146</ele>
        <time>2023-06-02T21:41:27Z</time>
      </trkpt>
      <trkpt lat="46.8518" lon="-0.93973">
        <ele>146</ele>
        <time>2023-06-02T21:41:33Z</time>
      </trkpt>
      <trkpt lat="46.85174" lon="-0.93895">
        <ele>148</ele>
        <time>2023-06-02T21:41:43Z</time>
      </trkpt>
      <trkpt lat="46.8516" lon="-0.93782">
        <ele>154</ele>
        <time>2023-06-02T21:41:56Z</time>
      </trkpt>
      <trkpt lat="46.85115" lon="-0.93521">
        <ele>160</ele>
        <time>2023-06-02T21:42:29Z</time>
      </trkpt>
      <trkpt lat="46.85085" lon="-0.93368">
        <ele>162</ele>
        <time>2023-06-02T21:42:49Z</time>
      </trkpt>
      <trkpt lat="46.85032" lon="-0.93162">
        <ele>169</ele>
        <time>2023-06-02T21:43:15Z</time>
      </trkpt>
      <trkpt lat="46.85019" lon="-0.93166">
        <ele>169</ele>
        <time>2023-06-02T21:43:18Z</time>
      </trkpt>
      <trkpt lat="46.85005" lon="-0.93161">
        <ele>169</ele>
        <time>2023-06-02T21:43:20Z</time>
      </trkpt>
      <trkpt lat="46.84893" lon="-0.93098">
        <ele>169</ele>
        <time>2023-06-02T21:43:42Z</time>
      </trkpt>
      <trkpt lat="46.84868" lon="-0.93094">
        <ele>169</ele>
        <time>2023-06-02T21:43:46Z</time>
      </trkpt>
      <trkpt lat="46.84795" lon="-0.93101">
        <ele>169</ele>
        <time>2023-06-02T21:43:59Z</time>
      </trkpt>
      <trkpt lat="46.84759" lon="-0.93112">
        <ele>169</ele>
        <time>2023-06-02T21:44:06Z</time>
      </trkpt>
      <trkpt lat="46.84675" lon="-0.93155">
        <ele>168</ele>
        <time>2023-06-02T21:44:22Z</time>
      </trkpt>
      <trkpt lat="46.84591" lon="-0.93209">
        <ele>170</ele>
        <time>2023-06-02T21:44:38Z</time>
      </trkpt>
      <trkpt lat="46.84406" lon="-0.93322">
        <ele>165</ele>
        <time>2023-06-02T21:45:14Z</time>
      </trkpt>
      <trkpt lat="46.84338" lon="-0.93361">
        <ele>165</ele>
        <time>2023-06-02T21:45:27Z</time>
      </trkpt>
      <trkpt lat="46.84319" lon="-0.93367">
        <ele>165</ele>
        <time>2023-06-02T21:45:30Z</time>
      </trkpt>
      <trkpt lat="46.84303" lon="-0.9337">
        <ele>164</ele>
        <time>2023-06-02T21:45:33Z</time>
      </trkpt>
      <trkpt lat="46.84286" lon="-0.9337">
        <ele>164</ele>
        <time>2023-06-02T21:45:36Z</time>
      </trkpt>
      <trkpt lat="46.84139" lon="-0.93343">
        <ele>165</ele>
        <time>2023-06-02T21:46:02Z</time>
      </trkpt>
      <trkpt lat="46.84113" lon="-0.93335">
        <ele>165</ele>
        <time>2023-06-02T21:46:07Z</time>
      </trkpt>
      <trkpt lat="46.84089" lon="-0.93325">
        <ele>164</ele>
        <time>2023-06-02T21:46:11Z</time>
      </trkpt>
      <trkpt lat="46.84027" lon="-0.9329">
        <ele>165</ele>
        <time>2023-06-02T21:46:23Z</time>
      </trkpt>
      <trkpt lat="46.84003" lon="-0.9328">
        <ele>165</ele>
        <time>2023-06-02T21:46:28Z</time>
      </trkpt>
      <trkpt lat="46.83991" lon="-0.93278">
        <ele>165</ele>
        <time>2023-06-02T21:46:30Z</time>
      </trkpt>
      <trkpt lat="46.83978" lon="-0.93278">
        <ele>165</ele>
        <time>2023-06-02T21:46:32Z</time>
      </trkpt>
      <trkpt lat="46.8391" lon="-0.93305">
        <ele>164</ele>
        <time>2023-06-02T21:46:45Z</time>
      </trkpt>
      <trkpt lat="46.83799" lon="-0.93326">
        <ele>164</ele>
        <time>2023-06-02T21:47:05Z</time>
      </trkpt>
      <trkpt lat="46.83764" lon="-0.93326">
        <ele>164</ele>
        <time>2023-06-02T21:47:11Z</time>
      </trkpt>
      <trkpt lat="46.83648" lon="-0.93302">
        <ele>163</ele>
        <time>2023-06-02T21:47:32Z</time>
      </trkpt>
      <trkpt lat="46.83575" lon="-0.93273">
        <ele>160</ele>
        <time>2023-06-02T21:47:45Z</time>
      </trkpt>
      <trkpt lat="46.83557" lon="-0.93266">
        <ele>159</ele>
        <time>2023-06-02T21:47:48Z</time>
      </trkpt>
      <trkpt lat="46.83539" lon="-0.93263">
        <ele>158</ele>
        <time>2023-06-02T21:47:52Z</time>
      </trkpt>
      <trkpt lat="46.83503" lon="-0.93267">
        <ele>157</ele>
        <time>2023-06-02T21:47:58Z</time>
      </trkpt>
      <trkpt lat="46.83449" lon="-0.93279">
        <ele>157</ele>
        <time>2023-06-02T21:48:08Z</time>
      </trkpt>
      <trkpt lat="46.83397" lon="-0.93282">
        <ele>156</ele>
        <time>2023-06-02T21:48:17Z</time>
      </trkpt>
      <trkpt lat="46.83348" lon="-0.93273">
        <ele>154</ele>
        <time>2023-06-02T21:48:26Z</time>
      </trkpt>
      <trkpt lat="46.83305" lon="-0.93284">
        <ele>152</ele>
        <time>2023-06-02T21:48:34Z</time>
      </trkpt>
      <trkpt lat="46.83282" lon="-0.93286">
        <ele>151</ele>
        <time>2023-06-02T21:48:38Z</time>
      </trkpt>
      <trkpt lat="46.83242" lon="-0.93283">
        <ele>149</ele>
        <time>2023-06-02T21:48:45Z</time>
      </trkpt>
      <trkpt lat="46.83" lon="-0.93277">
        <ele>138</ele>
        <time>2023-06-02T21:49:28Z</time>
      </trkpt>
      <trkpt lat="46.82927" lon="-0.93273">
        <ele>135</ele>
        <time>2023-06-02T21:49:41Z</time>
      </trkpt>
      <trkpt lat="46.82912" lon="-0.9327">
        <ele>135</ele>
        <time>2023-06-02T21:49:44Z</time>
      </trkpt>
      <trkpt lat="46.82877" lon="-0.93254">
        <ele>133</ele>
        <time>2023-06-02T21:49:50Z</time>
      </trkpt>
      <trkpt lat="46.82793" lon="-0.93186">
        <ele>134</ele>
        <time>2023-06-02T21:50:07Z</time>
      </trkpt>
      <trkpt lat="46.82747" lon="-0.93162">
        <ele>135</ele>
        <time>2023-06-02T21:50:16Z</time>
      </trkpt>
      <trkpt lat="46.82686" lon="-0.93141">
        <ele>137</ele>
        <time>2023-06-02T21:50:27Z</time>
      </trkpt>
      <trkpt lat="46.82662" lon="-0.93136">
        <ele>137</ele>
        <time>2023-06-02T21:50:31Z</time>
      </trkpt>
      <trkpt lat="46.8248" lon="-0.93119">
        <ele>127</ele>
        <time>2023-06-02T21:51:04Z</time>
      </trkpt>
      <trkpt lat="46.82424" lon="-0.93115">
        <ele>125</ele>
        <time>2023-06-02T21:51:14Z</time>
      </trkpt>
      <trkpt lat="46.82405" lon="-0.93116">
        <ele>125</ele>
        <time>2023-06-02T21:51:17Z</time>
      </trkpt>
      <trkpt lat="46.82385" lon="-0.9312">
        <ele>125</ele>
        <time>2023-06-02T21:51:21Z</time>
      </trkpt>
      <trkpt lat="46.82334" lon="-0.9314">
        <ele>126</ele>
        <time>2023-06-02T21:51:30Z</time>
      </trkpt>
      <trkpt lat="46.8231" lon="-0.93146">
        <ele>126</ele>
        <time>2023-06-02T21:51:35Z</time>
      </trkpt>
      <trkpt lat="46.82266" lon="-0.9315">
        <ele>126</ele>
        <time>2023-06-02T21:51:42Z</time>
      </trkpt>
      <trkpt lat="46.8223" lon="-0.93147">
        <ele>127</ele>
        <time>2023-06-02T21:51:49Z</time>
      </trkpt>
      <trkpt lat="46.82165" lon="-0.93128">
        <ele>129</ele>
        <time>2023-06-02T21:52:01Z</time>
      </trkpt>
      <trkpt lat="46.82133" lon="-0.93114">
        <ele>130</ele>
        <time>2023-06-02T21:52:07Z</time>
      </trkpt>
      <trkpt lat="46.82115" lon="-0.93102">
        <ele>131</ele>
        <time>2023-06-02T21:52:10Z</time>
      </trkpt>
      <trkpt lat="46.82009" lon="-0.92991">
        <ele>138</ele>
        <time>2023-06-02T21:52:33Z</time>
      </trkpt>
      <trkpt lat="46.81974" lon="-0.92971">
        <ele>139</ele>
        <time>2023-06-02T21:52:40Z</time>
      </trkpt>
      <trkpt lat="46.81949" lon="-0.92966">
        <ele>139</ele>
        <time>2023-06-02T21:52:44Z</time>
      </trkpt>
      <trkpt lat="46.81911" lon="-0.92968">
        <ele>140</ele>
        <time>2023-06-02T21:52:51Z</time>
      </trkpt>
      <trkpt lat="46.8187" lon="-0.92976">
        <ele>141</ele>
        <time>2023-06-02T21:52:59Z</time>
      </trkpt>
      <trkpt lat="46.81824" lon="-0.9299">
        <ele>141</ele>
        <time>2023-06-02T21:53:07Z</time>
      </trkpt>
      <trkpt lat="46.81804" lon="-0.93">
        <ele>141</ele>
        <time>2023-06-02T21:53:11Z</time>
      </trkpt>
      <trkpt lat="46.81759" lon="-0.93035">
        <ele>140</ele>
        <time>2023-06-02T21:53:20Z</time>
      </trkpt>
      <trkpt lat="46.81743" lon="-0.93045">
        <ele>139</ele>
        <time>2023-06-02T21:53:23Z</time>
      </trkpt>
      <trkpt lat="46.81728" lon="-0.93052">
        <ele>139</ele>
        <time>2023-06-02T21:53:26Z</time>
      </trkpt>
      <trkpt lat="46.81675" lon="-0.93067">
        <ele>139</ele>
        <time>2023-06-02T21:53:35Z</time>
      </trkpt>
      <trkpt lat="46.81653" lon="-0.93075">
        <ele>139</ele>
        <time>2023-06-02T21:53:39Z</time>
      </trkpt>
      <trkpt lat="46.81632" lon="-0.93087">
        <ele>139</ele>
        <time>2023-06-02T21:53:43Z</time>
      </trkpt>
      <trkpt lat="46.81485" lon="-0.93189">
        <ele>138</ele>
        <time>2023-06-02T21:54:12Z</time>
      </trkpt>
      <trkpt lat="46.81447" lon="-0.93205">
        <ele>137</ele>
        <time>2023-06-02T21:54:19Z</time>
      </trkpt>
      <trkpt lat="46.81425" lon="-0.93208">
        <ele>136</ele>
        <time>2023-06-02T21:54:23Z</time>
      </trkpt>
      <trkpt lat="46.812" lon="-0.93217">
        <ele>133</ele>
        <time>2023-06-02T21:55:03Z</time>
      </trkpt>
      <trkpt lat="46.81166" lon="-0.93221">
        <ele>132</ele>
        <time>2023-06-02T21:55:09Z</time>
      </trkpt>
      <trkpt lat="46.80954" lon="-0.9327">
        <ele>126</ele>
        <time>2023-06-02T21:55:47Z</time>
      </trkpt>
      <trkpt lat="46.8092" lon="-0.9327">
        <ele>124</ele>
        <time>2023-06-02T21:55:54Z</time>
      </trkpt>
      <trkpt lat="46.80904" lon="-0.93267">
        <ele>123</ele>
        <time>2023-06-02T21:55:56Z</time>
      </trkpt>
      <trkpt lat="46.80846" lon="-0.93241">
        <ele>120</ele>
        <time>2023-06-02T21:56:07Z</time>
      </trkpt>
      <trkpt lat="46.80809" lon="-0.9322">
        <ele>120</ele>
        <time>2023-06-02T21:56:14Z</time>
      </trkpt>
      <trkpt lat="46.80801" lon="-0.93216">
        <ele>120</ele>
        <time>2023-06-02T21:56:16Z</time>
      </trkpt>
      <trkpt lat="46.8075" lon="-0.93193">
        <ele>122</ele>
        <time>2023-06-02T21:56:25Z</time>
      </trkpt>
      <trkpt lat="46.80736" lon="-0.9319">
        <ele>122</ele>
        <time>2023-06-02T21:56:28Z</time>
      </trkpt>
      <trkpt lat="46.80723" lon="-0.9319">
        <ele>123</ele>
        <time>2023-06-02T21:56:30Z</time>
      </trkpt>
      <trkpt lat="46.80711" lon="-0.93194">
        <ele>123</ele>
        <time>2023-06-02T21:56:32Z</time>
      </trkpt>
      <trkpt lat="46.8061" lon="-0.93244">
        <ele>130</ele>
        <time>2023-06-02T21:56:51Z</time>
      </trkpt>
      <trkpt lat="46.80579" lon="-0.93252">
        <ele>132</ele>
        <time>2023-06-02T21:56:57Z</time>
      </trkpt>
      <trkpt lat="46.80541" lon="-0.93253">
        <ele>134</ele>
        <time>2023-06-02T21:57:04Z</time>
      </trkpt>
      <trkpt lat="46.80487" lon="-0.93246">
        <ele>137</ele>
        <time>2023-06-02T21:57:13Z</time>
      </trkpt>
      <trkpt lat="46.80472" lon="-0.93241">
        <ele>137</ele>
        <time>2023-06-02T21:57:16Z</time>
      </trkpt>
      <trkpt lat="46.80458" lon="-0.93235">
        <ele>138</ele>
        <time>2023-06-02T21:57:19Z</time>
      </trkpt>
      <trkpt lat="46.80437" lon="-0.93216">
        <ele>139</ele>
        <time>2023-06-02T21:57:23Z</time>
      </trkpt>
      <trkpt lat="46.80409" lon="-0.93183">
        <ele>140</ele>
        <time>2023-06-02T21:57:29Z</time>
      </trkpt>
      <trkpt lat="46.80324" lon="-0.93098">
        <ele>138</ele>
        <time>2023-06-02T21:57:48Z</time>
      </trkpt>
      <trkpt lat="46.80256" lon="-0.93011">
        <ele>137</ele>
        <time>2023-06-02T21:58:04Z</time>
      </trkpt>
      <trkpt lat="46.80234" lon="-0.9298">
        <ele>137</ele>
        <time>2023-06-02T21:58:09Z</time>
      </trkpt>
      <trkpt lat="46.80182" lon="-0.92913">
        <ele>137</ele>
        <time>2023-06-02T21:58:22Z</time>
      </trkpt>
      <trkpt lat="46.80083" lon="-0.92814">
        <ele>138</ele>
        <time>2023-06-02T21:58:43Z</time>
      </trkpt>
      <trkpt lat="46.80059" lon="-0.92796">
        <ele>138</ele>
        <time>2023-06-02T21:58:48Z</time>
      </trkpt>
      <trkpt lat="46.79893" lon="-0.92714">
        <ele>143</ele>
        <time>2023-06-02T21:59:19Z</time>
      </trkpt>
      <trkpt lat="46.79784" lon="-0.92664">
        <ele>141</ele>
        <time>2023-06-02T21:59:39Z</time>
      </trkpt>
      <trkpt lat="46.79767" lon="-0.92658">
        <ele>141</ele>
        <time>2023-06-02T21:59:42Z</time>
      </trkpt>
      <trkpt lat="46.79754" lon="-0.92654">
        <ele>141</ele>
        <time>2023-06-02T21:59:45Z</time>
      </trkpt>
      <trkpt lat="46.79717" lon="-0.92652">
        <ele>140</ele>
        <time>2023-06-02T21:59:51Z</time>
      </trkpt>
      <trkpt lat="46.79661" lon="-0.92639">
        <ele>138</ele>
        <time>2023-06-02T22:00:01Z</time>
      </trkpt>
      <trkpt lat="46.79644" lon="-0.9264">
        <ele>138</ele>
        <time>2023-06-02T22:00:04Z</time>
      </trkpt>
      <trkpt lat="46.79601" lon="-0.9265">
        <ele>137</ele>
        <time>2023-06-02T22:00:12Z</time>
      </trkpt>
      <trkpt lat="46.7957" lon="-0.92645">
        <ele>136</ele>
        <time>2023-06-02T22:00:18Z</time>
      </trkpt>
      <trkpt lat="46.79513" lon="-0.92625">
        <ele>134</ele>
        <time>2023-06-02T22:00:28Z</time>
      </trkpt>
      <trkpt lat="46.79436" lon="-0.92582">
        <ele>128</ele>
        <time>2023-06-02T22:00:43Z</time>
      </trkpt>
      <trkpt lat="46.79419" lon="-0.92559">
        <ele>127</ele>
        <time>2023-06-02T22:00:47Z</time>
      </trkpt>
      <trkpt lat="46.79362" lon="-0.92453">
        <ele>121</ele>
        <time>2023-06-02T22:01:03Z</time>
      </trkpt>
      <trkpt lat="46.79349" lon="-0.92433">
        <ele>119</ele>
        <time>2023-06-02T22:01:07Z</time>
      </trkpt>
      <trkpt lat="46.79344" lon="-0.92427">
        <ele>119</ele>
        <time>2023-06-02T22:01:08Z</time>
      </trkpt>
      <trkpt lat="46.79336" lon="-0.92424">
        <ele>118</ele>
        <time>2023-06-02T22:01:09Z</time>
      </trkpt>
      <trkpt lat="46.79331" lon="-0.92428">
        <ele>118</ele>
        <time>2023-06-02T22:01:10Z</time>
      </trkpt>
      <trkpt lat="46.79327" lon="-0.92424">
        <ele>118</ele>
        <time>2023-06-02T22:01:11Z</time>
      </trkpt>
      <trkpt lat="46.79326" lon="-0.92418">
        <ele>118</ele>
        <time>2023-06-02T22:01:12Z</time>
      </trkpt>
      <trkpt lat="46.79329" lon="-0.92413">
        <ele>118</ele>
        <time>2023-06-02T22:01:13Z</time>
      </trkpt>
      <trkpt lat="46.79324" lon="-0.924">
        <ele>117</ele>
        <time>2023-06-02T22:01:15Z</time>
      </trkpt>
      <trkpt lat="46.79309" lon="-0.92372">
        <ele>116</ele>
        <time>2023-06-02T22:01:19Z</time>
      </trkpt>
      <trkpt lat="46.79263" lon="-0.92271">
        <ele>111</ele>
        <time>2023-06-02T22:01:34Z</time>
      </trkpt>
      <trkpt lat="46.79222" lon="-0.92202">
        <ele>109</ele>
        <time>2023-06-02T22:01:45Z</time>
      </trkpt>
      <trkpt lat="46.79156" lon="-0.92113">
        <ele>109</ele>
        <time>2023-06-02T22:02:01Z</time>
      </trkpt>
      <trkpt lat="46.79093" lon="-0.92019">
        <ele>107</ele>
        <time>2023-06-02T22:02:17Z</time>
      </trkpt>
      <trkpt lat="46.79059" lon="-0.91962">
        <ele>105</ele>
        <time>2023-06-02T22:02:26Z</time>
      </trkpt>
      <trkpt lat="46.7902" lon="-0.91886">
        <ele>102</ele>
        <time>2023-06-02T22:02:38Z</time>
      </trkpt>
      <trkpt lat="46.78971" lon="-0.91773">
        <ele>101</ele>
        <time>2023-06-02T22:02:54Z</time>
      </trkpt>
      <trkpt lat="46.78797" lon="-0.91466">
        <ele>91</ele>
        <time>2023-06-02T22:03:42Z</time>
      </trkpt>
      <trkpt lat="46.78736" lon="-0.9135">
        <ele>90</ele>
        <time>2023-06-02T22:04:00Z</time>
      </trkpt>
      <trkpt lat="46.78644" lon="-0.9114">
        <ele>99</ele>
        <time>2023-06-02T22:04:31Z</time>
      </trkpt>
      <trkpt lat="46.78626" lon="-0.91104">
        <ele>102</ele>
        <time>2023-06-02T22:04:36Z</time>
      </trkpt>
      <trkpt lat="46.78574" lon="-0.91024">
        <ele>108</ele>
        <time>2023-06-02T22:04:50Z</time>
      </trkpt>
      <trkpt lat="46.78561" lon="-0.91">
        <ele>109</ele>
        <time>2023-06-02T22:04:53Z</time>
      </trkpt>
      <trkpt lat="46.7855" lon="-0.90978">
        <ele>111</ele>
        <time>2023-06-02T22:04:57Z</time>
      </trkpt>
      <trkpt lat="46.78537" lon="-0.90937">
        <ele>112</ele>
        <time>2023-06-02T22:05:02Z</time>
      </trkpt>
      <trkpt lat="46.78531" lon="-0.90903">
        <ele>113</ele>
        <time>2023-06-02T22:05:06Z</time>
      </trkpt>
      <trkpt lat="46.78519" lon="-0.90861">
        <ele>114</ele>
        <time>2023-06-02T22:05:12Z</time>
      </trkpt>
      <trkpt lat="46.7841" lon="-0.906">
        <ele>124</ele>
        <time>2023-06-02T22:05:49Z</time>
      </trkpt>
      <trkpt lat="46.78392" lon="-0.90546">
        <ele>126</ele>
        <time>2023-06-02T22:05:56Z</time>
      </trkpt>
      <trkpt lat="46.78356" lon="-0.90423">
        <ele>126</ele>
        <time>2023-06-02T22:06:13Z</time>
      </trkpt>
      <trkpt lat="46.7833" lon="-0.90361">
        <ele>127</ele>
        <time>2023-06-02T22:06:22Z</time>
      </trkpt>
      <trkpt lat="46.78311" lon="-0.90329">
        <ele>127</ele>
        <time>2023-06-02T22:06:27Z</time>
      </trkpt>
      <trkpt lat="46.78258" lon="-0.90256">
        <ele>126</ele>
        <time>2023-06-02T22:06:40Z</time>
      </trkpt>
      <trkpt lat="46.78219" lon="-0.90209">
        <ele>126</ele>
        <time>2023-06-02T22:06:49Z</time>
      </trkpt>
      <trkpt lat="46.78201" lon="-0.90192">
        <ele>127</ele>
        <time>2023-06-02T22:06:53Z</time>
      </trkpt>
      <trkpt lat="46.78176" lon="-0.90174">
        <ele>127</ele>
        <time>2023-06-02T22:06:58Z</time>
      </trkpt>
      <trkpt lat="46.78131" lon="-0.9015">
        <ele>126</ele>
        <time>2023-06-02T22:07:06Z</time>
      </trkpt>
      <trkpt lat="46.78105" lon="-0.90133">
        <ele>126</ele>
        <time>2023-06-02T22:07:11Z</time>
      </trkpt>
      <trkpt lat="46.7808" lon="-0.90114">
        <ele>127</ele>
        <time>2023-06-02T22:07:16Z</time>
      </trkpt>
      <trkpt lat="46.78045" lon="-0.90078">
        <ele>129</ele>
        <time>2023-06-02T22:07:24Z</time>
      </trkpt>
      <trkpt lat="46.78" lon="-0.9002">
        <ele>128</ele>
        <time>2023-06-02T22:07:34Z</time>
      </trkpt>
      <trkpt lat="46.77978" lon="-0.89998">
        <ele>127</ele>
        <time>2023-06-02T22:07:39Z</time>
      </trkpt>
      <trkpt lat="46.77921" lon="-0.89946">
        <ele>125</ele>
        <time>2023-06-02T22:07:51Z</time>
      </trkpt>
      <trkpt lat="46.77724" lon="-0.89758">
        <ele>112</ele>
        <time>2023-06-02T22:08:33Z</time>
      </trkpt>
      <trkpt lat="46.77698" lon="-0.8973">
        <ele>110</ele>
        <time>2023-06-02T22:08:39Z</time>
      </trkpt>
      <trkpt lat="46.77686" lon="-0.89708">
        <ele>110</ele>
        <time>2023-06-02T22:08:42Z</time>
      </trkpt>
      <trkpt lat="46.77677" lon="-0.89681">
        <ele>109</ele>
        <time>2023-06-02T22:08:46Z</time>
      </trkpt>
      <trkpt lat="46.77666" lon="-0.8964">
        <ele>108</ele>
        <time>2023-06-02T22:08:51Z</time>
      </trkpt>
      <trkpt lat="46.77647" lon="-0.896">
        <ele>109</ele>
        <time>2023-06-02T22:08:57Z</time>
      </trkpt>
      <trkpt lat="46.7764" lon="-0.8959">
        <ele>109</ele>
        <time>2023-06-02T22:08:59Z</time>
      </trkpt>
      <trkpt lat="46.77634" lon="-0.89581">
        <ele>109</ele>
        <time>2023-06-02T22:09:00Z</time>
      </trkpt>
      <trkpt lat="46.77603" lon="-0.89561">
        <ele>111</ele>
        <time>2023-06-02T22:09:06Z</time>
      </trkpt>
      <trkpt lat="46.77641" lon="-0.89401">
        <ele>114</ele>
        <time>2023-06-02T22:09:27Z</time>
      </trkpt>
      <trkpt lat="46.77692" lon="-0.89208">
        <ele>121</ele>
        <time>2023-06-02T22:09:52Z</time>
      </trkpt>
      <trkpt lat="46.77707" lon="-0.89138">
        <ele>121</ele>
        <time>2023-06-02T22:10:01Z</time>
      </trkpt>
      <trkpt lat="46.77715" lon="-0.89064">
        <ele>122</ele>
        <time>2023-06-02T22:10:10Z</time>
      </trkpt>
      <trkpt lat="46.77716" lon="-0.89021">
        <ele>123</ele>
        <time>2023-06-02T22:10:16Z</time>
      </trkpt>
      <trkpt lat="46.77715" lon="-0.88973">
        <ele>124</ele>
        <time>2023-06-02T22:10:21Z</time>
      </trkpt>
      <trkpt lat="46.77711" lon="-0.88928">
        <ele>125</ele>
        <time>2023-06-02T22:10:27Z</time>
      </trkpt>
      <trkpt lat="46.77704" lon="-0.88884">
        <ele>127</ele>
        <time>2023-06-02T22:10:32Z</time>
      </trkpt>
      <trkpt lat="46.7768" lon="-0.8876">
        <ele>130</ele>
        <time>2023-06-02T22:10:48Z</time>
      </trkpt>
      <trkpt lat="46.77674" lon="-0.88719">
        <ele>131</ele>
        <time>2023-06-02T22:10:53Z</time>
      </trkpt>
      <trkpt lat="46.77672" lon="-0.88677">
        <ele>131</ele>
        <time>2023-06-02T22:10:58Z</time>
      </trkpt>
      <trkpt lat="46.77692" lon="-0.87769">
        <ele>132</ele>
        <time>2023-06-02T22:12:49Z</time>
      </trkpt>
      <trkpt lat="46.77732" lon="-0.86005">
        <ele>129</ele>
        <time>2023-06-02T22:16:24Z</time>
      </trkpt>
      <trkpt lat="46.7773" lon="-0.85972">
        <ele>129</ele>
        <time>2023-06-02T22:16:28Z</time>
      </trkpt>
      <trkpt lat="46.77723" lon="-0.8592">
        <ele>128</ele>
        <time>2023-06-02T22:16:35Z</time>
      </trkpt>
      <trkpt lat="46.77702" lon="-0.8582">
        <ele>127</ele>
        <time>2023-06-02T22:16:47Z</time>
      </trkpt>
      <trkpt lat="46.77697" lon="-0.85796">
        <ele>127</ele>
        <time>2023-06-02T22:16:50Z</time>
      </trkpt>
      <trkpt lat="46.77695" lon="-0.85777">
        <ele>126</ele>
        <time>2023-06-02T22:16:53Z</time>
      </trkpt>
      <trkpt lat="46.77701" lon="-0.85559">
        <ele>129</ele>
        <time>2023-06-02T22:17:19Z</time>
      </trkpt>
      <trkpt lat="46.77696" lon="-0.8551">
        <ele>131</ele>
        <time>2023-06-02T22:17:25Z</time>
      </trkpt>
      <trkpt lat="46.77691" lon="-0.85494">
        <ele>132</ele>
        <time>2023-06-02T22:17:28Z</time>
      </trkpt>
      <trkpt lat="46.77684" lon="-0.85482">
        <ele>133</ele>
        <time>2023-06-02T22:17:30Z</time>
      </trkpt>
      <trkpt lat="46.77683" lon="-0.85466">
        <ele>133</ele>
        <time>2023-06-02T22:17:31Z</time>
      </trkpt>
      <trkpt lat="46.77687" lon="-0.8545">
        <ele>133</ele>
        <time>2023-06-02T22:17:34Z</time>
      </trkpt>
      <trkpt lat="46.77691" lon="-0.85444">
        <ele>132</ele>
        <time>2023-06-02T22:17:35Z</time>
      </trkpt>
      <trkpt lat="46.77702" lon="-0.85437">
        <ele>132</ele>
        <time>2023-06-02T22:17:37Z</time>
      </trkpt>
      <trkpt lat="46.77715" lon="-0.85426">
        <ele>132</ele>
        <time>2023-06-02T22:17:39Z</time>
      </trkpt>
      <trkpt lat="46.77731" lon="-0.85406">
        <ele>132</ele>
        <time>2023-06-02T22:17:43Z</time>
      </trkpt>
      <trkpt lat="46.77771" lon="-0.85378">
        <ele>134</ele>
        <time>2023-06-02T22:17:51Z</time>
      </trkpt>
      <trkpt lat="46.77793" lon="-0.85351">
        <ele>136</ele>
        <time>2023-06-02T22:17:56Z</time>
      </trkpt>
      <trkpt lat="46.77818" lon="-0.853">
        <ele>139</ele>
        <time>2023-06-02T22:18:04Z</time>
      </trkpt>
      <trkpt lat="46.7785" lon="-0.85211">
        <ele>144</ele>
        <time>2023-06-02T22:18:16Z</time>
      </trkpt>
      <trkpt lat="46.7786" lon="-0.85175">
        <ele>145</ele>
        <time>2023-06-02T22:18:21Z</time>
      </trkpt>
      <trkpt lat="46.77863" lon="-0.85153">
        <ele>146</ele>
        <time>2023-06-02T22:18:23Z</time>
      </trkpt>
      <trkpt lat="46.77863" lon="-0.85135">
        <ele>148</ele>
        <time>2023-06-02T22:18:26Z</time>
      </trkpt>
      <trkpt lat="46.77858" lon="-0.85106">
        <ele>150</ele>
        <time>2023-06-02T22:18:29Z</time>
      </trkpt>
      <trkpt lat="46.77852" lon="-0.85084">
        <ele>153</ele>
        <time>2023-06-02T22:18:32Z</time>
      </trkpt>
      <trkpt lat="46.77845" lon="-0.85066">
        <ele>154</ele>
        <time>2023-06-02T22:18:35Z</time>
      </trkpt>
      <trkpt lat="46.7783" lon="-0.85043">
        <ele>155</ele>
        <time>2023-06-02T22:18:39Z</time>
      </trkpt>
      <trkpt lat="46.77797" lon="-0.85">
        <ele>155</ele>
        <time>2023-06-02T22:18:46Z</time>
      </trkpt>
      <trkpt lat="46.77785" lon="-0.84982">
        <ele>156</ele>
        <time>2023-06-02T22:18:50Z</time>
      </trkpt>
      <trkpt lat="46.77774" lon="-0.84953">
        <ele>156</ele>
        <time>2023-06-02T22:18:54Z</time>
      </trkpt>
      <trkpt lat="46.77741" lon="-0.84849">
        <ele>159</ele>
        <time>2023-06-02T22:19:08Z</time>
      </trkpt>
      <trkpt lat="46.77738" lon="-0.84843">
        <ele>159</ele>
        <time>2023-06-02T22:19:08Z</time>
      </trkpt>
      <trkpt lat="46.77737" lon="-0.84835">
        <ele>159</ele>
        <time>2023-06-02T22:19:09Z</time>
      </trkpt>
      <trkpt lat="46.77741" lon="-0.84827">
        <ele>160</ele>
        <time>2023-06-02T22:19:11Z</time>
      </trkpt>
      <trkpt lat="46.77739" lon="-0.84815">
        <ele>160</ele>
        <time>2023-06-02T22:19:12Z</time>
      </trkpt>
      <trkpt lat="46.77734" lon="-0.84734">
        <ele>163</ele>
        <time>2023-06-02T22:19:22Z</time>
      </trkpt>
      <trkpt lat="46.77734" lon="-0.84674">
        <ele>165</ele>
        <time>2023-06-02T22:19:29Z</time>
      </trkpt>
      <trkpt lat="46.77739" lon="-0.84626">
        <ele>167</ele>
        <time>2023-06-02T22:19:35Z</time>
      </trkpt>
      <trkpt lat="46.77764" lon="-0.84469">
        <ele>173</ele>
        <time>2023-06-02T22:19:55Z</time>
      </trkpt>
      <trkpt lat="46.77769" lon="-0.84426">
        <ele>175</ele>
        <time>2023-06-02T22:20:00Z</time>
      </trkpt>
      <trkpt lat="46.77778" lon="-0.84275">
        <ele>180</ele>
        <time>2023-06-02T22:20:19Z</time>
      </trkpt>
      <trkpt lat="46.77777" lon="-0.84237">
        <ele>180</ele>
        <time>2023-06-02T22:20:23Z</time>
      </trkpt>
      <trkpt lat="46.7778" lon="-0.84209">
        <ele>181</ele>
        <time>2023-06-02T22:20:27Z</time>
      </trkpt>
      <trkpt lat="46.77783" lon="-0.84197">
        <ele>181</ele>
        <time>2023-06-02T22:20:28Z</time>
      </trkpt>
      <trkpt lat="46.77786" lon="-0.84185">
        <ele>182</ele>
        <time>2023-06-02T22:20:30Z</time>
      </trkpt>
      <trkpt lat="46.77821" lon="-0.841">
        <ele>188</ele>
        <time>2023-06-02T22:20:42Z</time>
      </trkpt>
      <trkpt lat="46.77832" lon="-0.8408">
        <ele>190</ele>
        <time>2023-06-02T22:20:45Z</time>
      </trkpt>
      <trkpt lat="46.77852" lon="-0.84052">
        <ele>191</ele>
        <time>2023-06-02T22:20:50Z</time>
      </trkpt>
      <trkpt lat="46.77874" lon="-0.8403">
        <ele>192</ele>
        <time>2023-06-02T22:20:55Z</time>
      </trkpt>
      <trkpt lat="46.77929" lon="-0.83987">
        <ele>194</ele>
        <time>2023-06-02T22:21:06Z</time>
      </trkpt>
      <trkpt lat="46.77944" lon="-0.83977">
        <ele>195</ele>
        <time>2023-06-02T22:21:09Z</time>
      </trkpt>
      <trkpt lat="46.77978" lon="-0.8396">
        <ele>196</ele>
        <time>2023-06-02T22:21:15Z</time>
      </trkpt>
      <trkpt lat="46.78068" lon="-0.83926">
        <ele>201</ele>
        <time>2023-06-02T22:21:32Z</time>
      </trkpt>
      <trkpt lat="46.78111" lon="-0.83895">
        <ele>203</ele>
        <time>2023-06-02T22:21:40Z</time>
      </trkpt>
      <trkpt lat="46.78127" lon="-0.8388">
        <ele>203</ele>
        <time>2023-06-02T22:21:44Z</time>
      </trkpt>
      <trkpt lat="46.78145" lon="-0.83856">
        <ele>205</ele>
        <time>2023-06-02T22:21:48Z</time>
      </trkpt>
      <trkpt lat="46.78152" lon="-0.8384">
        <ele>206</ele>
        <time>2023-06-02T22:21:50Z</time>
      </trkpt>
      <trkpt lat="46.78145" lon="-0.83834">
        <ele>205</ele>
        <time>2023-06-02T22:21:52Z</time>
      </trkpt>
      <trkpt lat="46.78122" lon="-0.83777">
        <ele>201</ele>
        <time>2023-06-02T22:22:00Z</time>
      </trkpt>
      <trkpt lat="46.78093" lon="-0.8369">
        <ele>194</ele>
        <time>2023-06-02T22:22:12Z</time>
      </trkpt>
      <trkpt lat="46.78076" lon="-0.83653">
        <ele>189</ele>
        <time>2023-06-02T22:22:17Z</time>
      </trkpt>
      <trkpt lat="46.78045" lon="-0.8361">
        <ele>183</ele>
        <time>2023-06-02T22:22:25Z</time>
      </trkpt>
      <trkpt lat="46.78042" lon="-0.83603">
        <ele>183</ele>
        <time>2023-06-02T22:22:26Z</time>
      </trkpt>
      <trkpt lat="46.78039" lon="-0.83602">
        <ele>183</ele>
        <time>2023-06-02T22:22:26Z</time>
      </trkpt>
      <trkpt lat="46.78032" lon="-0.83602">
        <ele>182</ele>
        <time>2023-06-02T22:22:27Z</time>
      </trkpt>
      <trkpt lat="46.78024" lon="-0.83598">
        <ele>181</ele>
        <time>2023-06-02T22:22:29Z</time>
      </trkpt>
      <trkpt lat="46.77989" lon="-0.83567">
        <ele>177</ele>
        <time>2023-06-02T22:22:36Z</time>
      </trkpt>
      <trkpt lat="46.77953" lon="-0.83523">
        <ele>174</ele>
        <time>2023-06-02T22:22:45Z</time>
      </trkpt>
      <trkpt lat="46.7792" lon="-0.83458">
        <ele>174</ele>
        <time>2023-06-02T22:22:54Z</time>
      </trkpt>
      <trkpt lat="46.77921" lon="-0.83446">
        <ele>174</ele>
        <time>2023-06-02T22:22:56Z</time>
      </trkpt>
      <trkpt lat="46.7792" lon="-0.83431">
        <ele>174</ele>
        <time>2023-06-02T22:22:58Z</time>
      </trkpt>
      <trkpt lat="46.77909" lon="-0.83387">
        <ele>176</ele>
        <time>2023-06-02T22:23:03Z</time>
      </trkpt>
      <trkpt lat="46.77886" lon="-0.83348">
        <ele>179</ele>
        <time>2023-06-02T22:23:10Z</time>
      </trkpt>
      <trkpt lat="46.77847" lon="-0.83255">
        <ele>182</ele>
        <time>2023-06-02T22:23:23Z</time>
      </trkpt>
      <trkpt lat="46.77844" lon="-0.83258">
        <ele>182</ele>
        <time>2023-06-02T22:23:24Z</time>
      </trkpt>
      <trkpt lat="46.77847" lon="-0.83255">
        <ele>182</ele>
        <time>2023-06-02T22:23:24Z</time>
      </trkpt>
      <trkpt lat="46.77675" lon="-0.82835">
        <ele>169</ele>
        <time>2023-06-02T22:24:24Z</time>
      </trkpt>
      <trkpt lat="46.77669" lon="-0.82832">
        <ele>168</ele>
        <time>2023-06-02T22:24:25Z</time>
      </trkpt>
      <trkpt lat="46.7765" lon="-0.8284">
        <ele>167</ele>
        <time>2023-06-02T22:24:29Z</time>
      </trkpt>
      <trkpt lat="46.77644" lon="-0.82842">
        <ele>167</ele>
        <time>2023-06-02T22:24:30Z</time>
      </trkpt>
      <trkpt lat="46.77635" lon="-0.82801">
        <ele>167</ele>
        <time>2023-06-02T22:24:35Z</time>
      </trkpt>
      <trkpt lat="46.77632" lon="-0.82798">
        <ele>167</ele>
        <time>2023-06-02T22:24:36Z</time>
      </trkpt>
      <trkpt lat="46.7763" lon="-0.82789">
        <ele>168</ele>
        <time>2023-06-02T22:24:37Z</time>
      </trkpt>
      <trkpt lat="46.77631" lon="-0.82778">
        <ele>168</ele>
        <time>2023-06-02T22:24:38Z</time>
      </trkpt>
      <trkpt lat="46.77634" lon="-0.82774">
        <ele>169</ele>
        <time>2023-06-02T22:24:39Z</time>
      </trkpt>
      <trkpt lat="46.77633" lon="-0.82748">
        <ele>170</ele>
        <time>2023-06-02T22:24:42Z</time>
      </trkpt>
      <trkpt lat="46.77528" lon="-0.82545">
        <ele>184</ele>
        <time>2023-06-02T22:25:13Z</time>
      </trkpt>
      <trkpt lat="46.7748" lon="-0.82447">
        <ele>185</ele>
        <time>2023-06-02T22:25:28Z</time>
      </trkpt>
      <trkpt lat="46.77401" lon="-0.82262">
        <ele>190</ele>
        <time>2023-06-02T22:25:54Z</time>
      </trkpt>
      <trkpt lat="46.77386" lon="-0.82221">
        <ele>191</ele>
        <time>2023-06-02T22:26:00Z</time>
      </trkpt>
      <trkpt lat="46.77334" lon="-0.82044">
        <ele>197</ele>
        <time>2023-06-02T22:26:23Z</time>
      </trkpt>
      <trkpt lat="46.77306" lon="-0.81961">
        <ele>200</ele>
        <time>2023-06-02T22:26:35Z</time>
      </trkpt>
      <trkpt lat="46.77195" lon="-0.81591">
        <ele>221</ele>
        <time>2023-06-02T22:27:24Z</time>
      </trkpt>
      <trkpt lat="46.77097" lon="-0.81268">
        <ele>234</ele>
        <time>2023-06-02T22:28:07Z</time>
      </trkpt>
      <trkpt lat="46.77083" lon="-0.81206">
        <ele>236</ele>
        <time>2023-06-02T22:28:15Z</time>
      </trkpt>
      <trkpt lat="46.77075" lon="-0.81164">
        <ele>237</ele>
        <time>2023-06-02T22:28:20Z</time>
      </trkpt>
      <trkpt lat="46.7707" lon="-0.8112">
        <ele>239</ele>
        <time>2023-06-02T22:28:26Z</time>
      </trkpt>
      <trkpt lat="46.77071" lon="-0.81085">
        <ele>242</ele>
        <time>2023-06-02T22:28:30Z</time>
      </trkpt>
      <trkpt lat="46.77076" lon="-0.81043">
        <ele>243</ele>
        <time>2023-06-02T22:28:35Z</time>
      </trkpt>
      <trkpt lat="46.771" lon="-0.80941">
        <ele>244</ele>
        <time>2023-06-02T22:28:48Z</time>
      </trkpt>
      <trkpt lat="46.77126" lon="-0.80849">
        <ele>245</ele>
        <time>2023-06-02T22:29:00Z</time>
      </trkpt>
      <trkpt lat="46.77135" lon="-0.80806">
        <ele>246</ele>
        <time>2023-06-02T22:29:06Z</time>
      </trkpt>
      <trkpt lat="46.77137" lon="-0.8078">
        <ele>247</ele>
        <time>2023-06-02T22:29:09Z</time>
      </trkpt>
      <trkpt lat="46.77137" lon="-0.80747">
        <ele>247</ele>
        <time>2023-06-02T22:29:13Z</time>
      </trkpt>
      <trkpt lat="46.77134" lon="-0.80714">
        <ele>249</ele>
        <time>2023-06-02T22:29:17Z</time>
      </trkpt>
      <trkpt lat="46.77128" lon="-0.80684">
        <ele>251</ele>
        <time>2023-06-02T22:29:21Z</time>
      </trkpt>
      <trkpt lat="46.77118" lon="-0.80655">
        <ele>252</ele>
        <time>2023-06-02T22:29:25Z</time>
      </trkpt>
      <trkpt lat="46.77105" lon="-0.80627">
        <ele>254</ele>
        <time>2023-06-02T22:29:29Z</time>
      </trkpt>
      <trkpt lat="46.77072" lon="-0.80585">
        <ele>258</ele>
        <time>2023-06-02T22:29:37Z</time>
      </trkpt>
      <trkpt lat="46.76784" lon="-0.80239">
        <ele>261</ele>
        <time>2023-06-02T22:30:43Z</time>
      </trkpt>
      <trkpt lat="46.76745" lon="-0.802">
        <ele>261</ele>
        <time>2023-06-02T22:30:52Z</time>
      </trkpt>
      <trkpt lat="46.76714" lon="-0.80177">
        <ele>262</ele>
        <time>2023-06-02T22:30:58Z</time>
      </trkpt>
      <trkpt lat="46.76665" lon="-0.80147">
        <ele>262</ele>
        <time>2023-06-02T22:31:07Z</time>
      </trkpt>
      <trkpt lat="46.76646" lon="-0.80126">
        <ele>262</ele>
        <time>2023-06-02T22:31:11Z</time>
      </trkpt>
      <trkpt lat="46.76623" lon="-0.80087">
        <ele>262</ele>
        <time>2023-06-02T22:31:18Z</time>
      </trkpt>
      <trkpt lat="46.7657" lon="-0.79948">
        <ele>260</ele>
        <time>2023-06-02T22:31:37Z</time>
      </trkpt>
      <trkpt lat="46.76551" lon="-0.79905">
        <ele>260</ele>
        <time>2023-06-02T22:31:43Z</time>
      </trkpt>
      <trkpt lat="46.76475" lon="-0.79788">
        <ele>256</ele>
        <time>2023-06-02T22:32:03Z</time>
      </trkpt>
      <trkpt lat="46.76438" lon="-0.79724">
        <ele>253</ele>
        <time>2023-06-02T22:32:13Z</time>
      </trkpt>
      <trkpt lat="46.76373" lon="-0.79596">
        <ele>242</ele>
        <time>2023-06-02T22:32:33Z</time>
      </trkpt>
      <trkpt lat="46.76316" lon="-0.79489">
        <ele>236</ele>
        <time>2023-06-02T22:32:49Z</time>
      </trkpt>
      <trkpt lat="46.76269" lon="-0.79424">
        <ele>233</ele>
        <time>2023-06-02T22:33:01Z</time>
      </trkpt>
      <trkpt lat="46.76189" lon="-0.79344">
        <ele>229</ele>
        <time>2023-06-02T22:33:18Z</time>
      </trkpt>
      <trkpt lat="46.76153" lon="-0.79318">
        <ele>227</ele>
        <time>2023-06-02T22:33:25Z</time>
      </trkpt>
      <trkpt lat="46.76016" lon="-0.79243">
        <ele>223</ele>
        <time>2023-06-02T22:33:51Z</time>
      </trkpt>
      <trkpt lat="46.75983" lon="-0.79222">
        <ele>221</ele>
        <time>2023-06-02T22:33:57Z</time>
      </trkpt>
      <trkpt lat="46.75955" lon="-0.79195">
        <ele>220</ele>
        <time>2023-06-02T22:34:03Z</time>
      </trkpt>
      <trkpt lat="46.75937" lon="-0.79166">
        <ele>221</ele>
        <time>2023-06-02T22:34:08Z</time>
      </trkpt>
      <trkpt lat="46.75922" lon="-0.79134">
        <ele>221</ele>
        <time>2023-06-02T22:34:13Z</time>
      </trkpt>
      <trkpt lat="46.75868" lon="-0.78993">
        <ele>215</ele>
        <time>2023-06-02T22:34:33Z</time>
      </trkpt>
      <trkpt lat="46.75825" lon="-0.78871">
        <ele>211</ele>
        <time>2023-06-02T22:34:49Z</time>
      </trkpt>
      <trkpt lat="46.75818" lon="-0.78847">
        <ele>211</ele>
        <time>2023-06-02T22:34:53Z</time>
      </trkpt>
      <trkpt lat="46.75814" lon="-0.78802">
        <ele>210</ele>
        <time>2023-06-02T22:34:58Z</time>
      </trkpt>
      <trkpt lat="46.75808" lon="-0.78776">
        <ele>209</ele>
        <time>2023-06-02T22:35:01Z</time>
      </trkpt>
      <trkpt lat="46.75798" lon="-0.78748">
        <ele>208</ele>
        <time>2023-06-02T22:35:05Z</time>
      </trkpt>
      <trkpt lat="46.75777" lon="-0.78709">
        <ele>206</ele>
        <time>2023-06-02T22:35:11Z</time>
      </trkpt>
      <trkpt lat="46.75727" lon="-0.78627">
        <ele>201</ele>
        <time>2023-06-02T22:35:25Z</time>
      </trkpt>
      <trkpt lat="46.75659" lon="-0.785">
        <ele>190</ele>
        <time>2023-06-02T22:35:44Z</time>
      </trkpt>
      <trkpt lat="46.75634" lon="-0.7845">
        <ele>187</ele>
        <time>2023-06-02T22:35:52Z</time>
      </trkpt>
      <trkpt lat="46.75575" lon="-0.78328">
        <ele>183</ele>
        <time>2023-06-02T22:36:10Z</time>
      </trkpt>
      <trkpt lat="46.75542" lon="-0.78275">
        <ele>183</ele>
        <time>2023-06-02T22:36:19Z</time>
      </trkpt>
      <trkpt lat="46.755" lon="-0.78186">
        <ele>184</ele>
        <time>2023-06-02T22:36:32Z</time>
      </trkpt>
      <trkpt lat="46.75477" lon="-0.78156">
        <ele>184</ele>
        <time>2023-06-02T22:36:38Z</time>
      </trkpt>
      <trkpt lat="46.75444" lon="-0.78121">
        <ele>184</ele>
        <time>2023-06-02T22:36:45Z</time>
      </trkpt>
      <trkpt lat="46.75436" lon="-0.78108">
        <ele>184</ele>
        <time>2023-06-02T22:36:47Z</time>
      </trkpt>
      <trkpt lat="46.75425" lon="-0.78086">
        <ele>185</ele>
        <time>2023-06-02T22:36:50Z</time>
      </trkpt>
      <trkpt lat="46.75374" lon="-0.77922">
        <ele>192</ele>
        <time>2023-06-02T22:37:12Z</time>
      </trkpt>
      <trkpt lat="46.75358" lon="-0.7788">
        <ele>194</ele>
        <time>2023-06-02T22:37:18Z</time>
      </trkpt>
      <trkpt lat="46.75341" lon="-0.77844">
        <ele>195</ele>
        <time>2023-06-02T22:37:23Z</time>
      </trkpt>
      <trkpt lat="46.75306" lon="-0.77784">
        <ele>195</ele>
        <time>2023-06-02T22:37:33Z</time>
      </trkpt>
      <trkpt lat="46.75227" lon="-0.77634">
        <ele>190</ele>
        <time>2023-06-02T22:37:56Z</time>
      </trkpt>
      <trkpt lat="46.75217" lon="-0.7762">
        <ele>190</ele>
        <time>2023-06-02T22:37:58Z</time>
      </trkpt>
      <trkpt lat="46.75204" lon="-0.77607">
        <ele>190</ele>
        <time>2023-06-02T22:38:01Z</time>
      </trkpt>
      <trkpt lat="46.75187" lon="-0.77596">
        <ele>191</ele>
        <time>2023-06-02T22:38:05Z</time>
      </trkpt>
      <trkpt lat="46.75153" lon="-0.77578">
        <ele>191</ele>
        <time>2023-06-02T22:38:11Z</time>
      </trkpt>
      <trkpt lat="46.75068" lon="-0.77537">
        <ele>194</ele>
        <time>2023-06-02T22:38:27Z</time>
      </trkpt>
      <trkpt lat="46.74963" lon="-0.77498">
        <ele>195</ele>
        <time>2023-06-02T22:38:46Z</time>
      </trkpt>
      <trkpt lat="46.74938" lon="-0.77481">
        <ele>195</ele>
        <time>2023-06-02T22:38:51Z</time>
      </trkpt>
      <trkpt lat="46.7484" lon="-0.77382">
        <ele>197</ele>
        <time>2023-06-02T22:39:12Z</time>
      </trkpt>
      <trkpt lat="46.74746" lon="-0.77294">
        <ele>197</ele>
        <time>2023-06-02T22:39:32Z</time>
      </trkpt>
      <trkpt lat="46.74676" lon="-0.77222">
        <ele>198</ele>
        <time>2023-06-02T22:39:47Z</time>
      </trkpt>
      <trkpt lat="46.74649" lon="-0.77192">
        <ele>198</ele>
        <time>2023-06-02T22:39:54Z</time>
      </trkpt>
      <trkpt lat="46.74595" lon="-0.77044">
        <ele>197</ele>
        <time>2023-06-02T22:40:14Z</time>
      </trkpt>
      <trkpt lat="46.74571" lon="-0.76999">
        <ele>196</ele>
        <time>2023-06-02T22:40:21Z</time>
      </trkpt>
      <trkpt lat="46.7454" lon="-0.76952">
        <ele>192</ele>
        <time>2023-06-02T22:40:29Z</time>
      </trkpt>
      <trkpt lat="46.74489" lon="-0.76893">
        <ele>188</ele>
        <time>2023-06-02T22:40:40Z</time>
      </trkpt>
      <trkpt lat="46.74472" lon="-0.76868">
        <ele>186</ele>
        <time>2023-06-02T22:40:45Z</time>
      </trkpt>
      <trkpt lat="46.74421" lon="-0.76778">
        <ele>180</ele>
        <time>2023-06-02T22:40:59Z</time>
      </trkpt>
      <trkpt lat="46.74375" lon="-0.767">
        <ele>176</ele>
        <time>2023-06-02T22:41:12Z</time>
      </trkpt>
      <trkpt lat="46.7434" lon="-0.76628">
        <ele>176</ele>
        <time>2023-06-02T22:41:22Z</time>
      </trkpt>
      <trkpt lat="46.7428" lon="-0.7648">
        <ele>172</ele>
        <time>2023-06-02T22:41:43Z</time>
      </trkpt>
      <trkpt lat="46.74266" lon="-0.76452">
        <ele>170</ele>
        <time>2023-06-02T22:41:47Z</time>
      </trkpt>
      <trkpt lat="46.74221" lon="-0.76391">
        <ele>166</ele>
        <time>2023-06-02T22:41:58Z</time>
      </trkpt>
      <trkpt lat="46.74211" lon="-0.76388">
        <ele>166</ele>
        <time>2023-06-02T22:42:00Z</time>
      </trkpt>
      <trkpt lat="46.74172" lon="-0.76383">
        <ele>164</ele>
        <time>2023-06-02T22:42:07Z</time>
      </trkpt>
      <trkpt lat="46.74167" lon="-0.7633">
        <ele>163</ele>
        <time>2023-06-02T22:42:14Z</time>
      </trkpt>
      <trkpt lat="46.74165" lon="-0.76323">
        <ele>163</ele>
        <time>2023-06-02T22:42:15Z</time>
      </trkpt>
      <trkpt lat="46.74147" lon="-0.76316">
        <ele>162</ele>
        <time>2023-06-02T22:42:18Z</time>
      </trkpt>
      <trkpt lat="46.74132" lon="-0.76315">
        <ele>162</ele>
        <time>2023-06-02T22:42:21Z</time>
      </trkpt>
      <trkpt lat="46.74127" lon="-0.76311">
        <ele>162</ele>
        <time>2023-06-02T22:42:22Z</time>
      </trkpt>
      <trkpt lat="46.74156" lon="-0.7625">
        <ele>161</ele>
        <time>2023-06-02T22:42:31Z</time>
      </trkpt>
      <trkpt lat="46.74166" lon="-0.76225">
        <ele>160</ele>
        <time>2023-06-02T22:42:34Z</time>
      </trkpt>
      <trkpt lat="46.74189" lon="-0.76153">
        <ele>155</ele>
        <time>2023-06-02T22:42:44Z</time>
      </trkpt>
      <trkpt lat="46.74194" lon="-0.76146">
        <ele>155</ele>
        <time>2023-06-02T22:42:45Z</time>
      </trkpt>
      <trkpt lat="46.74192" lon="-0.76121">
        <ele>154</ele>
        <time>2023-06-02T22:42:48Z</time>
      </trkpt>
      <trkpt lat="46.74188" lon="-0.76086">
        <ele>154</ele>
        <time>2023-06-02T22:42:53Z</time>
      </trkpt>
      <trkpt lat="46.74179" lon="-0.76037">
        <ele>153</ele>
        <time>2023-06-02T22:42:59Z</time>
      </trkpt>
      <trkpt lat="46.74178" lon="-0.76021">
        <ele>152</ele>
        <time>2023-06-02T22:43:01Z</time>
      </trkpt>
      <trkpt lat="46.74186" lon="-0.75952">
        <ele>152</ele>
        <time>2023-06-02T22:43:09Z</time>
      </trkpt>
      <trkpt lat="46.74191" lon="-0.75927">
        <ele>152</ele>
        <time>2023-06-02T22:43:12Z</time>
      </trkpt>
      <trkpt lat="46.74202" lon="-0.75896">
        <ele>152</ele>
        <time>2023-06-02T22:43:17Z</time>
      </trkpt>
      <trkpt lat="46.74291" lon="-0.75676">
        <ele>159</ele>
        <time>2023-06-02T22:43:48Z</time>
      </trkpt>
      <trkpt lat="46.74331" lon="-0.75589">
        <ele>165</ele>
        <time>2023-06-02T22:44:01Z</time>
      </trkpt>
      <trkpt lat="46.74345" lon="-0.75554">
        <ele>166</ele>
        <time>2023-06-02T22:44:06Z</time>
      </trkpt>
      <trkpt lat="46.74378" lon="-0.75433">
        <ele>169</ele>
        <time>2023-06-02T22:44:21Z</time>
      </trkpt>
      <trkpt lat="46.74408" lon="-0.75352">
        <ele>171</ele>
        <time>2023-06-02T22:44:33Z</time>
      </trkpt>
      <trkpt lat="46.74443" lon="-0.75236">
        <ele>177</ele>
        <time>2023-06-02T22:44:48Z</time>
      </trkpt>
      <trkpt lat="46.7445" lon="-0.75205">
        <ele>179</ele>
        <time>2023-06-02T22:44:52Z</time>
      </trkpt>
      <trkpt lat="46.74453" lon="-0.75179">
        <ele>180</ele>
        <time>2023-06-02T22:44:55Z</time>
      </trkpt>
      <trkpt lat="46.74453" lon="-0.75147">
        <ele>182</ele>
        <time>2023-06-02T22:44:59Z</time>
      </trkpt>
      <trkpt lat="46.74447" lon="-0.75113">
        <ele>183</ele>
        <time>2023-06-02T22:45:03Z</time>
      </trkpt>
      <trkpt lat="46.74421" lon="-0.75021">
        <ele>186</ele>
        <time>2023-06-02T22:45:16Z</time>
      </trkpt>
      <trkpt lat="46.74416" lon="-0.74987">
        <ele>186</ele>
        <time>2023-06-02T22:45:20Z</time>
      </trkpt>
      <trkpt lat="46.74409" lon="-0.74693">
        <ele>196</ele>
        <time>2023-06-02T22:45:56Z</time>
      </trkpt>
      <trkpt lat="46.74405" lon="-0.74597">
        <ele>200</ele>
        <time>2023-06-02T22:46:07Z</time>
      </trkpt>
      <trkpt lat="46.74398" lon="-0.74562">
        <ele>200</ele>
        <time>2023-06-02T22:46:12Z</time>
      </trkpt>
      <trkpt lat="46.7439" lon="-0.74537">
        <ele>200</ele>
        <time>2023-06-02T22:46:15Z</time>
      </trkpt>
      <trkpt lat="46.74372" lon="-0.74487">
        <ele>199</ele>
        <time>2023-06-02T22:46:22Z</time>
      </trkpt>
      <trkpt lat="46.7431" lon="-0.74357">
        <ele>198</ele>
        <time>2023-06-02T22:46:41Z</time>
      </trkpt>
      <trkpt lat="46.74294" lon="-0.74312">
        <ele>198</ele>
        <time>2023-06-02T22:46:48Z</time>
      </trkpt>
      <trkpt lat="46.74231" lon="-0.74073">
        <ele>194</ele>
        <time>2023-06-02T22:47:19Z</time>
      </trkpt>
      <trkpt lat="46.74218" lon="-0.73994">
        <ele>195</ele>
        <time>2023-06-02T22:47:29Z</time>
      </trkpt>
      <trkpt lat="46.74212" lon="-0.73908">
        <ele>196</ele>
        <time>2023-06-02T22:47:39Z</time>
      </trkpt>
      <trkpt lat="46.74214" lon="-0.73737">
        <ele>196</ele>
        <time>2023-06-02T22:48:00Z</time>
      </trkpt>
      <trkpt lat="46.7421" lon="-0.73709">
        <ele>197</ele>
        <time>2023-06-02T22:48:04Z</time>
      </trkpt>
      <trkpt lat="46.742" lon="-0.73672">
        <ele>197</ele>
        <time>2023-06-02T22:48:08Z</time>
      </trkpt>
      <trkpt lat="46.74185" lon="-0.73642">
        <ele>197</ele>
        <time>2023-06-02T22:48:13Z</time>
      </trkpt>
      <trkpt lat="46.74157" lon="-0.73599">
        <ele>197</ele>
        <time>2023-06-02T22:48:20Z</time>
      </trkpt>
      <trkpt lat="46.73954" lon="-0.73366">
        <ele>202</ele>
        <time>2023-06-02T22:49:06Z</time>
      </trkpt>
      <trkpt lat="46.73826" lon="-0.73224">
        <ele>208</ele>
        <time>2023-06-02T22:49:35Z</time>
      </trkpt>
      <trkpt lat="46.73799" lon="-0.73191">
        <ele>208</ele>
        <time>2023-06-02T22:49:41Z</time>
      </trkpt>
      <trkpt lat="46.73737" lon="-0.73098">
        <ele>206</ele>
        <time>2023-06-02T22:49:57Z</time>
      </trkpt>
      <trkpt lat="46.73715" lon="-0.7307">
        <ele>205</ele>
        <time>2023-06-02T22:50:02Z</time>
      </trkpt>
      <trkpt lat="46.73599" lon="-0.72951">
        <ele>201</ele>
        <time>2023-06-02T22:50:27Z</time>
      </trkpt>
      <trkpt lat="46.73533" lon="-0.72897">
        <ele>200</ele>
        <time>2023-06-02T22:50:41Z</time>
      </trkpt>
      <trkpt lat="46.73499" lon="-0.72863">
        <ele>200</ele>
        <time>2023-06-02T22:50:48Z</time>
      </trkpt>
      <trkpt lat="46.73475" lon="-0.72833">
        <ele>201</ele>
        <time>2023-06-02T22:50:54Z</time>
      </trkpt>
      <trkpt lat="46.73401" lon="-0.72727">
        <ele>203</ele>
        <time>2023-06-02T22:51:12Z</time>
      </trkpt>
      <trkpt lat="46.73389" lon="-0.72705">
        <ele>203</ele>
        <time>2023-06-02T22:51:16Z</time>
      </trkpt>
      <trkpt lat="46.73378" lon="-0.72682">
        <ele>203</ele>
        <time>2023-06-02T22:51:19Z</time>
      </trkpt>
      <trkpt lat="46.73358" lon="-0.72634">
        <ele>203</ele>
        <time>2023-06-02T22:51:26Z</time>
      </trkpt>
      <trkpt lat="46.73337" lon="-0.72589">
        <ele>203</ele>
        <time>2023-06-02T22:51:33Z</time>
      </trkpt>
      <trkpt lat="46.73279" lon="-0.7249">
        <ele>199</ele>
        <time>2023-06-02T22:51:48Z</time>
      </trkpt>
      <trkpt lat="46.73258" lon="-0.72446">
        <ele>199</ele>
        <time>2023-06-02T22:51:55Z</time>
      </trkpt>
      <trkpt lat="46.73247" lon="-0.72419">
        <ele>199</ele>
        <time>2023-06-02T22:51:59Z</time>
      </trkpt>
      <trkpt lat="46.73189" lon="-0.7225">
        <ele>199</ele>
        <time>2023-06-02T22:52:22Z</time>
      </trkpt>
      <trkpt lat="46.73183" lon="-0.72229">
        <ele>199</ele>
        <time>2023-06-02T22:52:25Z</time>
      </trkpt>
      <trkpt lat="46.73177" lon="-0.72194">
        <ele>198</ele>
        <time>2023-06-02T22:52:29Z</time>
      </trkpt>
      <trkpt lat="46.73173" lon="-0.72131">
        <ele>198</ele>
        <time>2023-06-02T22:52:37Z</time>
      </trkpt>
      <trkpt lat="46.73173" lon="-0.72079">
        <ele>198</ele>
        <time>2023-06-02T22:52:43Z</time>
      </trkpt>
      <trkpt lat="46.7317" lon="-0.72025">
        <ele>199</ele>
        <time>2023-06-02T22:52:50Z</time>
      </trkpt>
      <trkpt lat="46.73169" lon="-0.72003">
        <ele>200</ele>
        <time>2023-06-02T22:52:52Z</time>
      </trkpt>
      <trkpt lat="46.7315" lon="-0.71878">
        <ele>201</ele>
        <time>2023-06-02T22:53:08Z</time>
      </trkpt>
      <trkpt lat="46.73148" lon="-0.71846">
        <ele>202</ele>
        <time>2023-06-02T22:53:12Z</time>
      </trkpt>
      <trkpt lat="46.73146" lon="-0.71774">
        <ele>204</ele>
        <time>2023-06-02T22:53:21Z</time>
      </trkpt>
      <trkpt lat="46.73143" lon="-0.71735">
        <ele>205</ele>
        <time>2023-06-02T22:53:25Z</time>
      </trkpt>
      <trkpt lat="46.73142" lon="-0.71698">
        <ele>206</ele>
        <time>2023-06-02T22:53:30Z</time>
      </trkpt>
      <trkpt lat="46.73146" lon="-0.71658">
        <ele>206</ele>
        <time>2023-06-02T22:53:35Z</time>
      </trkpt>
      <trkpt lat="46.73149" lon="-0.71613">
        <ele>206</ele>
        <time>2023-06-02T22:53:40Z</time>
      </trkpt>
      <trkpt lat="46.73136" lon="-0.71608">
        <ele>207</ele>
        <time>2023-06-02T22:53:43Z</time>
      </trkpt>
      <trkpt lat="46.73124" lon="-0.71593">
        <ele>207</ele>
        <time>2023-06-02T22:53:46Z</time>
      </trkpt>
      <trkpt lat="46.73087" lon="-0.71478">
        <ele>209</ele>
        <time>2023-06-02T22:54:01Z</time>
      </trkpt>
      <trkpt lat="46.73077" lon="-0.71442">
        <ele>208</ele>
        <time>2023-06-02T22:54:06Z</time>
      </trkpt>
      <trkpt lat="46.73065" lon="-0.71445">
        <ele>208</ele>
        <time>2023-06-02T22:54:08Z</time>
      </trkpt>
      <trkpt lat="46.73042" lon="-0.71456">
        <ele>208</ele>
        <time>2023-06-02T22:54:12Z</time>
      </trkpt>
      <trkpt lat="46.73026" lon="-0.71458">
        <ele>207</ele>
        <time>2023-06-02T22:54:15Z</time>
      </trkpt>
      <trkpt lat="46.73021" lon="-0.71453">
        <ele>207</ele>
        <time>2023-06-02T22:54:16Z</time>
      </trkpt>
      <trkpt lat="46.73012" lon="-0.71434">
        <ele>208</ele>
        <time>2023-06-02T22:54:19Z</time>
      </trkpt>
      <trkpt lat="46.72994" lon="-0.71415">
        <ele>208</ele>
        <time>2023-06-02T22:54:23Z</time>
      </trkpt>
      <trkpt lat="46.72969" lon="-0.71399">
        <ele>208</ele>
        <time>2023-06-02T22:54:28Z</time>
      </trkpt>
      <trkpt lat="46.72957" lon="-0.71384">
        <ele>207</ele>
        <time>2023-06-02T22:54:31Z</time>
      </trkpt>
      <trkpt lat="46.72933" lon="-0.71345">
        <ele>207</ele>
        <time>2023-06-02T22:54:37Z</time>
      </trkpt>
      <trkpt lat="46.72892" lon="-0.71396">
        <ele>207</ele>
        <time>2023-06-02T22:54:47Z</time>
      </trkpt>
      <trkpt lat="46.72815" lon="-0.71484">
        <ele>206</ele>
        <time>2023-06-02T22:55:04Z</time>
      </trkpt>
      <trkpt lat="46.72804" lon="-0.71494">
        <ele>206</ele>
        <time>2023-06-02T22:55:06Z</time>
      </trkpt>
      <trkpt lat="46.72781" lon="-0.71498">
        <ele>205</ele>
        <time>2023-06-02T22:55:10Z</time>
      </trkpt>
      <trkpt lat="46.72729" lon="-0.71484">
        <ele>205</ele>
        <time>2023-06-02T22:55:20Z</time>
      </trkpt>
      <trkpt lat="46.72667" lon="-0.7148">
        <ele>205</ele>
        <time>2023-06-02T22:55:31Z</time>
      </trkpt>
      <trkpt lat="46.72651" lon="-0.71476">
        <ele>205</ele>
        <time>2023-06-02T22:55:34Z</time>
      </trkpt>
      <trkpt lat="46.72619" lon="-0.71457">
        <ele>204</ele>
        <time>2023-06-02T22:55:40Z</time>
      </trkpt>
      <trkpt lat="46.72604" lon="-0.71444">
        <ele>204</ele>
        <time>2023-06-02T22:55:43Z</time>
      </trkpt>
      <trkpt lat="46.72581" lon="-0.71419">
        <ele>204</ele>
        <time>2023-06-02T22:55:48Z</time>
      </trkpt>
      <trkpt lat="46.72569" lon="-0.71401">
        <ele>204</ele>
        <time>2023-06-02T22:55:51Z</time>
      </trkpt>
      <trkpt lat="46.72448" lon="-0.7126">
        <ele>203</ele>
        <time>2023-06-02T22:56:19Z</time>
      </trkpt>
      <trkpt lat="46.72409" lon="-0.71217">
        <ele>202</ele>
        <time>2023-06-02T22:56:28Z</time>
      </trkpt>
      <trkpt lat="46.72391" lon="-0.71203">
        <ele>201</ele>
        <time>2023-06-02T22:56:31Z</time>
      </trkpt>
      <trkpt lat="46.72369" lon="-0.71192">
        <ele>201</ele>
        <time>2023-06-02T22:56:35Z</time>
      </trkpt>
      <trkpt lat="46.7235" lon="-0.71187">
        <ele>201</ele>
        <time>2023-06-02T22:56:39Z</time>
      </trkpt>
      <trkpt lat="46.72333" lon="-0.71185">
        <ele>201</ele>
        <time>2023-06-02T22:56:42Z</time>
      </trkpt>
      <trkpt lat="46.72314" lon="-0.71187">
        <ele>201</ele>
        <time>2023-06-02T22:56:45Z</time>
      </trkpt>
      <trkpt lat="46.72209" lon="-0.71213">
        <ele>200</ele>
        <time>2023-06-02T22:57:04Z</time>
      </trkpt>
      <trkpt lat="46.72191" lon="-0.71213">
        <ele>200</ele>
        <time>2023-06-02T22:57:07Z</time>
      </trkpt>
      <trkpt lat="46.72175" lon="-0.71211">
        <ele>200</ele>
        <time>2023-06-02T22:57:10Z</time>
      </trkpt>
      <trkpt lat="46.72121" lon="-0.71196">
        <ele>201</ele>
        <time>2023-06-02T22:57:20Z</time>
      </trkpt>
      <trkpt lat="46.72083" lon="-0.71188">
        <ele>202</ele>
        <time>2023-06-02T22:57:27Z</time>
      </trkpt>
      <trkpt lat="46.72032" lon="-0.7118">
        <ele>204</ele>
        <time>2023-06-02T22:57:36Z</time>
      </trkpt>
      <trkpt lat="46.71964" lon="-0.71172">
        <ele>206</ele>
        <time>2023-06-02T22:57:48Z</time>
      </trkpt>
      <trkpt lat="46.71918" lon="-0.7115">
        <ele>208</ele>
        <time>2023-06-02T22:57:57Z</time>
      </trkpt>
      <trkpt lat="46.71864" lon="-0.71114">
        <ele>209</ele>
        <time>2023-06-02T22:58:07Z</time>
      </trkpt>
      <trkpt lat="46.71809" lon="-0.7107">
        <ele>209</ele>
        <time>2023-06-02T22:58:18Z</time>
      </trkpt>
      <trkpt lat="46.71742" lon="-0.71005">
        <ele>206</ele>
        <time>2023-06-02T22:58:33Z</time>
      </trkpt>
      <trkpt lat="46.7169" lon="-0.70973">
        <ele>205</ele>
        <time>2023-06-02T22:58:43Z</time>
      </trkpt>
      <trkpt lat="46.71663" lon="-0.70962">
        <ele>204</ele>
        <time>2023-06-02T22:58:48Z</time>
      </trkpt>
      <trkpt lat="46.71622" lon="-0.7095">
        <ele>203</ele>
        <time>2023-06-02T22:58:55Z</time>
      </trkpt>
      <trkpt lat="46.71597" lon="-0.70947">
        <ele>202</ele>
        <time>2023-06-02T22:59:00Z</time>
      </trkpt>
      <trkpt lat="46.71515" lon="-0.70947">
        <ele>201</ele>
        <time>2023-06-02T22:59:14Z</time>
      </trkpt>
      <trkpt lat="46.71455" lon="-0.7093">
        <ele>200</ele>
        <time>2023-06-02T22:59:25Z</time>
      </trkpt>
      <trkpt lat="46.71392" lon="-0.70921">
        <ele>197</ele>
        <time>2023-06-02T22:59:36Z</time>
      </trkpt>
      <trkpt lat="46.71147" lon="-0.70895">
        <ele>194</ele>
        <time>2023-06-02T23:00:20Z</time>
      </trkpt>
      <trkpt lat="46.71115" lon="-0.70883">
        <ele>194</ele>
        <time>2023-06-02T23:00:26Z</time>
      </trkpt>
      <trkpt lat="46.71064" lon="-0.70856">
        <ele>195</ele>
        <time>2023-06-02T23:00:36Z</time>
      </trkpt>
      <trkpt lat="46.70962" lon="-0.7079">
        <ele>197</ele>
        <time>2023-06-02T23:00:55Z</time>
      </trkpt>
      <trkpt lat="46.70933" lon="-0.70775">
        <ele>197</ele>
        <time>2023-06-02T23:01:01Z</time>
      </trkpt>
      <trkpt lat="46.70904" lon="-0.70768">
        <ele>198</ele>
        <time>2023-06-02T23:01:06Z</time>
      </trkpt>
      <trkpt lat="46.70839" lon="-0.70759">
        <ele>199</ele>
        <time>2023-06-02T23:01:18Z</time>
      </trkpt>
      <trkpt lat="46.70825" lon="-0.70754">
        <ele>199</ele>
        <time>2023-06-02T23:01:20Z</time>
      </trkpt>
      <trkpt lat="46.7081" lon="-0.70744">
        <ele>199</ele>
        <time>2023-06-02T23:01:23Z</time>
      </trkpt>
      <trkpt lat="46.70774" lon="-0.70705">
        <ele>199</ele>
        <time>2023-06-02T23:01:31Z</time>
      </trkpt>
      <trkpt lat="46.70758" lon="-0.70694">
        <ele>199</ele>
        <time>2023-06-02T23:01:34Z</time>
      </trkpt>
      <trkpt lat="46.70732" lon="-0.70686">
        <ele>198</ele>
        <time>2023-06-02T23:01:39Z</time>
      </trkpt>
      <trkpt lat="46.70693" lon="-0.70686">
        <ele>198</ele>
        <time>2023-06-02T23:01:46Z</time>
      </trkpt>
      <trkpt lat="46.70639" lon="-0.70683">
        <ele>199</ele>
        <time>2023-06-02T23:01:56Z</time>
      </trkpt>
      <trkpt lat="46.70624" lon="-0.70676">
        <ele>199</ele>
        <time>2023-06-02T23:01:58Z</time>
      </trkpt>
      <trkpt lat="46.70612" lon="-0.70664">
        <ele>199</ele>
        <time>2023-06-02T23:02:01Z</time>
      </trkpt>
      <trkpt lat="46.70599" lon="-0.70644">
        <ele>199</ele>
        <time>2023-06-02T23:02:04Z</time>
      </trkpt>
      <trkpt lat="46.70563" lon="-0.7057">
        <ele>199</ele>
        <time>2023-06-02T23:02:15Z</time>
      </trkpt>
      <trkpt lat="46.7052" lon="-0.70494">
        <ele>200</ele>
        <time>2023-06-02T23:02:28Z</time>
      </trkpt>
      <trkpt lat="46.70341" lon="-0.7023">
        <ele>200</ele>
        <time>2023-06-02T23:03:13Z</time>
      </trkpt>
      <trkpt lat="46.70324" lon="-0.70202">
        <ele>200</ele>
        <time>2023-06-02T23:03:17Z</time>
      </trkpt>
      <trkpt lat="46.70306" lon="-0.70151">
        <ele>199</ele>
        <time>2023-06-02T23:03:24Z</time>
      </trkpt>
      <trkpt lat="46.70295" lon="-0.7013">
        <ele>199</ele>
        <time>2023-06-02T23:03:28Z</time>
      </trkpt>
      <trkpt lat="46.70283" lon="-0.70115">
        <ele>199</ele>
        <time>2023-06-02T23:03:30Z</time>
      </trkpt>
      <trkpt lat="46.70273" lon="-0.70108">
        <ele>199</ele>
        <time>2023-06-02T23:03:32Z</time>
      </trkpt>
      <trkpt lat="46.7026" lon="-0.70103">
        <ele>199</ele>
        <time>2023-06-02T23:03:35Z</time>
      </trkpt>
      <trkpt lat="46.70244" lon="-0.70104">
        <ele>200</ele>
        <time>2023-06-02T23:03:38Z</time>
      </trkpt>
      <trkpt lat="46.7016" lon="-0.70135">
        <ele>207</ele>
        <time>2023-06-02T23:03:53Z</time>
      </trkpt>
      <trkpt lat="46.7014" lon="-0.70138">
        <ele>209</ele>
        <time>2023-06-02T23:03:57Z</time>
      </trkpt>
      <trkpt lat="46.70111" lon="-0.70134">
        <ele>212</ele>
        <time>2023-06-02T23:04:02Z</time>
      </trkpt>
      <trkpt lat="46.69966" lon="-0.70084">
        <ele>215</ele>
        <time>2023-06-02T23:04:28Z</time>
      </trkpt>
      <trkpt lat="46.69894" lon="-0.70062">
        <ele>217</ele>
        <time>2023-06-02T23:04:41Z</time>
      </trkpt>
      <trkpt lat="46.69861" lon="-0.70056">
        <ele>219</ele>
        <time>2023-06-02T23:04:47Z</time>
      </trkpt>
      <trkpt lat="46.6982" lon="-0.70057">
        <ele>221</ele>
        <time>2023-06-02T23:04:55Z</time>
      </trkpt>
      <trkpt lat="46.69796" lon="-0.7006">
        <ele>222</ele>
        <time>2023-06-02T23:04:59Z</time>
      </trkpt>
      <trkpt lat="46.69726" lon="-0.7008">
        <ele>226</ele>
        <time>2023-06-02T23:05:12Z</time>
      </trkpt>
      <trkpt lat="46.69715" lon="-0.70077">
        <ele>227</ele>
        <time>2023-06-02T23:05:14Z</time>
      </trkpt>
      <trkpt lat="46.69706" lon="-0.7007">
        <ele>227</ele>
        <time>2023-06-02T23:05:15Z</time>
      </trkpt>
      <trkpt lat="46.69691" lon="-0.70053">
        <ele>228</ele>
        <time>2023-06-02T23:05:19Z</time>
      </trkpt>
      <trkpt lat="46.69661" lon="-0.69981">
        <ele>228</ele>
        <time>2023-06-02T23:05:29Z</time>
      </trkpt>
      <trkpt lat="46.69652" lon="-0.69972">
        <ele>228</ele>
        <time>2023-06-02T23:05:31Z</time>
      </trkpt>
      <trkpt lat="46.69626" lon="-0.70039">
        <ele>229</ele>
        <time>2023-06-02T23:05:40Z</time>
      </trkpt>
      <trkpt lat="46.69592" lon="-0.70103">
        <ele>230</ele>
        <time>2023-06-02T23:05:50Z</time>
      </trkpt>
      <trkpt lat="46.69567" lon="-0.70144">
        <ele>229</ele>
        <time>2023-06-02T23:05:57Z</time>
      </trkpt>
      <trkpt lat="46.69522" lon="-0.70205">
        <ele>228</ele>
        <time>2023-06-02T23:06:08Z</time>
      </trkpt>
      <trkpt lat="46.69507" lon="-0.70221">
        <ele>228</ele>
        <time>2023-06-02T23:06:11Z</time>
      </trkpt>
      <trkpt lat="46.69426" lon="-0.70289">
        <ele>225</ele>
        <time>2023-06-02T23:06:28Z</time>
      </trkpt>
      <trkpt lat="46.69426" lon="-0.70294">
        <ele>225</ele>
        <time>2023-06-02T23:06:28Z</time>
      </trkpt>
      <trkpt lat="46.69424" lon="-0.703">
        <ele>225</ele>
        <time>2023-06-02T23:06:29Z</time>
      </trkpt>
      <trkpt lat="46.69418" lon="-0.70301">
        <ele>224</ele>
        <time>2023-06-02T23:06:30Z</time>
      </trkpt>
      <trkpt lat="46.69415" lon="-0.70297">
        <ele>224</ele>
        <time>2023-06-02T23:06:31Z</time>
      </trkpt>
      <trkpt lat="46.69347" lon="-0.70351">
        <ele>224</ele>
        <time>2023-06-02T23:06:45Z</time>
      </trkpt>
      <trkpt lat="46.68907" lon="-0.70721">
        <ele>229</ele>
        <time>2023-06-02T23:08:15Z</time>
      </trkpt>
      <trkpt lat="46.68568" lon="-0.71001">
        <ele>201</ele>
        <time>2023-06-02T23:09:25Z</time>
      </trkpt>
      <trkpt lat="46.67513" lon="-0.71872">
        <ele>197</ele>
        <time>2023-06-02T23:13:00Z</time>
      </trkpt>
      <trkpt lat="46.66455" lon="-0.72738">
        <ele>161</ele>
        <time>2023-06-02T23:16:36Z</time>
      </trkpt>
      <trkpt lat="46.66436" lon="-0.72757">
        <ele>161</ele>
        <time>2023-06-02T23:16:40Z</time>
      </trkpt>
      <trkpt lat="46.66415" lon="-0.72773">
        <ele>160</ele>
        <time>2023-06-02T23:16:45Z</time>
      </trkpt>
      <trkpt lat="46.664" lon="-0.72779">
        <ele>160</ele>
        <time>2023-06-02T23:16:47Z</time>
      </trkpt>
      <trkpt lat="46.66378" lon="-0.72784">
        <ele>159</ele>
        <time>2023-06-02T23:16:51Z</time>
      </trkpt>
      <trkpt lat="46.66363" lon="-0.72795">
        <ele>158</ele>
        <time>2023-06-02T23:16:54Z</time>
      </trkpt>
      <trkpt lat="46.66355" lon="-0.72812">
        <ele>158</ele>
        <time>2023-06-02T23:16:57Z</time>
      </trkpt>
      <trkpt lat="46.66344" lon="-0.72825">
        <ele>157</ele>
        <time>2023-06-02T23:16:59Z</time>
      </trkpt>
      <trkpt lat="46.6633" lon="-0.72829">
        <ele>157</ele>
        <time>2023-06-02T23:17:02Z</time>
      </trkpt>
      <trkpt lat="46.6631" lon="-0.72837">
        <ele>156</ele>
        <time>2023-06-02T23:17:05Z</time>
      </trkpt>
      <trkpt lat="46.66282" lon="-0.72874">
        <ele>156</ele>
        <time>2023-06-02T23:17:12Z</time>
      </trkpt>
      <trkpt lat="46.66268" lon="-0.72887">
        <ele>155</ele>
        <time>2023-06-02T23:17:15Z</time>
      </trkpt>
      <trkpt lat="46.66217" lon="-0.72932">
        <ele>155</ele>
        <time>2023-06-02T23:17:26Z</time>
      </trkpt>
      <trkpt lat="46.65985" lon="-0.73123">
        <ele>148</ele>
        <time>2023-06-02T23:18:13Z</time>
      </trkpt>
      <trkpt lat="46.65958" lon="-0.73142">
        <ele>146</ele>
        <time>2023-06-02T23:18:19Z</time>
      </trkpt>
      <trkpt lat="46.65949" lon="-0.73155">
        <ele>145</ele>
        <time>2023-06-02T23:18:21Z</time>
      </trkpt>
      <trkpt lat="46.65947" lon="-0.73165">
        <ele>145</ele>
        <time>2023-06-02T23:18:22Z</time>
      </trkpt>
      <trkpt lat="46.65941" lon="-0.73171">
        <ele>145</ele>
        <time>2023-06-02T23:18:23Z</time>
      </trkpt>
      <trkpt lat="46.65932" lon="-0.73171">
        <ele>144</ele>
        <time>2023-06-02T23:18:25Z</time>
      </trkpt>
      <trkpt lat="46.65923" lon="-0.73175">
        <ele>143</ele>
        <time>2023-06-02T23:18:27Z</time>
      </trkpt>
      <trkpt lat="46.65818" lon="-0.73262">
        <ele>141</ele>
        <time>2023-06-02T23:18:48Z</time>
      </trkpt>
      <trkpt lat="46.65755" lon="-0.73319">
        <ele>140</ele>
        <time>2023-06-02T23:19:01Z</time>
      </trkpt>
      <trkpt lat="46.65687" lon="-0.73367">
        <ele>140</ele>
        <time>2023-06-02T23:19:15Z</time>
      </trkpt>
      <trkpt lat="46.65346" lon="-0.73649">
        <ele>155</ele>
        <time>2023-06-02T23:20:25Z</time>
      </trkpt>
      <trkpt lat="46.65322" lon="-0.73672">
        <ele>157</ele>
        <time>2023-06-02T23:20:30Z</time>
      </trkpt>
      <trkpt lat="46.65301" lon="-0.73697">
        <ele>158</ele>
        <time>2023-06-02T23:20:34Z</time>
      </trkpt>
      <trkpt lat="46.65281" lon="-0.73726">
        <ele>160</ele>
        <time>2023-06-02T23:20:39Z</time>
      </trkpt>
      <trkpt lat="46.65253" lon="-0.73775">
        <ele>161</ele>
        <time>2023-06-02T23:20:47Z</time>
      </trkpt>
      <trkpt lat="46.65241" lon="-0.73801">
        <ele>162</ele>
        <time>2023-06-02T23:20:51Z</time>
      </trkpt>
      <trkpt lat="46.65231" lon="-0.7383">
        <ele>163</ele>
        <time>2023-06-02T23:20:55Z</time>
      </trkpt>
      <trkpt lat="46.65224" lon="-0.7386">
        <ele>164</ele>
        <time>2023-06-02T23:20:59Z</time>
      </trkpt>
      <trkpt lat="46.6522" lon="-0.73888">
        <ele>164</ele>
        <time>2023-06-02T23:21:02Z</time>
      </trkpt>
      <trkpt lat="46.6522" lon="-0.7392">
        <ele>165</ele>
        <time>2023-06-02T23:21:06Z</time>
      </trkpt>
      <trkpt lat="46.65227" lon="-0.73986">
        <ele>168</ele>
        <time>2023-06-02T23:21:14Z</time>
      </trkpt>
      <trkpt lat="46.65242" lon="-0.74072">
        <ele>168</ele>
        <time>2023-06-02T23:21:25Z</time>
      </trkpt>
      <trkpt lat="46.65243" lon="-0.7409">
        <ele>168</ele>
        <time>2023-06-02T23:21:28Z</time>
      </trkpt>
      <trkpt lat="46.6524" lon="-0.74108">
        <ele>168</ele>
        <time>2023-06-02T23:21:30Z</time>
      </trkpt>
      <trkpt lat="46.65235" lon="-0.74124">
        <ele>168</ele>
        <time>2023-06-02T23:21:32Z</time>
      </trkpt>
      <trkpt lat="46.65186" lon="-0.74193">
        <ele>167</ele>
        <time>2023-06-02T23:21:44Z</time>
      </trkpt>
      <trkpt lat="46.65136" lon="-0.7425">
        <ele>164</ele>
        <time>2023-06-02T23:21:55Z</time>
      </trkpt>
      <trkpt lat="46.65111" lon="-0.74269">
        <ele>162</ele>
        <time>2023-06-02T23:22:00Z</time>
      </trkpt>
      <trkpt lat="46.65093" lon="-0.74278">
        <ele>162</ele>
        <time>2023-06-02T23:22:04Z</time>
      </trkpt>
      <trkpt lat="46.65075" lon="-0.74285">
        <ele>161</ele>
        <time>2023-06-02T23:22:07Z</time>
      </trkpt>
      <trkpt lat="46.65034" lon="-0.74294">
        <ele>160</ele>
        <time>2023-06-02T23:22:14Z</time>
      </trkpt>
      <trkpt lat="46.65009" lon="-0.74291">
        <ele>160</ele>
        <time>2023-06-02T23:22:19Z</time>
      </trkpt>
      <trkpt lat="46.6498" lon="-0.74279">
        <ele>159</ele>
        <time>2023-06-02T23:22:24Z</time>
      </trkpt>
      <trkpt lat="46.64954" lon="-0.74262">
        <ele>158</ele>
        <time>2023-06-02T23:22:29Z</time>
      </trkpt>
      <trkpt lat="46.64947" lon="-0.74313">
        <ele>154</ele>
        <time>2023-06-02T23:22:36Z</time>
      </trkpt>
      <trkpt lat="46.64942" lon="-0.7433">
        <ele>153</ele>
        <time>2023-06-02T23:22:38Z</time>
      </trkpt>
      <trkpt lat="46.64935" lon="-0.74343">
        <ele>152</ele>
        <time>2023-06-02T23:22:40Z</time>
      </trkpt>
      <trkpt lat="46.6489" lon="-0.7441">
        <ele>145</ele>
        <time>2023-06-02T23:22:51Z</time>
      </trkpt>
      <trkpt lat="46.64981" lon="-0.74726">
        <ele>140</ele>
        <time>2023-06-02T23:23:33Z</time>
      </trkpt>
      <trkpt lat="46.64988" lon="-0.74756">
        <ele>140</ele>
        <time>2023-06-02T23:23:37Z</time>
      </trkpt>
      <trkpt lat="46.6499" lon="-0.74832">
        <ele>142</ele>
        <time>2023-06-02T23:23:46Z</time>
      </trkpt>
      <trkpt lat="46.6499" lon="-0.74953">
        <ele>138</ele>
        <time>2023-06-02T23:24:01Z</time>
      </trkpt>
      <trkpt lat="46.64994" lon="-0.75146">
        <ele>139</ele>
        <time>2023-06-02T23:24:25Z</time>
      </trkpt>
      <trkpt lat="46.64989" lon="-0.75193">
        <ele>139</ele>
        <time>2023-06-02T23:24:31Z</time>
      </trkpt>
      <trkpt lat="46.64996" lon="-0.75199">
        <ele>139</ele>
        <time>2023-06-02T23:24:32Z</time>
      </trkpt>
      <trkpt lat="46.64997" lon="-0.75206">
        <ele>139</ele>
        <time>2023-06-02T23:24:33Z</time>
      </trkpt>
      <trkpt lat="46.64997" lon="-0.7521">
        <ele>139</ele>
        <time>2023-06-02T23:24:33Z</time>
      </trkpt>
      <trkpt lat="46.64991" lon="-0.75219">
        <ele>140</ele>
        <time>2023-06-02T23:24:35Z</time>
      </trkpt>
      <trkpt lat="46.64993" lon="-0.75235">
        <ele>140</ele>
        <time>2023-06-02T23:24:37Z</time>
      </trkpt>
      <trkpt lat="46.64996" lon="-0.75335">
        <ele>141</ele>
        <time>2023-06-02T23:24:49Z</time>
      </trkpt>
      <trkpt lat="46.65005" lon="-0.75392">
        <ele>140</ele>
        <time>2023-06-02T23:24:56Z</time>
      </trkpt>
      <trkpt lat="46.64998" lon="-0.75462">
        <ele>140</ele>
        <time>2023-06-02T23:25:05Z</time>
      </trkpt>
      <trkpt lat="46.65014" lon="-0.76637">
        <ele>125</ele>
        <time>2023-06-02T23:27:28Z</time>
      </trkpt>
      <trkpt lat="46.65026" lon="-0.77444">
        <ele>121</ele>
        <time>2023-06-02T23:29:07Z</time>
      </trkpt>
      <trkpt lat="46.65025" lon="-0.7751">
        <ele>122</ele>
        <time>2023-06-02T23:29:15Z</time>
      </trkpt>
      <trkpt lat="46.65021" lon="-0.77568">
        <ele>121</ele>
        <time>2023-06-02T23:29:22Z</time>
      </trkpt>
      <trkpt lat="46.65018" lon="-0.77588">
        <ele>121</ele>
        <time>2023-06-02T23:29:25Z</time>
      </trkpt>
      <trkpt lat="46.65011" lon="-0.77614">
        <ele>121</ele>
        <time>2023-06-02T23:29:28Z</time>
      </trkpt>
      <trkpt lat="46.65002" lon="-0.77644">
        <ele>120</ele>
        <time>2023-06-02T23:29:32Z</time>
      </trkpt>
      <trkpt lat="46.64941" lon="-0.77807">
        <ele>118</ele>
        <time>2023-06-02T23:29:55Z</time>
      </trkpt>
      <trkpt lat="46.64934" lon="-0.77833">
        <ele>118</ele>
        <time>2023-06-02T23:29:58Z</time>
      </trkpt>
      <trkpt lat="46.64924" lon="-0.77883">
        <ele>119</ele>
        <time>2023-06-02T23:30:05Z</time>
      </trkpt>
      <trkpt lat="46.64921" lon="-0.77916">
        <ele>120</ele>
        <time>2023-06-02T23:30:09Z</time>
      </trkpt>
      <trkpt lat="46.64921" lon="-0.77976">
        <ele>120</ele>
        <time>2023-06-02T23:30:16Z</time>
      </trkpt>
      <trkpt lat="46.64924" lon="-0.78084">
        <ele>124</ele>
        <time>2023-06-02T23:30:29Z</time>
      </trkpt>
      <trkpt lat="46.6493" lon="-0.78143">
        <ele>125</ele>
        <time>2023-06-02T23:30:37Z</time>
      </trkpt>
      <trkpt lat="46.64944" lon="-0.7822">
        <ele>126</ele>
        <time>2023-06-02T23:30:46Z</time>
      </trkpt>
      <trkpt lat="46.6495" lon="-0.78272">
        <ele>128</ele>
        <time>2023-06-02T23:30:53Z</time>
      </trkpt>
      <trkpt lat="46.64951" lon="-0.78305">
        <ele>129</ele>
        <time>2023-06-02T23:30:57Z</time>
      </trkpt>
      <trkpt lat="46.64948" lon="-0.78338">
        <ele>130</ele>
        <time>2023-06-02T23:31:01Z</time>
      </trkpt>
      <trkpt lat="46.64937" lon="-0.7839">
        <ele>132</ele>
        <time>2023-06-02T23:31:07Z</time>
      </trkpt>
      <trkpt lat="46.64917" lon="-0.78449">
        <ele>133</ele>
        <time>2023-06-02T23:31:15Z</time>
      </trkpt>
      <trkpt lat="46.6485" lon="-0.78584">
        <ele>129</ele>
        <time>2023-06-02T23:31:36Z</time>
      </trkpt>
      <trkpt lat="46.64841" lon="-0.78614">
        <ele>128</ele>
        <time>2023-06-02T23:31:40Z</time>
      </trkpt>
      <trkpt lat="46.64828" lon="-0.78674">
        <ele>127</ele>
        <time>2023-06-02T23:31:47Z</time>
      </trkpt>
      <trkpt lat="46.64824" lon="-0.78708">
        <ele>127</ele>
        <time>2023-06-02T23:31:52Z</time>
      </trkpt>
      <trkpt lat="46.64813" lon="-0.78976">
        <ele>126</ele>
        <time>2023-06-02T23:32:24Z</time>
      </trkpt>
      <trkpt lat="46.64804" lon="-0.79082">
        <ele>124</ele>
        <time>2023-06-02T23:32:38Z</time>
      </trkpt>
      <trkpt lat="46.64786" lon="-0.79212">
        <ele>120</ele>
        <time>2023-06-02T23:32:54Z</time>
      </trkpt>
      <trkpt lat="46.64734" lon="-0.79551">
        <ele>115</ele>
        <time>2023-06-02T23:33:36Z</time>
      </trkpt>
      <trkpt lat="46.64718" lon="-0.79629">
        <ele>113</ele>
        <time>2023-06-02T23:33:46Z</time>
      </trkpt>
      <trkpt lat="46.64701" lon="-0.79684">
        <ele>113</ele>
        <time>2023-06-02T23:33:53Z</time>
      </trkpt>
      <trkpt lat="46.6469" lon="-0.79709">
        <ele>114</ele>
        <time>2023-06-02T23:33:57Z</time>
      </trkpt>
      <trkpt lat="46.64634" lon="-0.79816">
        <ele>117</ele>
        <time>2023-06-02T23:34:14Z</time>
      </trkpt>
      <trkpt lat="46.64615" lon="-0.79865">
        <ele>118</ele>
        <time>2023-06-02T23:34:20Z</time>
      </trkpt>
      <trkpt lat="46.64608" lon="-0.79891">
        <ele>118</ele>
        <time>2023-06-02T23:34:24Z</time>
      </trkpt>
      <trkpt lat="46.64598" lon="-0.7996">
        <ele>118</ele>
        <time>2023-06-02T23:34:32Z</time>
      </trkpt>
      <trkpt lat="46.64593" lon="-0.79985">
        <ele>117</ele>
        <time>2023-06-02T23:34:36Z</time>
      </trkpt>
      <trkpt lat="46.64531" lon="-0.80161">
        <ele>116</ele>
        <time>2023-06-02T23:35:00Z</time>
      </trkpt>
      <trkpt lat="46.64515" lon="-0.80207">
        <ele>116</ele>
        <time>2023-06-02T23:35:06Z</time>
      </trkpt>
      <trkpt lat="46.64507" lon="-0.80259">
        <ele>116</ele>
        <time>2023-06-02T23:35:13Z</time>
      </trkpt>
      <trkpt lat="46.64504" lon="-0.80325">
        <ele>116</ele>
        <time>2023-06-02T23:35:21Z</time>
      </trkpt>
      <trkpt lat="46.64501" lon="-0.80355">
        <ele>116</ele>
        <time>2023-06-02T23:35:24Z</time>
      </trkpt>
      <trkpt lat="46.64491" lon="-0.80406">
        <ele>115</ele>
        <time>2023-06-02T23:35:31Z</time>
      </trkpt>
      <trkpt lat="46.64478" lon="-0.80448">
        <ele>115</ele>
        <time>2023-06-02T23:35:36Z</time>
      </trkpt>
      <trkpt lat="46.64453" lon="-0.80499">
        <ele>115</ele>
        <time>2023-06-02T23:35:44Z</time>
      </trkpt>
      <trkpt lat="46.64381" lon="-0.80638">
        <ele>115</ele>
        <time>2023-06-02T23:36:05Z</time>
      </trkpt>
      <trkpt lat="46.64308" lon="-0.80733">
        <ele>115</ele>
        <time>2023-06-02T23:36:23Z</time>
      </trkpt>
      <trkpt lat="46.64298" lon="-0.80754">
        <ele>115</ele>
        <time>2023-06-02T23:36:26Z</time>
      </trkpt>
      <trkpt lat="46.6429" lon="-0.80776">
        <ele>115</ele>
        <time>2023-06-02T23:36:29Z</time>
      </trkpt>
      <trkpt lat="46.64286" lon="-0.80788">
        <ele>115</ele>
        <time>2023-06-02T23:36:31Z</time>
      </trkpt>
      <trkpt lat="46.64283" lon="-0.80814">
        <ele>114</ele>
        <time>2023-06-02T23:36:34Z</time>
      </trkpt>
      <trkpt lat="46.64282" lon="-0.80832">
        <ele>114</ele>
        <time>2023-06-02T23:36:36Z</time>
      </trkpt>
      <trkpt lat="46.64292" lon="-0.81">
        <ele>115</ele>
        <time>2023-06-02T23:36:57Z</time>
      </trkpt>
      <trkpt lat="46.64294" lon="-0.81238">
        <ele>121</ele>
        <time>2023-06-02T23:37:26Z</time>
      </trkpt>
      <trkpt lat="46.643" lon="-0.81275">
        <ele>122</ele>
        <time>2023-06-02T23:37:30Z</time>
      </trkpt>
      <trkpt lat="46.6431" lon="-0.8131">
        <ele>122</ele>
        <time>2023-06-02T23:37:35Z</time>
      </trkpt>
      <trkpt lat="46.64322" lon="-0.81346">
        <ele>122</ele>
        <time>2023-06-02T23:37:40Z</time>
      </trkpt>
      <trkpt lat="46.64403" lon="-0.81518">
        <ele>119</ele>
        <time>2023-06-02T23:38:05Z</time>
      </trkpt>
      <trkpt lat="46.64416" lon="-0.81553">
        <ele>119</ele>
        <time>2023-06-02T23:38:10Z</time>
      </trkpt>
      <trkpt lat="46.64425" lon="-0.81583">
        <ele>119</ele>
        <time>2023-06-02T23:38:14Z</time>
      </trkpt>
      <trkpt lat="46.64432" lon="-0.81624">
        <ele>119</ele>
        <time>2023-06-02T23:38:19Z</time>
      </trkpt>
      <trkpt lat="46.64435" lon="-0.81654">
        <ele>119</ele>
        <time>2023-06-02T23:38:23Z</time>
      </trkpt>
      <trkpt lat="46.64435" lon="-0.81689">
        <ele>118</ele>
        <time>2023-06-02T23:38:27Z</time>
      </trkpt>
      <trkpt lat="46.64427" lon="-0.81846">
        <ele>114</ele>
        <time>2023-06-02T23:38:47Z</time>
      </trkpt>
      <trkpt lat="46.64423" lon="-0.81891">
        <ele>114</ele>
        <time>2023-06-02T23:38:52Z</time>
      </trkpt>
      <trkpt lat="46.64418" lon="-0.81932">
        <ele>114</ele>
        <time>2023-06-02T23:38:57Z</time>
      </trkpt>
      <trkpt lat="46.64406" lon="-0.81986">
        <ele>114</ele>
        <time>2023-06-02T23:39:04Z</time>
      </trkpt>
      <trkpt lat="46.64395" lon="-0.8202">
        <ele>114</ele>
        <time>2023-06-02T23:39:09Z</time>
      </trkpt>
      <trkpt lat="46.64375" lon="-0.82075">
        <ele>112</ele>
        <time>2023-06-02T23:39:16Z</time>
      </trkpt>
      <trkpt lat="46.64291" lon="-0.82285">
        <ele>108</ele>
        <time>2023-06-02T23:39:46Z</time>
      </trkpt>
      <trkpt lat="46.64275" lon="-0.82332">
        <ele>107</ele>
        <time>2023-06-02T23:39:52Z</time>
      </trkpt>
      <trkpt lat="46.64263" lon="-0.8237">
        <ele>107</ele>
        <time>2023-06-02T23:39:58Z</time>
      </trkpt>
      <trkpt lat="46.64268" lon="-0.82401">
        <ele>107</ele>
        <time>2023-06-02T23:40:01Z</time>
      </trkpt>
      <trkpt lat="46.64282" lon="-0.82432">
        <ele>107</ele>
        <time>2023-06-02T23:40:06Z</time>
      </trkpt>
      <trkpt lat="46.6429" lon="-0.82454">
        <ele>106</ele>
        <time>2023-06-02T23:40:09Z</time>
      </trkpt>
      <trkpt lat="46.64359" lon="-0.82536">
        <ele>103</ele>
        <time>2023-06-02T23:40:25Z</time>
      </trkpt>
      <trkpt lat="46.64383" lon="-0.82557">
        <ele>102</ele>
        <time>2023-06-02T23:40:30Z</time>
      </trkpt>
      <trkpt lat="46.64415" lon="-0.82578">
        <ele>101</ele>
        <time>2023-06-02T23:40:36Z</time>
      </trkpt>
      <trkpt lat="46.64465" lon="-0.82609">
        <ele>100</ele>
        <time>2023-06-02T23:40:46Z</time>
      </trkpt>
      <trkpt lat="46.64486" lon="-0.82625">
        <ele>99</ele>
        <time>2023-06-02T23:40:50Z</time>
      </trkpt>
      <trkpt lat="46.64497" lon="-0.8264">
        <ele>98</ele>
        <time>2023-06-02T23:40:53Z</time>
      </trkpt>
      <trkpt lat="46.64522" lon="-0.82687">
        <ele>98</ele>
        <time>2023-06-02T23:41:00Z</time>
      </trkpt>
      <trkpt lat="46.64583" lon="-0.82842">
        <ele>95</ele>
        <time>2023-06-02T23:41:22Z</time>
      </trkpt>
      <trkpt lat="46.646" lon="-0.82876">
        <ele>91</ele>
        <time>2023-06-02T23:41:27Z</time>
      </trkpt>
      <trkpt lat="46.64612" lon="-0.82895">
        <ele>90</ele>
        <time>2023-06-02T23:41:30Z</time>
      </trkpt>
      <trkpt lat="46.64646" lon="-0.82937">
        <ele>88</ele>
        <time>2023-06-02T23:41:38Z</time>
      </trkpt>
      <trkpt lat="46.64781" lon="-0.8308">
        <ele>79</ele>
        <time>2023-06-02T23:42:08Z</time>
      </trkpt>
      <trkpt lat="46.64849" lon="-0.83138">
        <ele>75</ele>
        <time>2023-06-02T23:42:22Z</time>
      </trkpt>
      <trkpt lat="46.64854" lon="-0.83143">
        <ele>75</ele>
        <time>2023-06-02T23:42:23Z</time>
      </trkpt>
      <trkpt lat="46.65073" lon="-0.83321">
        <ele>90</ele>
        <time>2023-06-02T23:43:07Z</time>
      </trkpt>
      <trkpt lat="46.65084" lon="-0.83329">
        <ele>90</ele>
        <time>2023-06-02T23:43:10Z</time>
      </trkpt>
      <trkpt lat="46.65172" lon="-0.83356">
        <ele>93</ele>
        <time>2023-06-02T23:43:26Z</time>
      </trkpt>
      <trkpt lat="46.65209" lon="-0.83374">
        <ele>94</ele>
        <time>2023-06-02T23:43:33Z</time>
      </trkpt>
      <trkpt lat="46.65227" lon="-0.83388">
        <ele>95</ele>
        <time>2023-06-02T23:43:36Z</time>
      </trkpt>
      <trkpt lat="46.65227" lon="-0.83412">
        <ele>95</ele>
        <time>2023-06-02T23:43:39Z</time>
      </trkpt>
      <trkpt lat="46.65227" lon="-0.83388">
        <ele>95</ele>
        <time>2023-06-02T23:43:42Z</time>
      </trkpt>
      <trkpt lat="46.6524" lon="-0.834">
        <ele>95</ele>
        <time>2023-06-02T23:43:45Z</time>
      </trkpt>
      <trkpt lat="46.65321" lon="-0.83485">
        <ele>94</ele>
        <time>2023-06-02T23:44:03Z</time>
      </trkpt>
      <trkpt lat="46.6534" lon="-0.83501">
        <ele>94</ele>
        <time>2023-06-02T23:44:06Z</time>
      </trkpt>
      <trkpt lat="46.65357" lon="-0.8351">
        <ele>95</ele>
        <time>2023-06-02T23:44:10Z</time>
      </trkpt>
      <trkpt lat="46.65382" lon="-0.83519">
        <ele>96</ele>
        <time>2023-06-02T23:44:14Z</time>
      </trkpt>
      <trkpt lat="46.65416" lon="-0.83521">
        <ele>97</ele>
        <time>2023-06-02T23:44:20Z</time>
      </trkpt>
      <trkpt lat="46.65445" lon="-0.83515">
        <ele>98</ele>
        <time>2023-06-02T23:44:25Z</time>
      </trkpt>
      <trkpt lat="46.65554" lon="-0.83469">
        <ele>103</ele>
        <time>2023-06-02T23:44:46Z</time>
      </trkpt>
      <trkpt lat="46.65573" lon="-0.83465">
        <ele>104</ele>
        <time>2023-06-02T23:44:49Z</time>
      </trkpt>
      <trkpt lat="46.65606" lon="-0.83463">
        <ele>104</ele>
        <time>2023-06-02T23:44:55Z</time>
      </trkpt>
      <trkpt lat="46.65657" lon="-0.83474">
        <ele>103</ele>
        <time>2023-06-02T23:45:04Z</time>
      </trkpt>
      <trkpt lat="46.65993" lon="-0.83556">
        <ele>98</ele>
        <time>2023-06-02T23:46:05Z</time>
      </trkpt>
      <trkpt lat="46.66025" lon="-0.8356">
        <ele>98</ele>
        <time>2023-06-02T23:46:10Z</time>
      </trkpt>
      <trkpt lat="46.66049" lon="-0.83558">
        <ele>98</ele>
        <time>2023-06-02T23:46:15Z</time>
      </trkpt>
      <trkpt lat="46.6607" lon="-0.83555">
        <ele>98</ele>
        <time>2023-06-02T23:46:18Z</time>
      </trkpt>
      <trkpt lat="46.66136" lon="-0.83536">
        <ele>99</ele>
        <time>2023-06-02T23:46:30Z</time>
      </trkpt>
      <trkpt lat="46.66185" lon="-0.83532">
        <ele>100</ele>
        <time>2023-06-02T23:46:39Z</time>
      </trkpt>
      <trkpt lat="46.66233" lon="-0.83539">
        <ele>100</ele>
        <time>2023-06-02T23:46:48Z</time>
      </trkpt>
      <trkpt lat="46.66266" lon="-0.83547">
        <ele>100</ele>
        <time>2023-06-02T23:46:54Z</time>
      </trkpt>
      <trkpt lat="46.66297" lon="-0.83561">
        <ele>100</ele>
        <time>2023-06-02T23:47:00Z</time>
      </trkpt>
      <trkpt lat="46.66388" lon="-0.83619">
        <ele>99</ele>
        <time>2023-06-02T23:47:17Z</time>
      </trkpt>
      <trkpt lat="46.66479" lon="-0.83697">
        <ele>100</ele>
        <time>2023-06-02T23:47:36Z</time>
      </trkpt>
      <trkpt lat="46.6666" lon="-0.83858">
        <ele>104</ele>
        <time>2023-06-02T23:48:14Z</time>
      </trkpt>
      <trkpt lat="46.66758" lon="-0.83959">
        <ele>105</ele>
        <time>2023-06-02T23:48:35Z</time>
      </trkpt>
      <trkpt lat="46.66847" lon="-0.84045">
        <ele>105</ele>
        <time>2023-06-02T23:48:54Z</time>
      </trkpt>
      <trkpt lat="46.6696" lon="-0.84166">
        <ele>100</ele>
        <time>2023-06-02T23:49:19Z</time>
      </trkpt>
      <trkpt lat="46.67059" lon="-0.84299">
        <ele>98</ele>
        <time>2023-06-02T23:49:43Z</time>
      </trkpt>
      <trkpt lat="46.67087" lon="-0.84328">
        <ele>97</ele>
        <time>2023-06-02T23:49:49Z</time>
      </trkpt>
      <trkpt lat="46.6715" lon="-0.84377">
        <ele>97</ele>
        <time>2023-06-02T23:50:02Z</time>
      </trkpt>
      <trkpt lat="46.67166" lon="-0.84403">
        <ele>96</ele>
        <time>2023-06-02T23:50:06Z</time>
      </trkpt>
      <trkpt lat="46.67212" lon="-0.84469">
        <ele>97</ele>
        <time>2023-06-02T23:50:18Z</time>
      </trkpt>
      <trkpt lat="46.67243" lon="-0.84507">
        <ele>98</ele>
        <time>2023-06-02T23:50:25Z</time>
      </trkpt>
      <trkpt lat="46.67284" lon="-0.84551">
        <ele>99</ele>
        <time>2023-06-02T23:50:34Z</time>
      </trkpt>
      <trkpt lat="46.67295" lon="-0.84558">
        <ele>99</ele>
        <time>2023-06-02T23:50:36Z</time>
      </trkpt>
      <trkpt lat="46.67337" lon="-0.84597">
        <ele>99</ele>
        <time>2023-06-02T23:50:45Z</time>
      </trkpt>
      <trkpt lat="46.67364" lon="-0.84628">
        <ele>99</ele>
        <time>2023-06-02T23:50:51Z</time>
      </trkpt>
      <trkpt lat="46.67392" lon="-0.84668">
        <ele>99</ele>
        <time>2023-06-02T23:50:58Z</time>
      </trkpt>
      <trkpt lat="46.67398" lon="-0.84672">
        <ele>99</ele>
        <time>2023-06-02T23:50:59Z</time>
      </trkpt>
      <trkpt lat="46.67444" lon="-0.84727">
        <ele>98</ele>
        <time>2023-06-02T23:51:10Z</time>
      </trkpt>
      <trkpt lat="46.67494" lon="-0.84794">
        <ele>98</ele>
        <time>2023-06-02T23:51:22Z</time>
      </trkpt>
      <trkpt lat="46.67504" lon="-0.84802">
        <ele>99</ele>
        <time>2023-06-02T23:51:24Z</time>
      </trkpt>
      <trkpt lat="46.67537" lon="-0.84813">
        <ele>100</ele>
        <time>2023-06-02T23:51:30Z</time>
      </trkpt>
      <trkpt lat="46.67543" lon="-0.84818">
        <ele>101</ele>
        <time>2023-06-02T23:51:31Z</time>
      </trkpt>
      <trkpt lat="46.67553" lon="-0.84832">
        <ele>102</ele>
        <time>2023-06-02T23:51:33Z</time>
      </trkpt>
      <trkpt lat="46.67575" lon="-0.84838">
        <ele>104</ele>
        <time>2023-06-02T23:51:37Z</time>
      </trkpt>
      <trkpt lat="46.67577" lon="-0.84847">
        <ele>104</ele>
        <time>2023-06-02T23:51:39Z</time>
      </trkpt>
      <trkpt lat="46.67583" lon="-0.84861">
        <ele>105</ele>
        <time>2023-06-02T23:51:41Z</time>
      </trkpt>
      <trkpt lat="46.67596" lon="-0.84885">
        <ele>106</ele>
        <time>2023-06-02T23:51:44Z</time>
      </trkpt>
      <trkpt lat="46.6762" lon="-0.84915">
        <ele>107</ele>
        <time>2023-06-02T23:51:50Z</time>
      </trkpt>
      <trkpt lat="46.67611" lon="-0.84924">
        <ele>107</ele>
        <time>2023-06-02T23:51:52Z</time>
      </trkpt>
      <trkpt lat="46.67576" lon="-0.8493">
        <ele>106</ele>
        <time>2023-06-02T23:51:58Z</time>
      </trkpt>
      <trkpt lat="46.67566" lon="-0.84935">
        <ele>105</ele>
        <time>2023-06-02T23:52:00Z</time>
      </trkpt>
      <trkpt lat="46.6754" lon="-0.84956">
        <ele>104</ele>
        <time>2023-06-02T23:52:05Z</time>
      </trkpt>
      <trkpt lat="46.67533" lon="-0.84959">
        <ele>103</ele>
        <time>2023-06-02T23:52:07Z</time>
      </trkpt>
      <trkpt lat="46.67537" lon="-0.84971">
        <ele>104</ele>
        <time>2023-06-02T23:52:08Z</time>
      </trkpt>
      <trkpt lat="46.67594" lon="-0.85094">
        <ele>109</ele>
        <time>2023-06-02T23:52:26Z</time>
      </trkpt>
      <trkpt lat="46.676" lon="-0.85119">
        <ele>110</ele>
        <time>2023-06-02T23:52:30Z</time>
      </trkpt>
      <trkpt lat="46.6762" lon="-0.85105">
        <ele>110</ele>
        <time>2023-06-02T23:52:34Z</time>
      </trkpt>
      <trkpt lat="46.67667" lon="-0.85091">
        <ele>112</ele>
        <time>2023-06-02T23:52:42Z</time>
      </trkpt>
      <trkpt lat="46.6765" lon="-0.85261">
        <ele>112</ele>
        <time>2023-06-02T23:53:03Z</time>
      </trkpt>
      <trkpt lat="46.67651" lon="-0.85284">
        <ele>112</ele>
        <time>2023-06-02T23:53:06Z</time>
      </trkpt>
      <trkpt lat="46.67658" lon="-0.85307">
        <ele>111</ele>
        <time>2023-06-02T23:53:09Z</time>
      </trkpt>
      <trkpt lat="46.67665" lon="-0.85321">
        <ele>111</ele>
        <time>2023-06-02T23:53:11Z</time>
      </trkpt>
      <trkpt lat="46.67717" lon="-0.85404">
        <ele>110</ele>
        <time>2023-06-02T23:53:25Z</time>
      </trkpt>
      <trkpt lat="46.67725" lon="-0.85409">
        <ele>109</ele>
        <time>2023-06-02T23:53:26Z</time>
      </trkpt>
      <trkpt lat="46.67731" lon="-0.85403">
        <ele>110</ele>
        <time>2023-06-02T23:53:28Z</time>
      </trkpt>
      <trkpt lat="46.67734" lon="-0.85403">
        <ele>109</ele>
        <time>2023-06-02T23:53:28Z</time>
      </trkpt>
      <trkpt lat="46.6774" lon="-0.85407">
        <ele>109</ele>
        <time>2023-06-02T23:53:29Z</time>
      </trkpt>
      <trkpt lat="46.67744" lon="-0.85416">
        <ele>109</ele>
        <time>2023-06-02T23:53:31Z</time>
      </trkpt>
      <trkpt lat="46.67754" lon="-0.85425">
        <ele>109</ele>
        <time>2023-06-02T23:53:33Z</time>
      </trkpt>
      <trkpt lat="46.67775" lon="-0.85463">
        <ele>110</ele>
        <time>2023-06-02T23:53:39Z</time>
      </trkpt>
      <trkpt lat="46.67834" lon="-0.8553">
        <ele>113</ele>
        <time>2023-06-02T23:53:52Z</time>
      </trkpt>
      <trkpt lat="46.67887" lon="-0.85586">
        <ele>117</ele>
        <time>2023-06-02T23:54:04Z</time>
      </trkpt>
      <trkpt lat="46.67936" lon="-0.85651">
        <ele>121</ele>
        <time>2023-06-02T23:54:15Z</time>
      </trkpt>
      <trkpt lat="46.67964" lon="-0.85678">
        <ele>122</ele>
        <time>2023-06-02T23:54:21Z</time>
      </trkpt>
      <trkpt lat="46.67991" lon="-0.85701">
        <ele>123</ele>
        <time>2023-06-02T23:54:27Z</time>
      </trkpt>
      <trkpt lat="46.6803" lon="-0.85725">
        <ele>124</ele>
        <time>2023-06-02T23:54:35Z</time>
      </trkpt>
      <trkpt lat="46.68087" lon="-0.85753">
        <ele>124</ele>
        <time>2023-06-02T23:54:45Z</time>
      </trkpt>
      <trkpt lat="46.68119" lon="-0.85773">
        <ele>126</ele>
        <time>2023-06-02T23:54:51Z</time>
      </trkpt>
      <trkpt lat="46.68148" lon="-0.85794">
        <ele>127</ele>
        <time>2023-06-02T23:54:57Z</time>
      </trkpt>
      <trkpt lat="46.6821" lon="-0.85854">
        <ele>131</ele>
        <time>2023-06-02T23:55:10Z</time>
      </trkpt>
      <trkpt lat="46.68236" lon="-0.85888">
        <ele>134</ele>
        <time>2023-06-02T23:55:17Z</time>
      </trkpt>
      <trkpt lat="46.68344" lon="-0.86078">
        <ele>135</ele>
        <time>2023-06-02T23:55:47Z</time>
      </trkpt>
      <trkpt lat="46.68385" lon="-0.86156">
        <ele>134</ele>
        <time>2023-06-02T23:55:59Z</time>
      </trkpt>
      <trkpt lat="46.68404" lon="-0.86197">
        <ele>133</ele>
        <time>2023-06-02T23:56:05Z</time>
      </trkpt>
      <trkpt lat="46.68426" lon="-0.86255">
        <ele>133</ele>
        <time>2023-06-02T23:56:13Z</time>
      </trkpt>
      <trkpt lat="46.68478" lon="-0.86405">
        <ele>137</ele>
        <time>2023-06-02T23:56:33Z</time>
      </trkpt>
      <trkpt lat="46.68494" lon="-0.86456">
        <ele>139</ele>
        <time>2023-06-02T23:56:40Z</time>
      </trkpt>
      <trkpt lat="46.68504" lon="-0.86503">
        <ele>140</ele>
        <time>2023-06-02T23:56:46Z</time>
      </trkpt>
      <trkpt lat="46.6852" lon="-0.86593">
        <ele>138</ele>
        <time>2023-06-02T23:56:58Z</time>
      </trkpt>
      <trkpt lat="46.68529" lon="-0.86619">
        <ele>138</ele>
        <time>2023-06-02T23:57:01Z</time>
      </trkpt>
      <trkpt lat="46.6854" lon="-0.86644">
        <ele>138</ele>
        <time>2023-06-02T23:57:05Z</time>
      </trkpt>
      <trkpt lat="46.68557" lon="-0.8667">
        <ele>137</ele>
        <time>2023-06-02T23:57:09Z</time>
      </trkpt>
      <trkpt lat="46.68659" lon="-0.86813">
        <ele>137</ele>
        <time>2023-06-02T23:57:34Z</time>
      </trkpt>
      <trkpt lat="46.68681" lon="-0.86833">
        <ele>136</ele>
        <time>2023-06-02T23:57:39Z</time>
      </trkpt>
      <trkpt lat="46.68738" lon="-0.8687">
        <ele>135</ele>
        <time>2023-06-02T23:57:50Z</time>
      </trkpt>
      <trkpt lat="46.68767" lon="-0.86886">
        <ele>135</ele>
        <time>2023-06-02T23:57:56Z</time>
      </trkpt>
      <trkpt lat="46.68803" lon="-0.86902">
        <ele>134</ele>
        <time>2023-06-02T23:58:02Z</time>
      </trkpt>
      <trkpt lat="46.68912" lon="-0.86934">
        <ele>130</ele>
        <time>2023-06-02T23:58:22Z</time>
      </trkpt>
      <trkpt lat="46.68933" lon="-0.86943">
        <ele>129</ele>
        <time>2023-06-02T23:58:26Z</time>
      </trkpt>
      <trkpt lat="46.68951" lon="-0.86954">
        <ele>128</ele>
        <time>2023-06-02T23:58:29Z</time>
      </trkpt>
      <trkpt lat="46.69005" lon="-0.87">
        <ele>126</ele>
        <time>2023-06-02T23:58:41Z</time>
      </trkpt>
      <trkpt lat="46.69055" lon="-0.87044">
        <ele>124</ele>
        <time>2023-06-02T23:58:51Z</time>
      </trkpt>
      <trkpt lat="46.69132" lon="-0.87145">
        <ele>121</ele>
        <time>2023-06-02T23:59:09Z</time>
      </trkpt>
      <trkpt lat="46.69144" lon="-0.87159">
        <ele>121</ele>
        <time>2023-06-02T23:59:12Z</time>
      </trkpt>
      <trkpt lat="46.69213" lon="-0.8721">
        <ele>122</ele>
        <time>2023-06-02T23:59:26Z</time>
      </trkpt>
      <trkpt lat="46.6923" lon="-0.87225">
        <ele>122</ele>
        <time>2023-06-02T23:59:29Z</time>
      </trkpt>
      <trkpt lat="46.69297" lon="-0.8731">
        <ele>123</ele>
        <time>2023-06-02T23:59:45Z</time>
      </trkpt>
      <trkpt lat="46.69335" lon="-0.87351">
        <ele>121</ele>
        <time>2023-06-02T23:59:54Z</time>
      </trkpt>
      <trkpt lat="46.69354" lon="-0.87376">
        <ele>120</ele>
        <time>2023-06-02T23:59:58Z</time>
      </trkpt>
      <trkpt lat="46.69399" lon="-0.87466">
        <ele>115</ele>
        <time>2023-06-03T00:00:12Z</time>
      </trkpt>
      <trkpt lat="46.6943" lon="-0.87521">
        <ele>113</ele>
        <time>2023-06-03T00:00:20Z</time>
      </trkpt>
      <trkpt lat="46.69467" lon="-0.87573">
        <ele>114</ele>
        <time>2023-06-03T00:00:30Z</time>
      </trkpt>
      <trkpt lat="46.69625" lon="-0.87776">
        <ele>110</ele>
        <time>2023-06-03T00:01:07Z</time>
      </trkpt>
      <trkpt lat="46.6966" lon="-0.87834">
        <ele>106</ele>
        <time>2023-06-03T00:01:17Z</time>
      </trkpt>
      <trkpt lat="46.69674" lon="-0.87861">
        <ele>105</ele>
        <time>2023-06-03T00:01:21Z</time>
      </trkpt>
      <trkpt lat="46.69686" lon="-0.87892">
        <ele>104</ele>
        <time>2023-06-03T00:01:25Z</time>
      </trkpt>
      <trkpt lat="46.69696" lon="-0.87924">
        <ele>104</ele>
        <time>2023-06-03T00:01:29Z</time>
      </trkpt>
      <trkpt lat="46.69709" lon="-0.87974">
        <ele>105</ele>
        <time>2023-06-03T00:01:36Z</time>
      </trkpt>
      <trkpt lat="46.69737" lon="-0.88094">
        <ele>107</ele>
        <time>2023-06-03T00:01:51Z</time>
      </trkpt>
      <trkpt lat="46.69747" lon="-0.88128">
        <ele>107</ele>
        <time>2023-06-03T00:01:56Z</time>
      </trkpt>
      <trkpt lat="46.69758" lon="-0.88159">
        <ele>107</ele>
        <time>2023-06-03T00:02:00Z</time>
      </trkpt>
      <trkpt lat="46.69769" lon="-0.88181">
        <ele>107</ele>
        <time>2023-06-03T00:02:03Z</time>
      </trkpt>
      <trkpt lat="46.69791" lon="-0.88217">
        <ele>105</ele>
        <time>2023-06-03T00:02:09Z</time>
      </trkpt>
      <trkpt lat="46.69915" lon="-0.8838">
        <ele>106</ele>
        <time>2023-06-03T00:02:39Z</time>
      </trkpt>
      <trkpt lat="46.69952" lon="-0.88421">
        <ele>105</ele>
        <time>2023-06-03T00:02:47Z</time>
      </trkpt>
      <trkpt lat="46.69997" lon="-0.88461">
        <ele>106</ele>
        <time>2023-06-03T00:02:57Z</time>
      </trkpt>
      <trkpt lat="46.70033" lon="-0.88483">
        <ele>104</ele>
        <time>2023-06-03T00:03:04Z</time>
      </trkpt>
      <trkpt lat="46.7015" lon="-0.88541">
        <ele>95</ele>
        <time>2023-06-03T00:03:26Z</time>
      </trkpt>
      <trkpt lat="46.70176" lon="-0.88557">
        <ele>93</ele>
        <time>2023-06-03T00:03:31Z</time>
      </trkpt>
      <trkpt lat="46.70198" lon="-0.88575">
        <ele>91</ele>
        <time>2023-06-03T00:03:35Z</time>
      </trkpt>
      <trkpt lat="46.70235" lon="-0.88614">
        <ele>88</ele>
        <time>2023-06-03T00:03:43Z</time>
      </trkpt>
      <trkpt lat="46.70269" lon="-0.88661">
        <ele>84</ele>
        <time>2023-06-03T00:03:52Z</time>
      </trkpt>
      <trkpt lat="46.70283" lon="-0.88677">
        <ele>83</ele>
        <time>2023-06-03T00:03:55Z</time>
      </trkpt>
      <trkpt lat="46.70297" lon="-0.88689">
        <ele>81</ele>
        <time>2023-06-03T00:03:58Z</time>
      </trkpt>
      <trkpt lat="46.70311" lon="-0.88698">
        <ele>79</ele>
        <time>2023-06-03T00:04:00Z</time>
      </trkpt>
      <trkpt lat="46.70325" lon="-0.88701">
        <ele>77</ele>
        <time>2023-06-03T00:04:03Z</time>
      </trkpt>
      <trkpt lat="46.70378" lon="-0.88702">
        <ele>74</ele>
        <time>2023-06-03T00:04:12Z</time>
      </trkpt>
      <trkpt lat="46.70411" lon="-0.88706">
        <ele>73</ele>
        <time>2023-06-03T00:04:18Z</time>
      </trkpt>
      <trkpt lat="46.7043" lon="-0.8871">
        <ele>73</ele>
        <time>2023-06-03T00:04:22Z</time>
      </trkpt>
      <trkpt lat="46.70455" lon="-0.88718">
        <ele>74</ele>
        <time>2023-06-03T00:04:26Z</time>
      </trkpt>
      <trkpt lat="46.70472" lon="-0.88727">
        <ele>74</ele>
        <time>2023-06-03T00:04:29Z</time>
      </trkpt>
      <trkpt lat="46.70513" lon="-0.88752">
        <ele>76</ele>
        <time>2023-06-03T00:04:37Z</time>
      </trkpt>
      <trkpt lat="46.70532" lon="-0.88767">
        <ele>77</ele>
        <time>2023-06-03T00:04:41Z</time>
      </trkpt>
      <trkpt lat="46.70601" lon="-0.88814">
        <ele>80</ele>
        <time>2023-06-03T00:04:55Z</time>
      </trkpt>
      <trkpt lat="46.70659" lon="-0.8886">
        <ele>82</ele>
        <time>2023-06-03T00:05:06Z</time>
      </trkpt>
      <trkpt lat="46.70741" lon="-0.88945">
        <ele>85</ele>
        <time>2023-06-03T00:05:24Z</time>
      </trkpt>
      <trkpt lat="46.70753" lon="-0.8896">
        <ele>85</ele>
        <time>2023-06-03T00:05:27Z</time>
      </trkpt>
      <trkpt lat="46.70777" lon="-0.89001">
        <ele>86</ele>
        <time>2023-06-03T00:05:34Z</time>
      </trkpt>
      <trkpt lat="46.70788" lon="-0.89026">
        <ele>87</ele>
        <time>2023-06-03T00:05:37Z</time>
      </trkpt>
      <trkpt lat="46.70798" lon="-0.89052">
        <ele>87</ele>
        <time>2023-06-03T00:05:41Z</time>
      </trkpt>
      <trkpt lat="46.70806" lon="-0.89081">
        <ele>88</ele>
        <time>2023-06-03T00:05:45Z</time>
      </trkpt>
      <trkpt lat="46.71019" lon="-0.89972">
        <ele>103</ele>
        <time>2023-06-03T00:07:40Z</time>
      </trkpt>
      <trkpt lat="46.71026" lon="-0.9001">
        <ele>102</ele>
        <time>2023-06-03T00:07:45Z</time>
      </trkpt>
      <trkpt lat="46.71028" lon="-0.90037">
        <ele>102</ele>
        <time>2023-06-03T00:07:48Z</time>
      </trkpt>
      <trkpt lat="46.71028" lon="-0.90063">
        <ele>101</ele>
        <time>2023-06-03T00:07:51Z</time>
      </trkpt>
      <trkpt lat="46.71023" lon="-0.90116">
        <ele>101</ele>
        <time>2023-06-03T00:07:58Z</time>
      </trkpt>
      <trkpt lat="46.71003" lon="-0.90239">
        <ele>104</ele>
        <time>2023-06-03T00:08:13Z</time>
      </trkpt>
      <trkpt lat="46.71001" lon="-0.90278">
        <ele>104</ele>
        <time>2023-06-03T00:08:18Z</time>
      </trkpt>
      <trkpt lat="46.71006" lon="-0.9032">
        <ele>105</ele>
        <time>2023-06-03T00:08:23Z</time>
      </trkpt>
      <trkpt lat="46.71011" lon="-0.90338">
        <ele>105</ele>
        <time>2023-06-03T00:08:25Z</time>
      </trkpt>
      <trkpt lat="46.71017" lon="-0.90355">
        <ele>104</ele>
        <time>2023-06-03T00:08:28Z</time>
      </trkpt>
      <trkpt lat="46.71025" lon="-0.9037">
        <ele>104</ele>
        <time>2023-06-03T00:08:30Z</time>
      </trkpt>
      <trkpt lat="46.7111" lon="-0.90487">
        <ele>101</ele>
        <time>2023-06-03T00:08:51Z</time>
      </trkpt>
      <trkpt lat="46.71129" lon="-0.90519">
        <ele>101</ele>
        <time>2023-06-03T00:08:56Z</time>
      </trkpt>
      <trkpt lat="46.71151" lon="-0.90564">
        <ele>101</ele>
        <time>2023-06-03T00:09:03Z</time>
      </trkpt>
      <trkpt lat="46.71162" lon="-0.90598">
        <ele>101</ele>
        <time>2023-06-03T00:09:07Z</time>
      </trkpt>
      <trkpt lat="46.71306" lon="-0.91076">
        <ele>101</ele>
        <time>2023-06-03T00:10:11Z</time>
      </trkpt>
      <trkpt lat="46.7132" lon="-0.91113">
        <ele>101</ele>
        <time>2023-06-03T00:10:16Z</time>
      </trkpt>
      <trkpt lat="46.71329" lon="-0.9113">
        <ele>100</ele>
        <time>2023-06-03T00:10:19Z</time>
      </trkpt>
      <trkpt lat="46.71358" lon="-0.91165">
        <ele>100</ele>
        <time>2023-06-03T00:10:26Z</time>
      </trkpt>
      <trkpt lat="46.71386" lon="-0.91185">
        <ele>100</ele>
        <time>2023-06-03T00:10:31Z</time>
      </trkpt>
      <trkpt lat="46.71427" lon="-0.91206">
        <ele>99</ele>
        <time>2023-06-03T00:10:39Z</time>
      </trkpt>
      <trkpt lat="46.71449" lon="-0.91227">
        <ele>99</ele>
        <time>2023-06-03T00:10:44Z</time>
      </trkpt>
      <trkpt lat="46.71463" lon="-0.91247">
        <ele>99</ele>
        <time>2023-06-03T00:10:47Z</time>
      </trkpt>
      <trkpt lat="46.71482" lon="-0.9128">
        <ele>99</ele>
        <time>2023-06-03T00:10:52Z</time>
      </trkpt>
      <trkpt lat="46.71516" lon="-0.91354">
        <ele>100</ele>
        <time>2023-06-03T00:11:03Z</time>
      </trkpt>
      <trkpt lat="46.71538" lon="-0.91412">
        <ele>100</ele>
        <time>2023-06-03T00:11:11Z</time>
      </trkpt>
      <trkpt lat="46.71557" lon="-0.91475">
        <ele>99</ele>
        <time>2023-06-03T00:11:20Z</time>
      </trkpt>
      <trkpt lat="46.71584" lon="-0.91538">
        <ele>100</ele>
        <time>2023-06-03T00:11:29Z</time>
      </trkpt>
      <trkpt lat="46.71628" lon="-0.9163">
        <ele>101</ele>
        <time>2023-06-03T00:11:42Z</time>
      </trkpt>
      <trkpt lat="46.71642" lon="-0.91655">
        <ele>101</ele>
        <time>2023-06-03T00:11:46Z</time>
      </trkpt>
      <trkpt lat="46.71676" lon="-0.91705">
        <ele>102</ele>
        <time>2023-06-03T00:11:55Z</time>
      </trkpt>
      <trkpt lat="46.71687" lon="-0.91725">
        <ele>101</ele>
        <time>2023-06-03T00:11:58Z</time>
      </trkpt>
      <trkpt lat="46.71696" lon="-0.91745">
        <ele>101</ele>
        <time>2023-06-03T00:12:01Z</time>
      </trkpt>
      <trkpt lat="46.71725" lon="-0.91822">
        <ele>101</ele>
        <time>2023-06-03T00:12:12Z</time>
      </trkpt>
      <trkpt lat="46.71729" lon="-0.91827">
        <ele>101</ele>
        <time>2023-06-03T00:12:13Z</time>
      </trkpt>
      <trkpt lat="46.71725" lon="-0.91843">
        <ele>101</ele>
        <time>2023-06-03T00:12:15Z</time>
      </trkpt>
      <trkpt lat="46.71718" lon="-0.91884">
        <ele>102</ele>
        <time>2023-06-03T00:12:20Z</time>
      </trkpt>
      <trkpt lat="46.71709" lon="-0.91913">
        <ele>103</ele>
        <time>2023-06-03T00:12:24Z</time>
      </trkpt>
      <trkpt lat="46.717" lon="-0.91927">
        <ele>103</ele>
        <time>2023-06-03T00:12:26Z</time>
      </trkpt>
      <trkpt lat="46.71675" lon="-0.91934">
        <ele>104</ele>
        <time>2023-06-03T00:12:31Z</time>
      </trkpt>
      <trkpt lat="46.71646" lon="-0.91936">
        <ele>104</ele>
        <time>2023-06-03T00:12:36Z</time>
      </trkpt>
      <trkpt lat="46.71646" lon="-0.91974">
        <ele>105</ele>
        <time>2023-06-03T00:12:40Z</time>
      </trkpt>
      <trkpt lat="46.71613" lon="-0.92003">
        <ele>105</ele>
        <time>2023-06-03T00:12:47Z</time>
      </trkpt>
      <trkpt lat="46.71511" lon="-0.92077">
        <ele>103</ele>
        <time>2023-06-03T00:13:07Z</time>
      </trkpt>
      <trkpt lat="46.71415" lon="-0.92151">
        <ele>99</ele>
        <time>2023-06-03T00:13:27Z</time>
      </trkpt>
      <trkpt lat="46.71402" lon="-0.92169">
        <ele>99</ele>
        <time>2023-06-03T00:13:30Z</time>
      </trkpt>
      <trkpt lat="46.71375" lon="-0.92226">
        <ele>99</ele>
        <time>2023-06-03T00:13:38Z</time>
      </trkpt>
      <trkpt lat="46.71368" lon="-0.92243">
        <ele>99</ele>
        <time>2023-06-03T00:13:41Z</time>
      </trkpt>
      <trkpt lat="46.71348" lon="-0.92328">
        <ele>98</ele>
        <time>2023-06-03T00:13:52Z</time>
      </trkpt>
      <trkpt lat="46.7134" lon="-0.92344">
        <ele>98</ele>
        <time>2023-06-03T00:13:54Z</time>
      </trkpt>
      <trkpt lat="46.71323" lon="-0.92364">
        <ele>97</ele>
        <time>2023-06-03T00:13:58Z</time>
      </trkpt>
      <trkpt lat="46.71243" lon="-0.92443">
        <ele>93</ele>
        <time>2023-06-03T00:14:15Z</time>
      </trkpt>
      <trkpt lat="46.71228" lon="-0.92466">
        <ele>93</ele>
        <time>2023-06-03T00:14:19Z</time>
      </trkpt>
      <trkpt lat="46.7121" lon="-0.92509">
        <ele>93</ele>
        <time>2023-06-03T00:14:25Z</time>
      </trkpt>
      <trkpt lat="46.71203" lon="-0.92534">
        <ele>93</ele>
        <time>2023-06-03T00:14:29Z</time>
      </trkpt>
      <trkpt lat="46.71195" lon="-0.92574">
        <ele>92</ele>
        <time>2023-06-03T00:14:34Z</time>
      </trkpt>
      <trkpt lat="46.71167" lon="-0.92762">
        <ele>86</ele>
        <time>2023-06-03T00:14:57Z</time>
      </trkpt>
      <trkpt lat="46.71162" lon="-0.92779">
        <ele>85</ele>
        <time>2023-06-03T00:14:59Z</time>
      </trkpt>
      <trkpt lat="46.71153" lon="-0.92796">
        <ele>83</ele>
        <time>2023-06-03T00:15:02Z</time>
      </trkpt>
      <trkpt lat="46.7113" lon="-0.92824">
        <ele>80</ele>
        <time>2023-06-03T00:15:07Z</time>
      </trkpt>
      <trkpt lat="46.71115" lon="-0.92845">
        <ele>79</ele>
        <time>2023-06-03T00:15:11Z</time>
      </trkpt>
      <trkpt lat="46.71109" lon="-0.92864">
        <ele>78</ele>
        <time>2023-06-03T00:15:14Z</time>
      </trkpt>
      <trkpt lat="46.71105" lon="-0.92888">
        <ele>77</ele>
        <time>2023-06-03T00:15:17Z</time>
      </trkpt>
      <trkpt lat="46.71107" lon="-0.92943">
        <ele>76</ele>
        <time>2023-06-03T00:15:23Z</time>
      </trkpt>
      <trkpt lat="46.71131" lon="-0.93101">
        <ele>76</ele>
        <time>2023-06-03T00:15:43Z</time>
      </trkpt>
      <trkpt lat="46.71134" lon="-0.93154">
        <ele>74</ele>
        <time>2023-06-03T00:15:50Z</time>
      </trkpt>
      <trkpt lat="46.71128" lon="-0.93311">
        <ele>71</ele>
        <time>2023-06-03T00:16:09Z</time>
      </trkpt>
      <trkpt lat="46.71124" lon="-0.93338">
        <ele>70</ele>
        <time>2023-06-03T00:16:12Z</time>
      </trkpt>
      <trkpt lat="46.71114" lon="-0.93367">
        <ele>69</ele>
        <time>2023-06-03T00:16:16Z</time>
      </trkpt>
      <trkpt lat="46.71107" lon="-0.93394">
        <ele>69</ele>
        <time>2023-06-03T00:16:20Z</time>
      </trkpt>
      <trkpt lat="46.71091" lon="-0.93592">
        <ele>67</ele>
        <time>2023-06-03T00:16:44Z</time>
      </trkpt>
      <trkpt lat="46.71085" lon="-0.93626">
        <ele>66</ele>
        <time>2023-06-03T00:16:48Z</time>
      </trkpt>
      <trkpt lat="46.71049" lon="-0.93747">
        <ele>65</ele>
        <time>2023-06-03T00:17:04Z</time>
      </trkpt>
      <trkpt lat="46.71022" lon="-0.93919">
        <ele>62</ele>
        <time>2023-06-03T00:17:26Z</time>
      </trkpt>
      <trkpt lat="46.71013" lon="-0.93956">
        <ele>63</ele>
        <time>2023-06-03T00:17:31Z</time>
      </trkpt>
      <trkpt lat="46.70998" lon="-0.94">
        <ele>64</ele>
        <time>2023-06-03T00:17:37Z</time>
      </trkpt>
      <trkpt lat="46.70987" lon="-0.94024">
        <ele>66</ele>
        <time>2023-06-03T00:17:40Z</time>
      </trkpt>
      <trkpt lat="46.7097" lon="-0.94047">
        <ele>69</ele>
        <time>2023-06-03T00:17:44Z</time>
      </trkpt>
      <trkpt lat="46.7085" lon="-0.94151">
        <ele>80</ele>
        <time>2023-06-03T00:18:09Z</time>
      </trkpt>
      <trkpt lat="46.70828" lon="-0.94167">
        <ele>81</ele>
        <time>2023-06-03T00:18:14Z</time>
      </trkpt>
      <trkpt lat="46.70803" lon="-0.94175">
        <ele>82</ele>
        <time>2023-06-03T00:18:18Z</time>
      </trkpt>
      <trkpt lat="46.70773" lon="-0.94176">
        <ele>84</ele>
        <time>2023-06-03T00:18:23Z</time>
      </trkpt>
      <trkpt lat="46.70755" lon="-0.94181">
        <ele>84</ele>
        <time>2023-06-03T00:18:27Z</time>
      </trkpt>
      <trkpt lat="46.70676" lon="-0.94215">
        <ele>83</ele>
        <time>2023-06-03T00:18:41Z</time>
      </trkpt>
      <trkpt lat="46.7066" lon="-0.94217">
        <ele>83</ele>
        <time>2023-06-03T00:18:44Z</time>
      </trkpt>
      <trkpt lat="46.7062" lon="-0.94218">
        <ele>83</ele>
        <time>2023-06-03T00:18:51Z</time>
      </trkpt>
      <trkpt lat="46.70605" lon="-0.94221">
        <ele>83</ele>
        <time>2023-06-03T00:18:54Z</time>
      </trkpt>
      <trkpt lat="46.70589" lon="-0.94229">
        <ele>83</ele>
        <time>2023-06-03T00:18:57Z</time>
      </trkpt>
      <trkpt lat="46.70514" lon="-0.94284">
        <ele>85</ele>
        <time>2023-06-03T00:19:12Z</time>
      </trkpt>
      <trkpt lat="46.70498" lon="-0.943">
        <ele>85</ele>
        <time>2023-06-03T00:19:15Z</time>
      </trkpt>
      <trkpt lat="46.70484" lon="-0.94318">
        <ele>85</ele>
        <time>2023-06-03T00:19:19Z</time>
      </trkpt>
      <trkpt lat="46.70457" lon="-0.94365">
        <ele>83</ele>
        <time>2023-06-03T00:19:26Z</time>
      </trkpt>
      <trkpt lat="46.70441" lon="-0.94387">
        <ele>82</ele>
        <time>2023-06-03T00:19:30Z</time>
      </trkpt>
      <trkpt lat="46.70417" lon="-0.94411">
        <ele>81</ele>
        <time>2023-06-03T00:19:35Z</time>
      </trkpt>
      <trkpt lat="46.70084" lon="-0.9468">
        <ele>82</ele>
        <time>2023-06-03T00:20:43Z</time>
      </trkpt>
      <trkpt lat="46.70037" lon="-0.94719">
        <ele>82</ele>
        <time>2023-06-03T00:20:53Z</time>
      </trkpt>
      <trkpt lat="46.70022" lon="-0.94737">
        <ele>81</ele>
        <time>2023-06-03T00:20:56Z</time>
      </trkpt>
      <trkpt lat="46.7001" lon="-0.94756">
        <ele>81</ele>
        <time>2023-06-03T00:20:59Z</time>
      </trkpt>
      <trkpt lat="46.70001" lon="-0.94779">
        <ele>80</ele>
        <time>2023-06-03T00:21:02Z</time>
      </trkpt>
      <trkpt lat="46.69994" lon="-0.94806">
        <ele>80</ele>
        <time>2023-06-03T00:21:06Z</time>
      </trkpt>
      <trkpt lat="46.69991" lon="-0.94835">
        <ele>79</ele>
        <time>2023-06-03T00:21:10Z</time>
      </trkpt>
      <trkpt lat="46.69995" lon="-0.94965">
        <ele>77</ele>
        <time>2023-06-03T00:21:25Z</time>
      </trkpt>
      <trkpt lat="46.69994" lon="-0.9501">
        <ele>76</ele>
        <time>2023-06-03T00:21:31Z</time>
      </trkpt>
      <trkpt lat="46.69977" lon="-0.95112">
        <ele>74</ele>
        <time>2023-06-03T00:21:44Z</time>
      </trkpt>
      <trkpt lat="46.69978" lon="-0.95131">
        <ele>73</ele>
        <time>2023-06-03T00:21:46Z</time>
      </trkpt>
      <trkpt lat="46.69982" lon="-0.95149">
        <ele>72</ele>
        <time>2023-06-03T00:21:48Z</time>
      </trkpt>
      <trkpt lat="46.69988" lon="-0.95167">
        <ele>71</ele>
        <time>2023-06-03T00:21:51Z</time>
      </trkpt>
      <trkpt lat="46.70034" lon="-0.95242">
        <ele>67</ele>
        <time>2023-06-03T00:22:03Z</time>
      </trkpt>
      <trkpt lat="46.70041" lon="-0.9526">
        <ele>66</ele>
        <time>2023-06-03T00:22:06Z</time>
      </trkpt>
      <trkpt lat="46.70048" lon="-0.95292">
        <ele>64</ele>
        <time>2023-06-03T00:22:10Z</time>
      </trkpt>
      <trkpt lat="46.70051" lon="-0.95319">
        <ele>63</ele>
        <time>2023-06-03T00:22:13Z</time>
      </trkpt>
      <trkpt lat="46.70036" lon="-0.95546">
        <ele>58</ele>
        <time>2023-06-03T00:22:41Z</time>
      </trkpt>
      <trkpt lat="46.70033" lon="-0.95567">
        <ele>57</ele>
        <time>2023-06-03T00:22:44Z</time>
      </trkpt>
      <trkpt lat="46.70027" lon="-0.9559">
        <ele>57</ele>
        <time>2023-06-03T00:22:47Z</time>
      </trkpt>
      <trkpt lat="46.70012" lon="-0.95627">
        <ele>55</ele>
        <time>2023-06-03T00:22:52Z</time>
      </trkpt>
      <trkpt lat="46.69997" lon="-0.95691">
        <ele>53</ele>
        <time>2023-06-03T00:23:00Z</time>
      </trkpt>
      <trkpt lat="46.69993" lon="-0.95727">
        <ele>52</ele>
        <time>2023-06-03T00:23:04Z</time>
      </trkpt>
      <trkpt lat="46.69993" lon="-0.95733">
        <ele>52</ele>
        <time>2023-06-03T00:23:05Z</time>
      </trkpt>
      <trkpt lat="46.69998" lon="-0.95769">
        <ele>52</ele>
        <time>2023-06-03T00:23:10Z</time>
      </trkpt>
      <trkpt lat="46.70008" lon="-0.95805">
        <ele>53</ele>
        <time>2023-06-03T00:23:14Z</time>
      </trkpt>
      <trkpt lat="46.70078" lon="-0.95978">
        <ele>52</ele>
        <time>2023-06-03T00:23:39Z</time>
      </trkpt>
      <trkpt lat="46.70091" lon="-0.96022">
        <ele>53</ele>
        <time>2023-06-03T00:23:45Z</time>
      </trkpt>
      <trkpt lat="46.70096" lon="-0.96052">
        <ele>54</ele>
        <time>2023-06-03T00:23:49Z</time>
      </trkpt>
      <trkpt lat="46.70097" lon="-0.96082">
        <ele>54</ele>
        <time>2023-06-03T00:23:52Z</time>
      </trkpt>
      <trkpt lat="46.70094" lon="-0.96114">
        <ele>57</ele>
        <time>2023-06-03T00:23:56Z</time>
      </trkpt>
      <trkpt lat="46.70089" lon="-0.96139">
        <ele>59</ele>
        <time>2023-06-03T00:23:59Z</time>
      </trkpt>
      <trkpt lat="46.70074" lon="-0.96194">
        <ele>63</ele>
        <time>2023-06-03T00:24:07Z</time>
      </trkpt>
      <trkpt lat="46.7006" lon="-0.96285">
        <ele>68</ele>
        <time>2023-06-03T00:24:18Z</time>
      </trkpt>
      <trkpt lat="46.70057" lon="-0.96313">
        <ele>70</ele>
        <time>2023-06-03T00:24:21Z</time>
      </trkpt>
      <trkpt lat="46.70054" lon="-0.96369">
        <ele>72</ele>
        <time>2023-06-03T00:24:28Z</time>
      </trkpt>
      <trkpt lat="46.70058" lon="-0.96406">
        <ele>74</ele>
        <time>2023-06-03T00:24:33Z</time>
      </trkpt>
      <trkpt lat="46.70136" lon="-0.96841">
        <ele>81</ele>
        <time>2023-06-03T00:25:28Z</time>
      </trkpt>
      <trkpt lat="46.7014" lon="-0.96858">
        <ele>81</ele>
        <time>2023-06-03T00:25:30Z</time>
      </trkpt>
      <trkpt lat="46.70145" lon="-0.96869">
        <ele>81</ele>
        <time>2023-06-03T00:25:32Z</time>
      </trkpt>
      <trkpt lat="46.70163" lon="-0.96894">
        <ele>81</ele>
        <time>2023-06-03T00:25:36Z</time>
      </trkpt>
      <trkpt lat="46.70234" lon="-0.96969">
        <ele>82</ele>
        <time>2023-06-03T00:25:52Z</time>
      </trkpt>
      <trkpt lat="46.70315" lon="-0.97063">
        <ele>84</ele>
        <time>2023-06-03T00:26:10Z</time>
      </trkpt>
      <trkpt lat="46.70326" lon="-0.97077">
        <ele>85</ele>
        <time>2023-06-03T00:26:13Z</time>
      </trkpt>
      <trkpt lat="46.70344" lon="-0.97105">
        <ele>85</ele>
        <time>2023-06-03T00:26:17Z</time>
      </trkpt>
      <trkpt lat="46.70366" lon="-0.97152">
        <ele>86</ele>
        <time>2023-06-03T00:26:24Z</time>
      </trkpt>
      <trkpt lat="46.70382" lon="-0.97192">
        <ele>87</ele>
        <time>2023-06-03T00:26:30Z</time>
      </trkpt>
      <trkpt lat="46.70384" lon="-0.97202">
        <ele>87</ele>
        <time>2023-06-03T00:26:31Z</time>
      </trkpt>
      <trkpt lat="46.70384" lon="-0.9722">
        <ele>87</ele>
        <time>2023-06-03T00:26:33Z</time>
      </trkpt>
      <trkpt lat="46.70376" lon="-0.97243">
        <ele>87</ele>
        <time>2023-06-03T00:26:36Z</time>
      </trkpt>
      <trkpt lat="46.70359" lon="-0.97266">
        <ele>87</ele>
        <time>2023-06-03T00:26:41Z</time>
      </trkpt>
      <trkpt lat="46.70349" lon="-0.97285">
        <ele>87</ele>
        <time>2023-06-03T00:26:43Z</time>
      </trkpt>
      <trkpt lat="46.70345" lon="-0.97312">
        <ele>87</ele>
        <time>2023-06-03T00:26:47Z</time>
      </trkpt>
      <trkpt lat="46.7034" lon="-0.97365">
        <ele>87</ele>
        <time>2023-06-03T00:26:53Z</time>
      </trkpt>
      <trkpt lat="46.70327" lon="-0.97409">
        <ele>88</ele>
        <time>2023-06-03T00:26:59Z</time>
      </trkpt>
      <trkpt lat="46.70327" lon="-0.97435">
        <ele>88</ele>
        <time>2023-06-03T00:27:02Z</time>
      </trkpt>
      <trkpt lat="46.70333" lon="-0.97477">
        <ele>90</ele>
        <time>2023-06-03T00:27:08Z</time>
      </trkpt>
      <trkpt lat="46.70328" lon="-0.97519">
        <ele>91</ele>
        <time>2023-06-03T00:27:13Z</time>
      </trkpt>
      <trkpt lat="46.70325" lon="-0.97579">
        <ele>93</ele>
        <time>2023-06-03T00:27:20Z</time>
      </trkpt>
      <trkpt lat="46.70323" lon="-0.97589">
        <ele>93</ele>
        <time>2023-06-03T00:27:21Z</time>
      </trkpt>
      <trkpt lat="46.70319" lon="-0.97596">
        <ele>93</ele>
        <time>2023-06-03T00:27:23Z</time>
      </trkpt>
      <trkpt lat="46.70315" lon="-0.97603">
        <ele>93</ele>
        <time>2023-06-03T00:27:24Z</time>
      </trkpt>
      <trkpt lat="46.70291" lon="-0.97626">
        <ele>92</ele>
        <time>2023-06-03T00:27:29Z</time>
      </trkpt>
      <trkpt lat="46.70286" lon="-0.97639">
        <ele>92</ele>
        <time>2023-06-03T00:27:31Z</time>
      </trkpt>
      <trkpt lat="46.70287" lon="-0.97655">
        <ele>93</ele>
        <time>2023-06-03T00:27:33Z</time>
      </trkpt>
      <trkpt lat="46.70291" lon="-0.97669">
        <ele>93</ele>
        <time>2023-06-03T00:27:34Z</time>
      </trkpt>
      <trkpt lat="46.70298" lon="-0.97683">
        <ele>93</ele>
        <time>2023-06-03T00:27:37Z</time>
      </trkpt>
      <trkpt lat="46.70357" lon="-0.97776">
        <ele>95</ele>
        <time>2023-06-03T00:27:52Z</time>
      </trkpt>
      <trkpt lat="46.70363" lon="-0.97789">
        <ele>95</ele>
        <time>2023-06-03T00:27:54Z</time>
      </trkpt>
      <trkpt lat="46.70365" lon="-0.97802">
        <ele>95</ele>
        <time>2023-06-03T00:27:56Z</time>
      </trkpt>
      <trkpt lat="46.70365" lon="-0.97819">
        <ele>95</ele>
        <time>2023-06-03T00:27:58Z</time>
      </trkpt>
      <trkpt lat="46.70362" lon="-0.9785">
        <ele>95</ele>
        <time>2023-06-03T00:28:01Z</time>
      </trkpt>
      <trkpt lat="46.70362" lon="-0.97863">
        <ele>95</ele>
        <time>2023-06-03T00:28:03Z</time>
      </trkpt>
      <trkpt lat="46.70365" lon="-0.97879">
        <ele>94</ele>
        <time>2023-06-03T00:28:05Z</time>
      </trkpt>
      <trkpt lat="46.70383" lon="-0.97933">
        <ele>94</ele>
        <time>2023-06-03T00:28:12Z</time>
      </trkpt>
      <trkpt lat="46.70528" lon="-0.98341">
        <ele>88</ele>
        <time>2023-06-03T00:29:08Z</time>
      </trkpt>
      <trkpt lat="46.70531" lon="-0.98355">
        <ele>88</ele>
        <time>2023-06-03T00:29:10Z</time>
      </trkpt>
      <trkpt lat="46.70532" lon="-0.98369">
        <ele>88</ele>
        <time>2023-06-03T00:29:12Z</time>
      </trkpt>
      <trkpt lat="46.70531" lon="-0.984">
        <ele>88</ele>
        <time>2023-06-03T00:29:16Z</time>
      </trkpt>
      <trkpt lat="46.70537" lon="-0.98436">
        <ele>88</ele>
        <time>2023-06-03T00:29:20Z</time>
      </trkpt>
      <trkpt lat="46.70538" lon="-0.98449">
        <ele>88</ele>
        <time>2023-06-03T00:29:22Z</time>
      </trkpt>
      <trkpt lat="46.70537" lon="-0.98463">
        <ele>87</ele>
        <time>2023-06-03T00:29:24Z</time>
      </trkpt>
      <trkpt lat="46.7052" lon="-0.98513">
        <ele>85</ele>
        <time>2023-06-03T00:29:30Z</time>
      </trkpt>
      <trkpt lat="46.70568" lon="-0.98605">
        <ele>87</ele>
        <time>2023-06-03T00:29:44Z</time>
      </trkpt>
      <trkpt lat="46.70577" lon="-0.98616">
        <ele>87</ele>
        <time>2023-06-03T00:29:47Z</time>
      </trkpt>
      <trkpt lat="46.70593" lon="-0.98643">
        <ele>87</ele>
        <time>2023-06-03T00:29:51Z</time>
      </trkpt>
      <trkpt lat="46.70616" lon="-0.98692">
        <ele>87</ele>
        <time>2023-06-03T00:29:58Z</time>
      </trkpt>
      <trkpt lat="46.70627" lon="-0.98724">
        <ele>87</ele>
        <time>2023-06-03T00:30:03Z</time>
      </trkpt>
      <trkpt lat="46.70634" lon="-0.98757">
        <ele>87</ele>
        <time>2023-06-03T00:30:07Z</time>
      </trkpt>
      <trkpt lat="46.70637" lon="-0.98807">
        <ele>84</ele>
        <time>2023-06-03T00:30:13Z</time>
      </trkpt>
      <trkpt lat="46.70636" lon="-0.98826">
        <ele>83</ele>
        <time>2023-06-03T00:30:15Z</time>
      </trkpt>
      <trkpt lat="46.70634" lon="-0.98835">
        <ele>82</ele>
        <time>2023-06-03T00:30:16Z</time>
      </trkpt>
      <trkpt lat="46.70618" lon="-0.99062">
        <ele>77</ele>
        <time>2023-06-03T00:30:44Z</time>
      </trkpt>
      <trkpt lat="46.70616" lon="-0.99107">
        <ele>76</ele>
        <time>2023-06-03T00:30:50Z</time>
      </trkpt>
      <trkpt lat="46.70617" lon="-0.99137">
        <ele>76</ele>
        <time>2023-06-03T00:30:53Z</time>
      </trkpt>
      <trkpt lat="46.70621" lon="-0.99162">
        <ele>75</ele>
        <time>2023-06-03T00:30:56Z</time>
      </trkpt>
      <trkpt lat="46.70629" lon="-0.99188">
        <ele>75</ele>
        <time>2023-06-03T00:31:00Z</time>
      </trkpt>
      <trkpt lat="46.70651" lon="-0.99241">
        <ele>76</ele>
        <time>2023-06-03T00:31:08Z</time>
      </trkpt>
      <trkpt lat="46.70711" lon="-0.99344">
        <ele>74</ele>
        <time>2023-06-03T00:31:24Z</time>
      </trkpt>
      <trkpt lat="46.7075" lon="-0.99411">
        <ele>73</ele>
        <time>2023-06-03T00:31:35Z</time>
      </trkpt>
      <trkpt lat="46.70764" lon="-0.99445">
        <ele>72</ele>
        <time>2023-06-03T00:31:40Z</time>
      </trkpt>
      <trkpt lat="46.70771" lon="-0.99469">
        <ele>72</ele>
        <time>2023-06-03T00:31:43Z</time>
      </trkpt>
      <trkpt lat="46.70777" lon="-0.99505">
        <ele>71</ele>
        <time>2023-06-03T00:31:47Z</time>
      </trkpt>
      <trkpt lat="46.70778" lon="-0.99541">
        <ele>70</ele>
        <time>2023-06-03T00:31:52Z</time>
      </trkpt>
      <trkpt lat="46.70771" lon="-0.99666">
        <ele>65</ele>
        <time>2023-06-03T00:32:07Z</time>
      </trkpt>
      <trkpt lat="46.70773" lon="-0.99697">
        <ele>64</ele>
        <time>2023-06-03T00:32:11Z</time>
      </trkpt>
      <trkpt lat="46.70789" lon="-0.99861">
        <ele>66</ele>
        <time>2023-06-03T00:32:31Z</time>
      </trkpt>
      <trkpt lat="46.70793" lon="-0.99884">
        <ele>66</ele>
        <time>2023-06-03T00:32:34Z</time>
      </trkpt>
      <trkpt lat="46.70812" lon="-0.99958">
        <ele>67</ele>
        <time>2023-06-03T00:32:44Z</time>
      </trkpt>
      <trkpt lat="46.70821" lon="-1.00008">
        <ele>68</ele>
        <time>2023-06-03T00:32:50Z</time>
      </trkpt>
      <trkpt lat="46.70851" lon="-1.00221">
        <ele>69</ele>
        <time>2023-06-03T00:33:16Z</time>
      </trkpt>
      <trkpt lat="46.7086" lon="-1.00311">
        <ele>70</ele>
        <time>2023-06-03T00:33:27Z</time>
      </trkpt>
      <trkpt lat="46.70865" lon="-1.00349">
        <ele>70</ele>
        <time>2023-06-03T00:33:32Z</time>
      </trkpt>
      <trkpt lat="46.70906" lon="-1.00505">
        <ele>71</ele>
        <time>2023-06-03T00:33:53Z</time>
      </trkpt>
      <trkpt lat="46.70938" lon="-1.00656">
        <ele>72</ele>
        <time>2023-06-03T00:34:12Z</time>
      </trkpt>
      <trkpt lat="46.70948" lon="-1.0068">
        <ele>72</ele>
        <time>2023-06-03T00:34:15Z</time>
      </trkpt>
      <trkpt lat="46.70957" lon="-1.00691">
        <ele>72</ele>
        <time>2023-06-03T00:34:17Z</time>
      </trkpt>
      <trkpt lat="46.70971" lon="-1.00703">
        <ele>72</ele>
        <time>2023-06-03T00:34:20Z</time>
      </trkpt>
      <trkpt lat="46.71232" lon="-1.00878">
        <ele>71</ele>
        <time>2023-06-03T00:35:11Z</time>
      </trkpt>
      <trkpt lat="46.71256" lon="-1.00897">
        <ele>71</ele>
        <time>2023-06-03T00:35:16Z</time>
      </trkpt>
      <trkpt lat="46.71271" lon="-1.00916">
        <ele>72</ele>
        <time>2023-06-03T00:35:20Z</time>
      </trkpt>
      <trkpt lat="46.71287" lon="-1.00942">
        <ele>72</ele>
        <time>2023-06-03T00:35:24Z</time>
      </trkpt>
      <trkpt lat="46.71335" lon="-1.01042">
        <ele>72</ele>
        <time>2023-06-03T00:35:39Z</time>
      </trkpt>
      <trkpt lat="46.714" lon="-1.01229">
        <ele>71</ele>
        <time>2023-06-03T00:36:04Z</time>
      </trkpt>
      <trkpt lat="46.71508" lon="-1.01503">
        <ele>70</ele>
        <time>2023-06-03T00:36:43Z</time>
      </trkpt>
      <trkpt lat="46.71555" lon="-1.01618">
        <ele>68</ele>
        <time>2023-06-03T00:36:59Z</time>
      </trkpt>
      <trkpt lat="46.71566" lon="-1.01637">
        <ele>68</ele>
        <time>2023-06-03T00:37:02Z</time>
      </trkpt>
      <trkpt lat="46.71576" lon="-1.0165">
        <ele>68</ele>
        <time>2023-06-03T00:37:05Z</time>
      </trkpt>
      <trkpt lat="46.71588" lon="-1.01662">
        <ele>68</ele>
        <time>2023-06-03T00:37:07Z</time>
      </trkpt>
      <trkpt lat="46.7163" lon="-1.01685">
        <ele>67</ele>
        <time>2023-06-03T00:37:15Z</time>
      </trkpt>
      <trkpt lat="46.71666" lon="-1.01699">
        <ele>66</ele>
        <time>2023-06-03T00:37:22Z</time>
      </trkpt>
      <trkpt lat="46.71676" lon="-1.01701">
        <ele>65</ele>
        <time>2023-06-03T00:37:24Z</time>
      </trkpt>
      <trkpt lat="46.71681" lon="-1.01696">
        <ele>65</ele>
        <time>2023-06-03T00:37:25Z</time>
      </trkpt>
      <trkpt lat="46.71688" lon="-1.01695">
        <ele>65</ele>
        <time>2023-06-03T00:37:26Z</time>
      </trkpt>
      <trkpt lat="46.71694" lon="-1.01696">
        <ele>65</ele>
        <time>2023-06-03T00:37:27Z</time>
      </trkpt>
      <trkpt lat="46.71699" lon="-1.01699">
        <ele>65</ele>
        <time>2023-06-03T00:37:28Z</time>
      </trkpt>
      <trkpt lat="46.71706" lon="-1.01711">
        <ele>64</ele>
        <time>2023-06-03T00:37:30Z</time>
      </trkpt>
      <trkpt lat="46.71708" lon="-1.01728">
        <ele>64</ele>
        <time>2023-06-03T00:37:32Z</time>
      </trkpt>
      <trkpt lat="46.71719" lon="-1.01741">
        <ele>63</ele>
        <time>2023-06-03T00:37:35Z</time>
      </trkpt>
      <trkpt lat="46.71743" lon="-1.01759">
        <ele>62</ele>
        <time>2023-06-03T00:37:39Z</time>
      </trkpt>
      <trkpt lat="46.71761" lon="-1.01765">
        <ele>62</ele>
        <time>2023-06-03T00:37:43Z</time>
      </trkpt>
      <trkpt lat="46.71837" lon="-1.0181">
        <ele>62</ele>
        <time>2023-06-03T00:37:57Z</time>
      </trkpt>
      <trkpt lat="46.71969" lon="-1.01888">
        <ele>67</ele>
        <time>2023-06-03T00:38:23Z</time>
      </trkpt>
      <trkpt lat="46.71978" lon="-1.01895">
        <ele>68</ele>
        <time>2023-06-03T00:38:25Z</time>
      </trkpt>
      <trkpt lat="46.71992" lon="-1.01921">
        <ele>69</ele>
        <time>2023-06-03T00:38:29Z</time>
      </trkpt>
      <trkpt lat="46.72032" lon="-1.02071">
        <ele>72</ele>
        <time>2023-06-03T00:38:48Z</time>
      </trkpt>
      <trkpt lat="46.72044" lon="-1.02107">
        <ele>73</ele>
        <time>2023-06-03T00:38:53Z</time>
      </trkpt>
      <trkpt lat="46.72067" lon="-1.02151">
        <ele>74</ele>
        <time>2023-06-03T00:39:00Z</time>
      </trkpt>
      <trkpt lat="46.72153" lon="-1.02289">
        <ele>78</ele>
        <time>2023-06-03T00:39:23Z</time>
      </trkpt>
      <trkpt lat="46.72165" lon="-1.02313">
        <ele>79</ele>
        <time>2023-06-03T00:39:26Z</time>
      </trkpt>
      <trkpt lat="46.72185" lon="-1.02345">
        <ele>79</ele>
        <time>2023-06-03T00:39:31Z</time>
      </trkpt>
      <trkpt lat="46.722" lon="-1.02362">
        <ele>80</ele>
        <time>2023-06-03T00:39:35Z</time>
      </trkpt>
      <trkpt lat="46.72227" lon="-1.024">
        <ele>81</ele>
        <time>2023-06-03T00:39:42Z</time>
      </trkpt>
      <trkpt lat="46.7224" lon="-1.02429">
        <ele>81</ele>
        <time>2023-06-03T00:39:46Z</time>
      </trkpt>
      <trkpt lat="46.72306" lon="-1.02587">
        <ele>83</ele>
        <time>2023-06-03T00:40:08Z</time>
      </trkpt>
      <trkpt lat="46.72309" lon="-1.02585">
        <ele>83</ele>
        <time>2023-06-03T00:40:09Z</time>
      </trkpt>
      <trkpt lat="46.72323" lon="-1.02623">
        <ele>83</ele>
        <time>2023-06-03T00:40:14Z</time>
      </trkpt>
      <trkpt lat="46.72331" lon="-1.02651">
        <ele>83</ele>
        <time>2023-06-03T00:40:18Z</time>
      </trkpt>
      <trkpt lat="46.72338" lon="-1.02661">
        <ele>83</ele>
        <time>2023-06-03T00:40:20Z</time>
      </trkpt>
      <trkpt lat="46.72352" lon="-1.02729">
        <ele>84</ele>
        <time>2023-06-03T00:40:28Z</time>
      </trkpt>
      <trkpt lat="46.72367" lon="-1.02824">
        <ele>85</ele>
        <time>2023-06-03T00:40:40Z</time>
      </trkpt>
      <trkpt lat="46.72372" lon="-1.02837">
        <ele>84</ele>
        <time>2023-06-03T00:40:42Z</time>
      </trkpt>
      <trkpt lat="46.72393" lon="-1.02861">
        <ele>84</ele>
        <time>2023-06-03T00:40:47Z</time>
      </trkpt>
      <trkpt lat="46.72396" lon="-1.02868">
        <ele>84</ele>
        <time>2023-06-03T00:40:48Z</time>
      </trkpt>
      <trkpt lat="46.72407" lon="-1.02858">
        <ele>84</ele>
        <time>2023-06-03T00:40:50Z</time>
      </trkpt>
      <trkpt lat="46.72422" lon="-1.02852">
        <ele>84</ele>
        <time>2023-06-03T00:40:53Z</time>
      </trkpt>
      <trkpt lat="46.72613" lon="-1.02824">
        <ele>86</ele>
        <time>2023-06-03T00:41:27Z</time>
      </trkpt>
      <trkpt lat="46.72675" lon="-1.0282">
        <ele>87</ele>
        <time>2023-06-03T00:41:38Z</time>
      </trkpt>
      <trkpt lat="46.7276" lon="-1.02824">
        <ele>88</ele>
        <time>2023-06-03T00:41:53Z</time>
      </trkpt>
      <trkpt lat="46.72795" lon="-1.0283">
        <ele>89</ele>
        <time>2023-06-03T00:41:59Z</time>
      </trkpt>
      <trkpt lat="46.73004" lon="-1.0294">
        <ele>88</ele>
        <time>2023-06-03T00:42:39Z</time>
      </trkpt>
      <trkpt lat="46.73023" lon="-1.02946">
        <ele>88</ele>
        <time>2023-06-03T00:42:42Z</time>
      </trkpt>
      <trkpt lat="46.73037" lon="-1.02943">
        <ele>88</ele>
        <time>2023-06-03T00:42:45Z</time>
      </trkpt>
      <trkpt lat="46.73064" lon="-1.02925">
        <ele>88</ele>
        <time>2023-06-03T00:42:50Z</time>
      </trkpt>
      <trkpt lat="46.73083" lon="-1.02917">
        <ele>88</ele>
        <time>2023-06-03T00:42:54Z</time>
      </trkpt>
      <trkpt lat="46.73221" lon="-1.02933">
        <ele>84</ele>
        <time>2023-06-03T00:43:18Z</time>
      </trkpt>
      <trkpt lat="46.73287" lon="-1.02953">
        <ele>83</ele>
        <time>2023-06-03T00:43:30Z</time>
      </trkpt>
      <trkpt lat="46.73313" lon="-1.02958">
        <ele>83</ele>
        <time>2023-06-03T00:43:35Z</time>
      </trkpt>
      <trkpt lat="46.73363" lon="-1.02949">
        <ele>82</ele>
        <time>2023-06-03T00:43:44Z</time>
      </trkpt>
      <trkpt lat="46.73404" lon="-1.02943">
        <ele>82</ele>
        <time>2023-06-03T00:43:51Z</time>
      </trkpt>
      <trkpt lat="46.73544" lon="-1.02943">
        <ele>83</ele>
        <time>2023-06-03T00:44:16Z</time>
      </trkpt>
      <trkpt lat="46.73645" lon="-1.02943">
        <ele>85</ele>
        <time>2023-06-03T00:44:34Z</time>
      </trkpt>
      <trkpt lat="46.73671" lon="-1.0294">
        <ele>86</ele>
        <time>2023-06-03T00:44:39Z</time>
      </trkpt>
      <trkpt lat="46.73749" lon="-1.0292">
        <ele>89</ele>
        <time>2023-06-03T00:44:53Z</time>
      </trkpt>
      <trkpt lat="46.73867" lon="-1.02896">
        <ele>85</ele>
        <time>2023-06-03T00:45:14Z</time>
      </trkpt>
      <trkpt lat="46.73938" lon="-1.02873">
        <ele>83</ele>
        <time>2023-06-03T00:45:27Z</time>
      </trkpt>
      <trkpt lat="46.7396" lon="-1.02869">
        <ele>83</ele>
        <time>2023-06-03T00:45:31Z</time>
      </trkpt>
      <trkpt lat="46.73996" lon="-1.02873">
        <ele>82</ele>
        <time>2023-06-03T00:45:37Z</time>
      </trkpt>
      <trkpt lat="46.74025" lon="-1.02868">
        <ele>83</ele>
        <time>2023-06-03T00:45:43Z</time>
      </trkpt>
      <trkpt lat="46.74113" lon="-1.02812">
        <ele>83</ele>
        <time>2023-06-03T00:46:00Z</time>
      </trkpt>
      <trkpt lat="46.74143" lon="-1.028">
        <ele>82</ele>
        <time>2023-06-03T00:46:05Z</time>
      </trkpt>
      <trkpt lat="46.74317" lon="-1.02745">
        <ele>77</ele>
        <time>2023-06-03T00:46:37Z</time>
      </trkpt>
      <trkpt lat="46.74333" lon="-1.02735">
        <ele>78</ele>
        <time>2023-06-03T00:46:40Z</time>
      </trkpt>
      <trkpt lat="46.74352" lon="-1.02708">
        <ele>78</ele>
        <time>2023-06-03T00:46:45Z</time>
      </trkpt>
      <trkpt lat="46.74382" lon="-1.02643">
        <ele>78</ele>
        <time>2023-06-03T00:46:54Z</time>
      </trkpt>
      <trkpt lat="46.74411" lon="-1.02606">
        <ele>77</ele>
        <time>2023-06-03T00:47:01Z</time>
      </trkpt>
      <trkpt lat="46.74424" lon="-1.02577">
        <ele>77</ele>
        <time>2023-06-03T00:47:05Z</time>
      </trkpt>
      <trkpt lat="46.74463" lon="-1.02413">
        <ele>77</ele>
        <time>2023-06-03T00:47:27Z</time>
      </trkpt>
      <trkpt lat="46.74476" lon="-1.02385">
        <ele>77</ele>
        <time>2023-06-03T00:47:31Z</time>
      </trkpt>
      <trkpt lat="46.74502" lon="-1.02357">
        <ele>77</ele>
        <time>2023-06-03T00:47:36Z</time>
      </trkpt>
      <trkpt lat="46.74524" lon="-1.02327">
        <ele>78</ele>
        <time>2023-06-03T00:47:42Z</time>
      </trkpt>
      <trkpt lat="46.74539" lon="-1.02301">
        <ele>78</ele>
        <time>2023-06-03T00:47:46Z</time>
      </trkpt>
      <trkpt lat="46.74599" lon="-1.02154">
        <ele>81</ele>
        <time>2023-06-03T00:48:07Z</time>
      </trkpt>
      <trkpt lat="46.74703" lon="-1.01909">
        <ele>85</ele>
        <time>2023-06-03T00:48:42Z</time>
      </trkpt>
      <trkpt lat="46.74718" lon="-1.01888">
        <ele>86</ele>
        <time>2023-06-03T00:48:46Z</time>
      </trkpt>
      <trkpt lat="46.74789" lon="-1.01843">
        <ele>88</ele>
        <time>2023-06-03T00:48:59Z</time>
      </trkpt>
      <trkpt lat="46.74865" lon="-1.01772">
        <ele>90</ele>
        <time>2023-06-03T00:49:15Z</time>
      </trkpt>
      <trkpt lat="46.74879" lon="-1.01762">
        <ele>90</ele>
        <time>2023-06-03T00:49:18Z</time>
      </trkpt>
      <trkpt lat="46.74894" lon="-1.01758">
        <ele>91</ele>
        <time>2023-06-03T00:49:21Z</time>
      </trkpt>
      <trkpt lat="46.74952" lon="-1.01758">
        <ele>91</ele>
        <time>2023-06-03T00:49:31Z</time>
      </trkpt>
      <trkpt lat="46.74992" lon="-1.01752">
        <ele>92</ele>
        <time>2023-06-03T00:49:38Z</time>
      </trkpt>
      <trkpt lat="46.75029" lon="-1.01737">
        <ele>92</ele>
        <time>2023-06-03T00:49:45Z</time>
      </trkpt>
      <trkpt lat="46.75087" lon="-1.01706">
        <ele>93</ele>
        <time>2023-06-03T00:49:56Z</time>
      </trkpt>
      <trkpt lat="46.75173" lon="-1.01693">
        <ele>94</ele>
        <time>2023-06-03T00:50:12Z</time>
      </trkpt>
      <trkpt lat="46.75221" lon="-1.01681">
        <ele>95</ele>
        <time>2023-06-03T00:50:20Z</time>
      </trkpt>
      <trkpt lat="46.75247" lon="-1.01664">
        <ele>95</ele>
        <time>2023-06-03T00:50:25Z</time>
      </trkpt>
      <trkpt lat="46.75452" lon="-1.01555">
        <ele>93</ele>
        <time>2023-06-03T00:51:04Z</time>
      </trkpt>
      <trkpt lat="46.7552" lon="-1.01525">
        <ele>92</ele>
        <time>2023-06-03T00:51:17Z</time>
      </trkpt>
      <trkpt lat="46.7559" lon="-1.01482">
        <ele>90</ele>
        <time>2023-06-03T00:51:30Z</time>
      </trkpt>
      <trkpt lat="46.75698" lon="-1.01463">
        <ele>86</ele>
        <time>2023-06-03T00:51:50Z</time>
      </trkpt>
      <trkpt lat="46.75736" lon="-1.0146">
        <ele>85</ele>
        <time>2023-06-03T00:51:56Z</time>
      </trkpt>
      <trkpt lat="46.75756" lon="-1.01468">
        <ele>84</ele>
        <time>2023-06-03T00:52:00Z</time>
      </trkpt>
      <trkpt lat="46.75878" lon="-1.01547">
        <ele>82</ele>
        <time>2023-06-03T00:52:24Z</time>
      </trkpt>
      <trkpt lat="46.75934" lon="-1.01567">
        <ele>82</ele>
        <time>2023-06-03T00:52:34Z</time>
      </trkpt>
      <trkpt lat="46.75969" lon="-1.01586">
        <ele>82</ele>
        <time>2023-06-03T00:52:41Z</time>
      </trkpt>
      <trkpt lat="46.7604" lon="-1.01645">
        <ele>82</ele>
        <time>2023-06-03T00:52:55Z</time>
      </trkpt>
      <trkpt lat="46.76081" lon="-1.01666">
        <ele>82</ele>
        <time>2023-06-03T00:53:03Z</time>
      </trkpt>
      <trkpt lat="46.76152" lon="-1.01692">
        <ele>84</ele>
        <time>2023-06-03T00:53:16Z</time>
      </trkpt>
      <trkpt lat="46.76272" lon="-1.01693">
        <ele>88</ele>
        <time>2023-06-03T00:53:37Z</time>
      </trkpt>
      <trkpt lat="46.76302" lon="-1.01696">
        <ele>90</ele>
        <time>2023-06-03T00:53:43Z</time>
      </trkpt>
      <trkpt lat="46.76323" lon="-1.01707">
        <ele>91</ele>
        <time>2023-06-03T00:53:47Z</time>
      </trkpt>
      <trkpt lat="46.76358" lon="-1.01727">
        <ele>93</ele>
        <time>2023-06-03T00:53:53Z</time>
      </trkpt>
      <trkpt lat="46.76444" lon="-1.01771">
        <ele>97</ele>
        <time>2023-06-03T00:54:10Z</time>
      </trkpt>
      <trkpt lat="46.76582" lon="-1.01851">
        <ele>104</ele>
        <time>2023-06-03T00:54:36Z</time>
      </trkpt>
      <trkpt lat="46.76656" lon="-1.019">
        <ele>104</ele>
        <time>2023-06-03T00:54:51Z</time>
      </trkpt>
      <trkpt lat="46.7675" lon="-1.01934">
        <ele>106</ele>
        <time>2023-06-03T00:55:08Z</time>
      </trkpt>
      <trkpt lat="46.76786" lon="-1.01943">
        <ele>106</ele>
        <time>2023-06-03T00:55:14Z</time>
      </trkpt>
      <trkpt lat="46.76817" lon="-1.01942">
        <ele>106</ele>
        <time>2023-06-03T00:55:20Z</time>
      </trkpt>
      <trkpt lat="46.76878" lon="-1.01928">
        <ele>106</ele>
        <time>2023-06-03T00:55:31Z</time>
      </trkpt>
      <trkpt lat="46.77005" lon="-1.01893">
        <ele>107</ele>
        <time>2023-06-03T00:55:54Z</time>
      </trkpt>
      <trkpt lat="46.77052" lon="-1.01864">
        <ele>106</ele>
        <time>2023-06-03T00:56:03Z</time>
      </trkpt>
      <trkpt lat="46.77097" lon="-1.01843">
        <ele>105</ele>
        <time>2023-06-03T00:56:11Z</time>
      </trkpt>
      <trkpt lat="46.77126" lon="-1.01835">
        <ele>104</ele>
        <time>2023-06-03T00:56:16Z</time>
      </trkpt>
      <trkpt lat="46.77183" lon="-1.01835">
        <ele>102</ele>
        <time>2023-06-03T00:56:27Z</time>
      </trkpt>
      <trkpt lat="46.77349" lon="-1.01774">
        <ele>94</ele>
        <time>2023-06-03T00:56:57Z</time>
      </trkpt>
      <trkpt lat="46.77526" lon="-1.01646">
        <ele>89</ele>
        <time>2023-06-03T00:57:32Z</time>
      </trkpt>
      <trkpt lat="46.77627" lon="-1.01545">
        <ele>88</ele>
        <time>2023-06-03T00:57:54Z</time>
      </trkpt>
      <trkpt lat="46.77666" lon="-1.01489">
        <ele>89</ele>
        <time>2023-06-03T00:58:04Z</time>
      </trkpt>
      <trkpt lat="46.77701" lon="-1.01416">
        <ele>92</ele>
        <time>2023-06-03T00:58:15Z</time>
      </trkpt>
      <trkpt lat="46.77727" lon="-1.01345">
        <ele>95</ele>
        <time>2023-06-03T00:58:24Z</time>
      </trkpt>
      <trkpt lat="46.77729" lon="-1.01311">
        <ele>96</ele>
        <time>2023-06-03T00:58:29Z</time>
      </trkpt>
      <trkpt lat="46.77724" lon="-1.01223">
        <ele>98</ele>
        <time>2023-06-03T00:58:39Z</time>
      </trkpt>
      <trkpt lat="46.77712" lon="-1.01109">
        <ele>99</ele>
        <time>2023-06-03T00:58:53Z</time>
      </trkpt>
      <trkpt lat="46.77697" lon="-1.01014">
        <ele>100</ele>
        <time>2023-06-03T00:59:05Z</time>
      </trkpt>
      <trkpt lat="46.77701" lon="-1.00991">
        <ele>100</ele>
        <time>2023-06-03T00:59:08Z</time>
      </trkpt>
      <trkpt lat="46.77708" lon="-1.00975">
        <ele>101</ele>
        <time>2023-06-03T00:59:10Z</time>
      </trkpt>
      <trkpt lat="46.77728" lon="-1.0096">
        <ele>103</ele>
        <time>2023-06-03T00:59:14Z</time>
      </trkpt>
      <trkpt lat="46.7778" lon="-1.00938">
        <ele>107</ele>
        <time>2023-06-03T00:59:24Z</time>
      </trkpt>
      <trkpt lat="46.77815" lon="-1.00918">
        <ele>108</ele>
        <time>2023-06-03T00:59:31Z</time>
      </trkpt>
      <trkpt lat="46.7785" lon="-1.00908">
        <ele>109</ele>
        <time>2023-06-03T00:59:37Z</time>
      </trkpt>
      <trkpt lat="46.77873" lon="-1.00894">
        <ele>109</ele>
        <time>2023-06-03T00:59:42Z</time>
      </trkpt>
      <trkpt lat="46.77895" lon="-1.00869">
        <ele>108</ele>
        <time>2023-06-03T00:59:47Z</time>
      </trkpt>
      <trkpt lat="46.77928" lon="-1.00799">
        <ele>108</ele>
        <time>2023-06-03T00:59:57Z</time>
      </trkpt>
      <trkpt lat="46.78005" lon="-1.00685">
        <ele>103</ele>
        <time>2023-06-03T01:00:16Z</time>
      </trkpt>
      <trkpt lat="46.78017" lon="-1.00661">
        <ele>102</ele>
        <time>2023-06-03T01:00:20Z</time>
      </trkpt>
      <trkpt lat="46.78048" lon="-1.00538">
        <ele>97</ele>
        <time>2023-06-03T01:00:36Z</time>
      </trkpt>
      <trkpt lat="46.78071" lon="-1.00491">
        <ele>93</ele>
        <time>2023-06-03T01:00:43Z</time>
      </trkpt>
      <trkpt lat="46.78089" lon="-1.00474">
        <ele>92</ele>
        <time>2023-06-03T01:00:47Z</time>
      </trkpt>
      <trkpt lat="46.78102" lon="-1.00467">
        <ele>92</ele>
        <time>2023-06-03T01:00:49Z</time>
      </trkpt>
      <trkpt lat="46.78173" lon="-1.00454">
        <ele>94</ele>
        <time>2023-06-03T01:01:02Z</time>
      </trkpt>
      <trkpt lat="46.78234" lon="-1.0041">
        <ele>99</ele>
        <time>2023-06-03T01:01:14Z</time>
      </trkpt>
      <trkpt lat="46.78259" lon="-1.0038">
        <ele>102</ele>
        <time>2023-06-03T01:01:20Z</time>
      </trkpt>
      <trkpt lat="46.78294" lon="-1.00298">
        <ele>105</ele>
        <time>2023-06-03T01:01:32Z</time>
      </trkpt>
      <trkpt lat="46.7831" lon="-1.00267">
        <ele>106</ele>
        <time>2023-06-03T01:01:36Z</time>
      </trkpt>
      <trkpt lat="46.78329" lon="-1.00242">
        <ele>107</ele>
        <time>2023-06-03T01:01:41Z</time>
      </trkpt>
      <trkpt lat="46.78353" lon="-1.00217">
        <ele>107</ele>
        <time>2023-06-03T01:01:46Z</time>
      </trkpt>
      <trkpt lat="46.78407" lon="-1.00186">
        <ele>108</ele>
        <time>2023-06-03T01:01:57Z</time>
      </trkpt>
      <trkpt lat="46.78454" lon="-1.00158">
        <ele>106</ele>
        <time>2023-06-03T01:02:06Z</time>
      </trkpt>
      <trkpt lat="46.7859" lon="-1.00002">
        <ele>100</ele>
        <time>2023-06-03T01:02:36Z</time>
      </trkpt>
      <trkpt lat="46.78695" lon="-0.99946">
        <ele>95</ele>
        <time>2023-06-03T01:02:56Z</time>
      </trkpt>
      <trkpt lat="46.78823" lon="-0.99842">
        <ele>97</ele>
        <time>2023-06-03T01:03:22Z</time>
      </trkpt>
      <trkpt lat="46.78853" lon="-0.99833">
        <ele>98</ele>
        <time>2023-06-03T01:03:28Z</time>
      </trkpt>
      <trkpt lat="46.78945" lon="-0.99818">
        <ele>101</ele>
        <time>2023-06-03T01:03:44Z</time>
      </trkpt>
      <trkpt lat="46.78945" lon="-0.99813">
        <ele>101</ele>
        <time>2023-06-03T01:03:45Z</time>
      </trkpt>
      <trkpt lat="46.78988" lon="-0.99832">
        <ele>101</ele>
        <time>2023-06-03T01:03:53Z</time>
      </trkpt>
      <trkpt lat="46.79019" lon="-0.99855">
        <ele>101</ele>
        <time>2023-06-03T01:03:59Z</time>
      </trkpt>
      <trkpt lat="46.79039" lon="-0.99877">
        <ele>100</ele>
        <time>2023-06-03T01:04:03Z</time>
      </trkpt>
      <trkpt lat="46.79072" lon="-0.99921">
        <ele>100</ele>
        <time>2023-06-03T01:04:11Z</time>
      </trkpt>
      <trkpt lat="46.79096" lon="-0.99957">
        <ele>99</ele>
        <time>2023-06-03T01:04:18Z</time>
      </trkpt>
      <trkpt lat="46.79166" lon="-1.00037">
        <ele>98</ele>
        <time>2023-06-03T01:04:33Z</time>
      </trkpt>
      <trkpt lat="46.79221" lon="-1.00069">
        <ele>98</ele>
        <time>2023-06-03T01:04:44Z</time>
      </trkpt>
      <trkpt lat="46.79239" lon="-1.00088">
        <ele>97</ele>
        <time>2023-06-03T01:04:48Z</time>
      </trkpt>
      <trkpt lat="46.79287" lon="-1.00166">
        <ele>97</ele>
        <time>2023-06-03T01:05:01Z</time>
      </trkpt>
      <trkpt lat="46.79323" lon="-1.00215">
        <ele>96</ele>
        <time>2023-06-03T01:05:09Z</time>
      </trkpt>
      <trkpt lat="46.79426" lon="-1.00315">
        <ele>86</ele>
        <time>2023-06-03T01:05:31Z</time>
      </trkpt>
      <trkpt lat="46.7948" lon="-1.00371">
        <ele>86</ele>
        <time>2023-06-03T01:05:43Z</time>
      </trkpt>
      <trkpt lat="46.79494" lon="-1.0039">
        <ele>86</ele>
        <time>2023-06-03T01:05:47Z</time>
      </trkpt>
      <trkpt lat="46.79538" lon="-1.00471">
        <ele>88</ele>
        <time>2023-06-03T01:05:59Z</time>
      </trkpt>
      <trkpt lat="46.79612" lon="-1.00573">
        <ele>89</ele>
        <time>2023-06-03T01:06:17Z</time>
      </trkpt>
      <trkpt lat="46.79626" lon="-1.00599">
        <ele>89</ele>
        <time>2023-06-03T01:06:21Z</time>
      </trkpt>
      <trkpt lat="46.7966" lon="-1.00712">
        <ele>86</ele>
        <time>2023-06-03T01:06:36Z</time>
      </trkpt>
      <trkpt lat="46.79713" lon="-1.00809">
        <ele>80</ele>
        <time>2023-06-03T01:06:51Z</time>
      </trkpt>
      <trkpt lat="46.79719" lon="-1.0082">
        <ele>80</ele>
        <time>2023-06-03T01:06:53Z</time>
      </trkpt>
      <trkpt lat="46.79826" lon="-1.01008">
        <ele>90</ele>
        <time>2023-06-03T01:07:23Z</time>
      </trkpt>
      <trkpt lat="46.79855" lon="-1.01053">
        <ele>91</ele>
        <time>2023-06-03T01:07:30Z</time>
      </trkpt>
      <trkpt lat="46.79938" lon="-1.01116">
        <ele>93</ele>
        <time>2023-06-03T01:07:47Z</time>
      </trkpt>
      <trkpt lat="46.79984" lon="-1.01133">
        <ele>95</ele>
        <time>2023-06-03T01:07:56Z</time>
      </trkpt>
      <trkpt lat="46.8002" lon="-1.01133">
        <ele>97</ele>
        <time>2023-06-03T01:08:02Z</time>
      </trkpt>
      <trkpt lat="46.80069" lon="-1.01154">
        <ele>98</ele>
        <time>2023-06-03T01:08:11Z</time>
      </trkpt>
      <trkpt lat="46.80208" lon="-1.01274">
        <ele>96</ele>
        <time>2023-06-03T01:08:40Z</time>
      </trkpt>
      <trkpt lat="46.80239" lon="-1.01334">
        <ele>98</ele>
        <time>2023-06-03T01:08:49Z</time>
      </trkpt>
      <trkpt lat="46.80286" lon="-1.01452">
        <ele>102</ele>
        <time>2023-06-03T01:09:06Z</time>
      </trkpt>
      <trkpt lat="46.80323" lon="-1.01529">
        <ele>103</ele>
        <time>2023-06-03T01:09:17Z</time>
      </trkpt>
      <trkpt lat="46.80455" lon="-1.01617">
        <ele>104</ele>
        <time>2023-06-03T01:09:43Z</time>
      </trkpt>
      <trkpt lat="46.80645" lon="-1.01728">
        <ele>109</ele>
        <time>2023-06-03T01:10:19Z</time>
      </trkpt>
      <trkpt lat="46.80671" lon="-1.01753">
        <ele>110</ele>
        <time>2023-06-03T01:10:25Z</time>
      </trkpt>
      <trkpt lat="46.80684" lon="-1.01769">
        <ele>110</ele>
        <time>2023-06-03T01:10:28Z</time>
      </trkpt>
      <trkpt lat="46.80693" lon="-1.01784">
        <ele>111</ele>
        <time>2023-06-03T01:10:30Z</time>
      </trkpt>
      <trkpt lat="46.80708" lon="-1.01831">
        <ele>111</ele>
        <time>2023-06-03T01:10:37Z</time>
      </trkpt>
      <trkpt lat="46.80747" lon="-1.01975">
        <ele>112</ele>
        <time>2023-06-03T01:10:55Z</time>
      </trkpt>
      <trkpt lat="46.80756" lon="-1.02001">
        <ele>112</ele>
        <time>2023-06-03T01:10:59Z</time>
      </trkpt>
      <trkpt lat="46.80766" lon="-1.02019">
        <ele>112</ele>
        <time>2023-06-03T01:11:02Z</time>
      </trkpt>
      <trkpt lat="46.8078" lon="-1.02034">
        <ele>113</ele>
        <time>2023-06-03T01:11:05Z</time>
      </trkpt>
      <trkpt lat="46.80814" lon="-1.02052">
        <ele>113</ele>
        <time>2023-06-03T01:11:11Z</time>
      </trkpt>
      <trkpt lat="46.80826" lon="-1.02059">
        <ele>114</ele>
        <time>2023-06-03T01:11:14Z</time>
      </trkpt>
      <trkpt lat="46.80834" lon="-1.02068">
        <ele>114</ele>
        <time>2023-06-03T01:11:15Z</time>
      </trkpt>
      <trkpt lat="46.80855" lon="-1.02102">
        <ele>114</ele>
        <time>2023-06-03T01:11:21Z</time>
      </trkpt>
      <trkpt lat="46.80863" lon="-1.02123">
        <ele>114</ele>
        <time>2023-06-03T01:11:24Z</time>
      </trkpt>
      <trkpt lat="46.80901" lon="-1.02193">
        <ele>115</ele>
        <time>2023-06-03T01:11:35Z</time>
      </trkpt>
      <trkpt lat="46.80911" lon="-1.02206">
        <ele>114</ele>
        <time>2023-06-03T01:11:37Z</time>
      </trkpt>
      <trkpt lat="46.80927" lon="-1.02216">
        <ele>115</ele>
        <time>2023-06-03T01:11:40Z</time>
      </trkpt>
      <trkpt lat="46.80992" lon="-1.02231">
        <ele>116</ele>
        <time>2023-06-03T01:11:52Z</time>
      </trkpt>
      <trkpt lat="46.80996" lon="-1.02233">
        <ele>116</ele>
        <time>2023-06-03T01:11:53Z</time>
      </trkpt>
      <trkpt lat="46.81054" lon="-1.02117">
        <ele>117</ele>
        <time>2023-06-03T01:12:10Z</time>
      </trkpt>
      <trkpt lat="46.81093" lon="-1.02041">
        <ele>119</ele>
        <time>2023-06-03T01:12:22Z</time>
      </trkpt>
      <trkpt lat="46.81106" lon="-1.02018">
        <ele>119</ele>
        <time>2023-06-03T01:12:25Z</time>
      </trkpt>
      <trkpt lat="46.81117" lon="-1.02005">
        <ele>119</ele>
        <time>2023-06-03T01:12:28Z</time>
      </trkpt>
      <trkpt lat="46.81142" lon="-1.01982">
        <ele>119</ele>
        <time>2023-06-03T01:12:33Z</time>
      </trkpt>
      <trkpt lat="46.81164" lon="-1.0197">
        <ele>120</ele>
        <time>2023-06-03T01:12:37Z</time>
      </trkpt>
      <trkpt lat="46.81176" lon="-1.01966">
        <ele>120</ele>
        <time>2023-06-03T01:12:40Z</time>
      </trkpt>
      <trkpt lat="46.81316" lon="-1.01944">
        <ele>118</ele>
        <time>2023-06-03T01:13:05Z</time>
      </trkpt>
      <trkpt lat="46.81348" lon="-1.01942">
        <ele>117</ele>
        <time>2023-06-03T01:13:10Z</time>
      </trkpt>
      <trkpt lat="46.81365" lon="-1.01945">
        <ele>117</ele>
        <time>2023-06-03T01:13:13Z</time>
      </trkpt>
      <trkpt lat="46.81453" lon="-1.01978">
        <ele>117</ele>
        <time>2023-06-03T01:13:29Z</time>
      </trkpt>
      <trkpt lat="46.81469" lon="-1.01979">
        <ele>117</ele>
        <time>2023-06-03T01:13:32Z</time>
      </trkpt>
      <trkpt lat="46.81483" lon="-1.01977">
        <ele>117</ele>
        <time>2023-06-03T01:13:35Z</time>
      </trkpt>
      <trkpt lat="46.81506" lon="-1.01967">
        <ele>117</ele>
        <time>2023-06-03T01:13:39Z</time>
      </trkpt>
      <trkpt lat="46.81539" lon="-1.01936">
        <ele>116</ele>
        <time>2023-06-03T01:13:46Z</time>
      </trkpt>
      <trkpt lat="46.81719" lon="-1.0174">
        <ele>114</ele>
        <time>2023-06-03T01:14:26Z</time>
      </trkpt>
      <trkpt lat="46.81783" lon="-1.01678">
        <ele>114</ele>
        <time>2023-06-03T01:14:40Z</time>
      </trkpt>
      <trkpt lat="46.82172" lon="-1.01403">
        <ele>119</ele>
        <time>2023-06-03T01:15:57Z</time>
      </trkpt>
      <trkpt lat="46.82206" lon="-1.01384">
        <ele>121</ele>
        <time>2023-06-03T01:16:03Z</time>
      </trkpt>
      <trkpt lat="46.82236" lon="-1.01372">
        <ele>122</ele>
        <time>2023-06-03T01:16:09Z</time>
      </trkpt>
      <trkpt lat="46.826" lon="-1.01214">
        <ele>119</ele>
        <time>2023-06-03T01:17:16Z</time>
      </trkpt>
      <trkpt lat="46.82631" lon="-1.01197">
        <ele>119</ele>
        <time>2023-06-03T01:17:22Z</time>
      </trkpt>
      <trkpt lat="46.82659" lon="-1.0117">
        <ele>118</ele>
        <time>2023-06-03T01:17:28Z</time>
      </trkpt>
      <trkpt lat="46.82859" lon="-1.00936">
        <ele>120</ele>
        <time>2023-06-03T01:18:14Z</time>
      </trkpt>
      <trkpt lat="46.82873" lon="-1.00913">
        <ele>121</ele>
        <time>2023-06-03T01:18:17Z</time>
      </trkpt>
      <trkpt lat="46.82898" lon="-1.00868">
        <ele>121</ele>
        <time>2023-06-03T01:18:24Z</time>
      </trkpt>
      <trkpt lat="46.82972" lon="-1.00722">
        <ele>121</ele>
        <time>2023-06-03T01:18:47Z</time>
      </trkpt>
      <trkpt lat="46.82987" lon="-1.00695">
        <ele>121</ele>
        <time>2023-06-03T01:18:51Z</time>
      </trkpt>
      <trkpt lat="46.83004" lon="-1.00668">
        <ele>121</ele>
        <time>2023-06-03T01:18:55Z</time>
      </trkpt>
      <trkpt lat="46.83025" lon="-1.00646">
        <ele>120</ele>
        <time>2023-06-03T01:19:00Z</time>
      </trkpt>
      <trkpt lat="46.83104" lon="-1.00575">
        <ele>120</ele>
        <time>2023-06-03T01:19:16Z</time>
      </trkpt>
      <trkpt lat="46.83142" lon="-1.00545">
        <ele>121</ele>
        <time>2023-06-03T01:19:24Z</time>
      </trkpt>
      <trkpt lat="46.83178" lon="-1.00524">
        <ele>122</ele>
        <time>2023-06-03T01:19:31Z</time>
      </trkpt>
      <trkpt lat="46.83255" lon="-1.00491">
        <ele>124</ele>
        <time>2023-06-03T01:19:45Z</time>
      </trkpt>
      <trkpt lat="46.83289" lon="-1.00467">
        <ele>125</ele>
        <time>2023-06-03T01:19:52Z</time>
      </trkpt>
      <trkpt lat="46.83304" lon="-1.00453">
        <ele>126</ele>
        <time>2023-06-03T01:19:55Z</time>
      </trkpt>
      <trkpt lat="46.83312" lon="-1.00429">
        <ele>126</ele>
        <time>2023-06-03T01:19:58Z</time>
      </trkpt>
      <trkpt lat="46.83315" lon="-1.00398">
        <ele>126</ele>
        <time>2023-06-03T01:20:02Z</time>
      </trkpt>
      <trkpt lat="46.83313" lon="-1.00376">
        <ele>126</ele>
        <time>2023-06-03T01:20:05Z</time>
      </trkpt>
      <trkpt lat="46.83326" lon="-1.00377">
        <ele>126</ele>
        <time>2023-06-03T01:20:07Z</time>
      </trkpt>
      <trkpt lat="46.83506" lon="-1.00398">
        <ele>127</ele>
        <time>2023-06-03T01:20:39Z</time>
      </trkpt>
      <trkpt lat="46.83613" lon="-1.00403">
        <ele>129</ele>
        <time>2023-06-03T01:20:58Z</time>
      </trkpt>
      <trkpt lat="46.84446" lon="-1.00468">
        <ele>113</ele>
        <time>2023-06-03T01:23:27Z</time>
      </trkpt>
      <trkpt lat="46.84473" lon="-1.0046">
        <ele>112</ele>
        <time>2023-06-03T01:23:32Z</time>
      </trkpt>
      <trkpt lat="46.84477" lon="-1.00454">
        <ele>112</ele>
        <time>2023-06-03T01:23:33Z</time>
      </trkpt>
      <trkpt lat="46.84486" lon="-1.0045">
        <ele>111</ele>
        <time>2023-06-03T01:23:34Z</time>
      </trkpt>
      <trkpt lat="46.84496" lon="-1.00454">
        <ele>111</ele>
        <time>2023-06-03T01:23:36Z</time>
      </trkpt>
      <trkpt lat="46.84501" lon="-1.00463">
        <ele>111</ele>
        <time>2023-06-03T01:23:38Z</time>
      </trkpt>
      <trkpt lat="46.84532" lon="-1.00471">
        <ele>111</ele>
        <time>2023-06-03T01:23:43Z</time>
      </trkpt>
      <trkpt lat="46.84571" lon="-1.00469">
        <ele>111</ele>
        <time>2023-06-03T01:23:50Z</time>
      </trkpt>
      <trkpt lat="46.84625" lon="-1.00458">
        <ele>112</ele>
        <time>2023-06-03T01:24:00Z</time>
      </trkpt>
      <trkpt lat="46.84738" lon="-1.0042">
        <ele>116</ele>
        <time>2023-06-03T01:24:20Z</time>
      </trkpt>
      <trkpt lat="46.8476" lon="-1.00409">
        <ele>116</ele>
        <time>2023-06-03T01:24:25Z</time>
      </trkpt>
      <trkpt lat="46.84761" lon="-1.00398">
        <ele>116</ele>
        <time>2023-06-03T01:24:26Z</time>
      </trkpt>
      <trkpt lat="46.84765" lon="-1.00394">
        <ele>116</ele>
        <time>2023-06-03T01:24:27Z</time>
      </trkpt>
      <trkpt lat="46.84772" lon="-1.00397">
        <ele>116</ele>
        <time>2023-06-03T01:24:28Z</time>
      </trkpt>
      <trkpt lat="46.84774" lon="-1.00404">
        <ele>116</ele>
        <time>2023-06-03T01:24:29Z</time>
      </trkpt>
      <trkpt lat="46.84873" lon="-1.0038">
        <ele>114</ele>
        <time>2023-06-03T01:24:47Z</time>
      </trkpt>
      <trkpt lat="46.84918" lon="-1.00379">
        <ele>114</ele>
        <time>2023-06-03T01:24:55Z</time>
      </trkpt>
      <trkpt lat="46.84956" lon="-1.00381">
        <ele>113</ele>
        <time>2023-06-03T01:25:02Z</time>
      </trkpt>
      <trkpt lat="46.84987" lon="-1.00387">
        <ele>113</ele>
        <time>2023-06-03T01:25:07Z</time>
      </trkpt>
      <trkpt lat="46.85025" lon="-1.00397">
        <ele>112</ele>
        <time>2023-06-03T01:25:14Z</time>
      </trkpt>
      <trkpt lat="46.85054" lon="-1.0041">
        <ele>111</ele>
        <time>2023-06-03T01:25:20Z</time>
      </trkpt>
      <trkpt lat="46.85112" lon="-1.00447">
        <ele>110</ele>
        <time>2023-06-03T01:25:31Z</time>
      </trkpt>
      <trkpt lat="46.85261" lon="-1.00556">
        <ele>110</ele>
        <time>2023-06-03T01:26:00Z</time>
      </trkpt>
      <trkpt lat="46.85285" lon="-1.00572">
        <ele>110</ele>
        <time>2023-06-03T01:26:05Z</time>
      </trkpt>
      <trkpt lat="46.8534" lon="-1.00587">
        <ele>109</ele>
        <time>2023-06-03T01:26:15Z</time>
      </trkpt>
      <trkpt lat="46.85421" lon="-1.00623">
        <ele>108</ele>
        <time>2023-06-03T01:26:30Z</time>
      </trkpt>
      <trkpt lat="46.85483" lon="-1.00655">
        <ele>108</ele>
        <time>2023-06-03T01:26:42Z</time>
      </trkpt>
      <trkpt lat="46.85509" lon="-1.00674">
        <ele>108</ele>
        <time>2023-06-03T01:26:47Z</time>
      </trkpt>
      <trkpt lat="46.85539" lon="-1.00693">
        <ele>108</ele>
        <time>2023-06-03T01:26:53Z</time>
      </trkpt>
      <trkpt lat="46.85562" lon="-1.00711">
        <ele>108</ele>
        <time>2023-06-03T01:26:57Z</time>
      </trkpt>
      <trkpt lat="46.8569" lon="-1.00829">
        <ele>112</ele>
        <time>2023-06-03T01:27:24Z</time>
      </trkpt>
      <trkpt lat="46.85838" lon="-1.00917">
        <ele>113</ele>
        <time>2023-06-03T01:27:53Z</time>
      </trkpt>
      <trkpt lat="46.8584" lon="-1.00911">
        <ele>113</ele>
        <time>2023-06-03T01:27:54Z</time>
      </trkpt>
      <trkpt lat="46.85848" lon="-1.00905">
        <ele>113</ele>
        <time>2023-06-03T01:27:55Z</time>
      </trkpt>
      <trkpt lat="46.85852" lon="-1.00904">
        <ele>113</ele>
        <time>2023-06-03T01:27:56Z</time>
      </trkpt>
      <trkpt lat="46.85859" lon="-1.00908">
        <ele>113</ele>
        <time>2023-06-03T01:27:57Z</time>
      </trkpt>
      <trkpt lat="46.85864" lon="-1.00916">
        <ele>113</ele>
        <time>2023-06-03T01:27:59Z</time>
      </trkpt>
      <trkpt lat="46.85864" lon="-1.00927">
        <ele>113</ele>
        <time>2023-06-03T01:28:00Z</time>
      </trkpt>
      <trkpt lat="46.85869" lon="-1.00937">
        <ele>113</ele>
        <time>2023-06-03T01:28:01Z</time>
      </trkpt>
      <trkpt lat="46.85879" lon="-1.00946">
        <ele>113</ele>
        <time>2023-06-03T01:28:04Z</time>
      </trkpt>
      <trkpt lat="46.85951" lon="-1.00979">
        <ele>113</ele>
        <time>2023-06-03T01:28:17Z</time>
      </trkpt>
      <trkpt lat="46.85956" lon="-1.00964">
        <ele>113</ele>
        <time>2023-06-03T01:28:19Z</time>
      </trkpt>
      <trkpt lat="46.85979" lon="-1.00924">
        <ele>112</ele>
        <time>2023-06-03T01:28:25Z</time>
      </trkpt>
      <trkpt lat="46.85999" lon="-1.00892">
        <ele>112</ele>
        <time>2023-06-03T01:28:31Z</time>
      </trkpt>
      <trkpt lat="46.86055" lon="-1.00815">
        <ele>114</ele>
        <time>2023-06-03T01:28:44Z</time>
      </trkpt>
      <trkpt lat="46.86094" lon="-1.00769">
        <ele>115</ele>
        <time>2023-06-03T01:28:53Z</time>
      </trkpt>
      <trkpt lat="46.86138" lon="-1.00732">
        <ele>116</ele>
        <time>2023-06-03T01:29:02Z</time>
      </trkpt>
      <trkpt lat="46.86191" lon="-1.00701">
        <ele>117</ele>
        <time>2023-06-03T01:29:12Z</time>
      </trkpt>
      <trkpt lat="46.86271" lon="-1.00663">
        <ele>118</ele>
        <time>2023-06-03T01:29:27Z</time>
      </trkpt>
      <trkpt lat="46.86316" lon="-1.00633">
        <ele>119</ele>
        <time>2023-06-03T01:29:36Z</time>
      </trkpt>
      <trkpt lat="46.86367" lon="-1.00581">
        <ele>120</ele>
        <time>2023-06-03T01:29:47Z</time>
      </trkpt>
      <trkpt lat="46.86375" lon="-1.00571">
        <ele>120</ele>
        <time>2023-06-03T01:29:49Z</time>
      </trkpt>
    </trkseg>
  </trk>
</gpx>